<?xml version="1.0" encoding="UTF-8" standalone="no" ?>
<gpx xmlns="http://www.topografix.com/GPX/1/1" xmlns:xsi="http://www.w3.org/2001/XMLSchema-instance" xsi:schemaLocation="http://www.topografix.com/GPX/1/1 http://www.topografix.com/GPX/1/1/gpx.xsd" version="1.1" creator="VisuGPX - https://www.visugpx.com">
  <metadata>
    <name>Sardine104-9970404</name>
    <desc><![CDATA[Circuit randonnée de la sardine]]></desc>
  </metadata>
  <trk>
    <name><![CDATA[Sardine104-9970404]]></name>
    <trkseg>
      <trkpt lat="46.69457" lon="-1.92764">
        <ele>13</ele>
        <time>2019-05-20T17:17:42Z</time>
      </trkpt>
      <trkpt lat="46.69452" lon="-1.92722">
        <ele>13</ele>
        <time>2019-05-20T17:17:47Z</time>
      </trkpt>
      <trkpt lat="46.69442" lon="-1.92583">
        <ele>14</ele>
        <time>2019-05-20T17:18:04Z</time>
      </trkpt>
      <trkpt lat="46.69278" lon="-1.92589">
        <ele>9</ele>
        <time>2019-05-20T17:18:33Z</time>
      </trkpt>
      <trkpt lat="46.69245" lon="-1.92587">
        <ele>9</ele>
        <time>2019-05-20T17:18:39Z</time>
      </trkpt>
      <trkpt lat="46.69241" lon="-1.92592">
        <ele>9</ele>
        <time>2019-05-20T17:18:40Z</time>
      </trkpt>
      <trkpt lat="46.69237" lon="-1.92593">
        <ele>9</ele>
        <time>2019-05-20T17:18:41Z</time>
      </trkpt>
      <trkpt lat="46.69208" lon="-1.92714">
        <ele>8</ele>
        <time>2019-05-20T17:18:57Z</time>
      </trkpt>
      <trkpt lat="46.69175" lon="-1.92984">
        <ele>4</ele>
        <time>2019-05-20T17:19:30Z</time>
      </trkpt>
      <trkpt lat="46.69174" lon="-1.93012">
        <ele>4</ele>
        <time>2019-05-20T17:19:34Z</time>
      </trkpt>
      <trkpt lat="46.69303" lon="-1.93129">
        <ele>5</ele>
        <time>2019-05-20T17:20:01Z</time>
      </trkpt>
      <trkpt lat="46.69318" lon="-1.93147">
        <ele>5</ele>
        <time>2019-05-20T17:20:04Z</time>
      </trkpt>
      <trkpt lat="46.69335" lon="-1.93175">
        <ele>5</ele>
        <time>2019-05-20T17:20:09Z</time>
      </trkpt>
      <trkpt lat="46.69346" lon="-1.93199">
        <ele>5</ele>
        <time>2019-05-20T17:20:12Z</time>
      </trkpt>
      <trkpt lat="46.69368" lon="-1.93269">
        <ele>4</ele>
        <time>2019-05-20T17:20:21Z</time>
      </trkpt>
      <trkpt lat="46.69374" lon="-1.93297">
        <ele>4</ele>
        <time>2019-05-20T17:20:25Z</time>
      </trkpt>
      <trkpt lat="46.69379" lon="-1.93308">
        <ele>4</ele>
        <time>2019-05-20T17:20:27Z</time>
      </trkpt>
      <trkpt lat="46.69385" lon="-1.93317">
        <ele>4</ele>
        <time>2019-05-20T17:20:28Z</time>
      </trkpt>
      <trkpt lat="46.69391" lon="-1.93319">
        <ele>4</ele>
        <time>2019-05-20T17:20:29Z</time>
      </trkpt>
      <trkpt lat="46.69394" lon="-1.93327">
        <ele>4</ele>
        <time>2019-05-20T17:20:30Z</time>
      </trkpt>
      <trkpt lat="46.69393" lon="-1.93333">
        <ele>4</ele>
        <time>2019-05-20T17:20:31Z</time>
      </trkpt>
      <trkpt lat="46.6939" lon="-1.93338">
        <ele>4</ele>
        <time>2019-05-20T17:20:32Z</time>
      </trkpt>
      <trkpt lat="46.69384" lon="-1.93339">
        <ele>4</ele>
        <time>2019-05-20T17:20:33Z</time>
      </trkpt>
      <trkpt lat="46.69383" lon="-1.93352">
        <ele>4</ele>
        <time>2019-05-20T17:20:35Z</time>
      </trkpt>
      <trkpt lat="46.6939" lon="-1.93352">
        <ele>4</ele>
        <time>2019-05-20T17:20:36Z</time>
      </trkpt>
      <trkpt lat="46.69395" lon="-1.93344">
        <ele>4</ele>
        <time>2019-05-20T17:20:37Z</time>
      </trkpt>
      <trkpt lat="46.69401" lon="-1.93341">
        <ele>4</ele>
        <time>2019-05-20T17:20:38Z</time>
      </trkpt>
      <trkpt lat="46.69413" lon="-1.93343">
        <ele>4</ele>
        <time>2019-05-20T17:20:41Z</time>
      </trkpt>
      <trkpt lat="46.69517" lon="-1.93383">
        <ele>4</ele>
        <time>2019-05-20T17:21:00Z</time>
      </trkpt>
      <trkpt lat="46.69525" lon="-1.9339">
        <ele>4</ele>
        <time>2019-05-20T17:21:01Z</time>
      </trkpt>
      <trkpt lat="46.69579" lon="-1.93414">
        <ele>4</ele>
        <time>2019-05-20T17:21:11Z</time>
      </trkpt>
      <trkpt lat="46.69586" lon="-1.93414">
        <ele>4</ele>
        <time>2019-05-20T17:21:13Z</time>
      </trkpt>
      <trkpt lat="46.69605" lon="-1.93424">
        <ele>4</ele>
        <time>2019-05-20T17:21:16Z</time>
      </trkpt>
      <trkpt lat="46.69607" lon="-1.93417">
        <ele>4</ele>
        <time>2019-05-20T17:21:17Z</time>
      </trkpt>
      <trkpt lat="46.69617" lon="-1.93422">
        <ele>4</ele>
        <time>2019-05-20T17:21:19Z</time>
      </trkpt>
      <trkpt lat="46.69619" lon="-1.93416">
        <ele>4</ele>
        <time>2019-05-20T17:21:20Z</time>
      </trkpt>
      <trkpt lat="46.69624" lon="-1.93414">
        <ele>5</ele>
        <time>2019-05-20T17:21:21Z</time>
      </trkpt>
      <trkpt lat="46.69627" lon="-1.93415">
        <ele>5</ele>
        <time>2019-05-20T17:21:21Z</time>
      </trkpt>
      <trkpt lat="46.69631" lon="-1.93423">
        <ele>4</ele>
        <time>2019-05-20T17:21:22Z</time>
      </trkpt>
      <trkpt lat="46.69631" lon="-1.93428">
        <ele>4</ele>
        <time>2019-05-20T17:21:23Z</time>
      </trkpt>
      <trkpt lat="46.69627" lon="-1.93435">
        <ele>4</ele>
        <time>2019-05-20T17:21:24Z</time>
      </trkpt>
      <trkpt lat="46.69621" lon="-1.93435">
        <ele>4</ele>
        <time>2019-05-20T17:21:25Z</time>
      </trkpt>
      <trkpt lat="46.69596" lon="-1.93577">
        <ele>4</ele>
        <time>2019-05-20T17:21:43Z</time>
      </trkpt>
      <trkpt lat="46.69601" lon="-1.93581">
        <ele>4</ele>
        <time>2019-05-20T17:21:44Z</time>
      </trkpt>
      <trkpt lat="46.69603" lon="-1.93588">
        <ele>4</ele>
        <time>2019-05-20T17:21:45Z</time>
      </trkpt>
      <trkpt lat="46.69601" lon="-1.93598">
        <ele>4</ele>
        <time>2019-05-20T17:21:46Z</time>
      </trkpt>
      <trkpt lat="46.69595" lon="-1.93602">
        <ele>4</ele>
        <time>2019-05-20T17:21:48Z</time>
      </trkpt>
      <trkpt lat="46.69593" lon="-1.93602">
        <ele>4</ele>
        <time>2019-05-20T17:21:48Z</time>
      </trkpt>
      <trkpt lat="46.69587" lon="-1.93595">
        <ele>4</ele>
        <time>2019-05-20T17:21:49Z</time>
      </trkpt>
      <trkpt lat="46.69569" lon="-1.93598">
        <ele>4</ele>
        <time>2019-05-20T17:21:52Z</time>
      </trkpt>
      <trkpt lat="46.69512" lon="-1.93576">
        <ele>3</ele>
        <time>2019-05-20T17:22:03Z</time>
      </trkpt>
      <trkpt lat="46.69463" lon="-1.9359">
        <ele>2</ele>
        <time>2019-05-20T17:22:12Z</time>
      </trkpt>
      <trkpt lat="46.69444" lon="-1.93596">
        <ele>2</ele>
        <time>2019-05-20T17:22:15Z</time>
      </trkpt>
      <trkpt lat="46.69434" lon="-1.93603">
        <ele>2</ele>
        <time>2019-05-20T17:22:17Z</time>
      </trkpt>
      <trkpt lat="46.69425" lon="-1.93616">
        <ele>2</ele>
        <time>2019-05-20T17:22:20Z</time>
      </trkpt>
      <trkpt lat="46.69423" lon="-1.93624">
        <ele>2</ele>
        <time>2019-05-20T17:22:21Z</time>
      </trkpt>
      <trkpt lat="46.69422" lon="-1.9364">
        <ele>2</ele>
        <time>2019-05-20T17:22:23Z</time>
      </trkpt>
      <trkpt lat="46.69423" lon="-1.93652">
        <ele>3</ele>
        <time>2019-05-20T17:22:24Z</time>
      </trkpt>
      <trkpt lat="46.6944" lon="-1.93721">
        <ele>3</ele>
        <time>2019-05-20T17:22:33Z</time>
      </trkpt>
      <trkpt lat="46.69453" lon="-1.9376">
        <ele>3</ele>
        <time>2019-05-20T17:22:38Z</time>
      </trkpt>
      <trkpt lat="46.69526" lon="-1.9391">
        <ele>4</ele>
        <time>2019-05-20T17:23:01Z</time>
      </trkpt>
      <trkpt lat="46.69548" lon="-1.93967">
        <ele>4</ele>
        <time>2019-05-20T17:23:09Z</time>
      </trkpt>
      <trkpt lat="46.69585" lon="-1.94045">
        <ele>3</ele>
        <time>2019-05-20T17:23:20Z</time>
      </trkpt>
      <trkpt lat="46.69599" lon="-1.94043">
        <ele>3</ele>
        <time>2019-05-20T17:23:23Z</time>
      </trkpt>
      <trkpt lat="46.69618" lon="-1.94028">
        <ele>3</ele>
        <time>2019-05-20T17:23:27Z</time>
      </trkpt>
      <trkpt lat="46.69624" lon="-1.94028">
        <ele>3</ele>
        <time>2019-05-20T17:23:28Z</time>
      </trkpt>
      <trkpt lat="46.69631" lon="-1.94031">
        <ele>3</ele>
        <time>2019-05-20T17:23:29Z</time>
      </trkpt>
      <trkpt lat="46.69636" lon="-1.94043">
        <ele>3</ele>
        <time>2019-05-20T17:23:31Z</time>
      </trkpt>
      <trkpt lat="46.69702" lon="-1.94314">
        <ele>4</ele>
        <time>2019-05-20T17:24:06Z</time>
      </trkpt>
      <trkpt lat="46.69777" lon="-1.9454">
        <ele>3</ele>
        <time>2019-05-20T17:24:36Z</time>
      </trkpt>
      <trkpt lat="46.6982" lon="-1.94724">
        <ele>4</ele>
        <time>2019-05-20T17:25:00Z</time>
      </trkpt>
      <trkpt lat="46.69814" lon="-1.9473">
        <ele>4</ele>
        <time>2019-05-20T17:25:01Z</time>
      </trkpt>
      <trkpt lat="46.69809" lon="-1.94744">
        <ele>4</ele>
        <time>2019-05-20T17:25:03Z</time>
      </trkpt>
      <trkpt lat="46.69757" lon="-1.94892">
        <ele>5</ele>
        <time>2019-05-20T17:25:24Z</time>
      </trkpt>
      <trkpt lat="46.69685" lon="-1.94984">
        <ele>7</ele>
        <time>2019-05-20T17:25:41Z</time>
      </trkpt>
      <trkpt lat="46.69622" lon="-1.95138">
        <ele>7</ele>
        <time>2019-05-20T17:26:03Z</time>
      </trkpt>
      <trkpt lat="46.69599" lon="-1.95186">
        <ele>7</ele>
        <time>2019-05-20T17:26:10Z</time>
      </trkpt>
      <trkpt lat="46.69599" lon="-1.95192">
        <ele>7</ele>
        <time>2019-05-20T17:26:10Z</time>
      </trkpt>
      <trkpt lat="46.69595" lon="-1.95205">
        <ele>8</ele>
        <time>2019-05-20T17:26:12Z</time>
      </trkpt>
      <trkpt lat="46.69593" lon="-1.95214">
        <ele>8</ele>
        <time>2019-05-20T17:26:13Z</time>
      </trkpt>
      <trkpt lat="46.6959" lon="-1.95312">
        <ele>11</ele>
        <time>2019-05-20T17:26:25Z</time>
      </trkpt>
      <trkpt lat="46.69578" lon="-1.95375">
        <ele>10</ele>
        <time>2019-05-20T17:26:33Z</time>
      </trkpt>
      <trkpt lat="46.69563" lon="-1.95426">
        <ele>8</ele>
        <time>2019-05-20T17:26:40Z</time>
      </trkpt>
      <trkpt lat="46.6955" lon="-1.9544">
        <ele>8</ele>
        <time>2019-05-20T17:26:43Z</time>
      </trkpt>
      <trkpt lat="46.69551" lon="-1.95447">
        <ele>8</ele>
        <time>2019-05-20T17:26:44Z</time>
      </trkpt>
      <trkpt lat="46.69547" lon="-1.95469">
        <ele>7</ele>
        <time>2019-05-20T17:26:47Z</time>
      </trkpt>
      <trkpt lat="46.69533" lon="-1.95514">
        <ele>7</ele>
        <time>2019-05-20T17:26:53Z</time>
      </trkpt>
      <trkpt lat="46.69503" lon="-1.95589">
        <ele>8</ele>
        <time>2019-05-20T17:27:03Z</time>
      </trkpt>
      <trkpt lat="46.69468" lon="-1.95751">
        <ele>7</ele>
        <time>2019-05-20T17:27:24Z</time>
      </trkpt>
      <trkpt lat="46.69447" lon="-1.95955">
        <ele>3</ele>
        <time>2019-05-20T17:27:49Z</time>
      </trkpt>
      <trkpt lat="46.69444" lon="-1.9598">
        <ele>3</ele>
        <time>2019-05-20T17:27:52Z</time>
      </trkpt>
      <trkpt lat="46.69439" lon="-1.96">
        <ele>3</ele>
        <time>2019-05-20T17:27:55Z</time>
      </trkpt>
      <trkpt lat="46.69429" lon="-1.96023">
        <ele>3</ele>
        <time>2019-05-20T17:27:58Z</time>
      </trkpt>
      <trkpt lat="46.69411" lon="-1.9605">
        <ele>4</ele>
        <time>2019-05-20T17:28:03Z</time>
      </trkpt>
      <trkpt lat="46.69399" lon="-1.96064">
        <ele>4</ele>
        <time>2019-05-20T17:28:05Z</time>
      </trkpt>
      <trkpt lat="46.69354" lon="-1.96102">
        <ele>6</ele>
        <time>2019-05-20T17:28:15Z</time>
      </trkpt>
      <trkpt lat="46.69339" lon="-1.96117">
        <ele>7</ele>
        <time>2019-05-20T17:28:18Z</time>
      </trkpt>
      <trkpt lat="46.69334" lon="-1.96125">
        <ele>7</ele>
        <time>2019-05-20T17:28:19Z</time>
      </trkpt>
      <trkpt lat="46.69329" lon="-1.96138">
        <ele>8</ele>
        <time>2019-05-20T17:28:21Z</time>
      </trkpt>
      <trkpt lat="46.69325" lon="-1.96164">
        <ele>10</ele>
        <time>2019-05-20T17:28:24Z</time>
      </trkpt>
      <trkpt lat="46.69327" lon="-1.96327">
        <ele>15</ele>
        <time>2019-05-20T17:28:44Z</time>
      </trkpt>
      <trkpt lat="46.69318" lon="-1.96471">
        <ele>12</ele>
        <time>2019-05-20T17:29:02Z</time>
      </trkpt>
      <trkpt lat="46.69314" lon="-1.96539">
        <ele>11</ele>
        <time>2019-05-20T17:29:10Z</time>
      </trkpt>
      <trkpt lat="46.69315" lon="-1.96574">
        <ele>11</ele>
        <time>2019-05-20T17:29:15Z</time>
      </trkpt>
      <trkpt lat="46.6932" lon="-1.96621">
        <ele>11</ele>
        <time>2019-05-20T17:29:20Z</time>
      </trkpt>
      <trkpt lat="46.6933" lon="-1.96663">
        <ele>11</ele>
        <time>2019-05-20T17:29:26Z</time>
      </trkpt>
      <trkpt lat="46.69351" lon="-1.9672">
        <ele>9</ele>
        <time>2019-05-20T17:29:34Z</time>
      </trkpt>
      <trkpt lat="46.69366" lon="-1.96747">
        <ele>9</ele>
        <time>2019-05-20T17:29:38Z</time>
      </trkpt>
      <trkpt lat="46.69389" lon="-1.96776">
        <ele>10</ele>
        <time>2019-05-20T17:29:43Z</time>
      </trkpt>
      <trkpt lat="46.69577" lon="-1.96959">
        <ele>8</ele>
        <time>2019-05-20T17:30:24Z</time>
      </trkpt>
      <trkpt lat="46.69774" lon="-1.97167">
        <ele>10</ele>
        <time>2019-05-20T17:31:07Z</time>
      </trkpt>
      <trkpt lat="46.69861" lon="-1.97234">
        <ele>8</ele>
        <time>2019-05-20T17:31:24Z</time>
      </trkpt>
      <trkpt lat="46.69893" lon="-1.97261">
        <ele>7</ele>
        <time>2019-05-20T17:31:31Z</time>
      </trkpt>
      <trkpt lat="46.69944" lon="-1.97298">
        <ele>8</ele>
        <time>2019-05-20T17:31:41Z</time>
      </trkpt>
      <trkpt lat="46.69965" lon="-1.97316">
        <ele>10</ele>
        <time>2019-05-20T17:31:45Z</time>
      </trkpt>
      <trkpt lat="46.69993" lon="-1.97345">
        <ele>12</ele>
        <time>2019-05-20T17:31:51Z</time>
      </trkpt>
      <trkpt lat="46.70005" lon="-1.97359">
        <ele>12</ele>
        <time>2019-05-20T17:31:54Z</time>
      </trkpt>
      <trkpt lat="46.70206" lon="-1.97631">
        <ele>11</ele>
        <time>2019-05-20T17:32:43Z</time>
      </trkpt>
      <trkpt lat="46.7024" lon="-1.9767">
        <ele>11</ele>
        <time>2019-05-20T17:32:51Z</time>
      </trkpt>
      <trkpt lat="46.70445" lon="-1.9788">
        <ele>6</ele>
        <time>2019-05-20T17:33:35Z</time>
      </trkpt>
      <trkpt lat="46.70463" lon="-1.97896">
        <ele>5</ele>
        <time>2019-05-20T17:33:39Z</time>
      </trkpt>
      <trkpt lat="46.70476" lon="-1.97905">
        <ele>5</ele>
        <time>2019-05-20T17:33:42Z</time>
      </trkpt>
      <trkpt lat="46.70518" lon="-1.97925">
        <ele>5</ele>
        <time>2019-05-20T17:33:49Z</time>
      </trkpt>
      <trkpt lat="46.70547" lon="-1.9793">
        <ele>4</ele>
        <time>2019-05-20T17:33:55Z</time>
      </trkpt>
      <trkpt lat="46.70567" lon="-1.97929">
        <ele>4</ele>
        <time>2019-05-20T17:33:58Z</time>
      </trkpt>
      <trkpt lat="46.7064" lon="-1.97905">
        <ele>5</ele>
        <time>2019-05-20T17:34:11Z</time>
      </trkpt>
      <trkpt lat="46.70675" lon="-1.97898">
        <ele>6</ele>
        <time>2019-05-20T17:34:18Z</time>
      </trkpt>
      <trkpt lat="46.7069" lon="-1.97898">
        <ele>6</ele>
        <time>2019-05-20T17:34:20Z</time>
      </trkpt>
      <trkpt lat="46.70747" lon="-1.97904">
        <ele>6</ele>
        <time>2019-05-20T17:34:31Z</time>
      </trkpt>
      <trkpt lat="46.70747" lon="-1.97897">
        <ele>7</ele>
        <time>2019-05-20T17:34:31Z</time>
      </trkpt>
      <trkpt lat="46.7081" lon="-1.97903">
        <ele>8</ele>
        <time>2019-05-20T17:34:43Z</time>
      </trkpt>
      <trkpt lat="46.70817" lon="-1.97905">
        <ele>8</ele>
        <time>2019-05-20T17:34:44Z</time>
      </trkpt>
      <trkpt lat="46.70926" lon="-1.97955">
        <ele>9</ele>
        <time>2019-05-20T17:35:04Z</time>
      </trkpt>
      <trkpt lat="46.70943" lon="-1.97961">
        <ele>9</ele>
        <time>2019-05-20T17:35:07Z</time>
      </trkpt>
      <trkpt lat="46.70957" lon="-1.97961">
        <ele>9</ele>
        <time>2019-05-20T17:35:10Z</time>
      </trkpt>
      <trkpt lat="46.70975" lon="-1.97956">
        <ele>9</ele>
        <time>2019-05-20T17:35:13Z</time>
      </trkpt>
      <trkpt lat="46.70996" lon="-1.97947">
        <ele>9</ele>
        <time>2019-05-20T17:35:17Z</time>
      </trkpt>
      <trkpt lat="46.71004" lon="-1.9794">
        <ele>9</ele>
        <time>2019-05-20T17:35:19Z</time>
      </trkpt>
      <trkpt lat="46.71005" lon="-1.97932">
        <ele>10</ele>
        <time>2019-05-20T17:35:20Z</time>
      </trkpt>
      <trkpt lat="46.71009" lon="-1.97929">
        <ele>10</ele>
        <time>2019-05-20T17:35:21Z</time>
      </trkpt>
      <trkpt lat="46.7102" lon="-1.97884">
        <ele>10</ele>
        <time>2019-05-20T17:35:26Z</time>
      </trkpt>
      <trkpt lat="46.71025" lon="-1.97859">
        <ele>10</ele>
        <time>2019-05-20T17:35:30Z</time>
      </trkpt>
      <trkpt lat="46.71029" lon="-1.97849">
        <ele>10</ele>
        <time>2019-05-20T17:35:31Z</time>
      </trkpt>
      <trkpt lat="46.71034" lon="-1.97846">
        <ele>10</ele>
        <time>2019-05-20T17:35:32Z</time>
      </trkpt>
      <trkpt lat="46.71089" lon="-1.97846">
        <ele>9</ele>
        <time>2019-05-20T17:35:42Z</time>
      </trkpt>
      <trkpt lat="46.71129" lon="-1.97848">
        <ele>8</ele>
        <time>2019-05-20T17:35:49Z</time>
      </trkpt>
      <trkpt lat="46.71132" lon="-1.97842">
        <ele>8</ele>
        <time>2019-05-20T17:35:50Z</time>
      </trkpt>
      <trkpt lat="46.71135" lon="-1.97844">
        <ele>8</ele>
        <time>2019-05-20T17:35:50Z</time>
      </trkpt>
      <trkpt lat="46.71137" lon="-1.97849">
        <ele>8</ele>
        <time>2019-05-20T17:35:51Z</time>
      </trkpt>
      <trkpt lat="46.71176" lon="-1.97825">
        <ele>7</ele>
        <time>2019-05-20T17:35:59Z</time>
      </trkpt>
      <trkpt lat="46.71231" lon="-1.97784">
        <ele>6</ele>
        <time>2019-05-20T17:36:10Z</time>
      </trkpt>
      <trkpt lat="46.7123" lon="-1.97781">
        <ele>6</ele>
        <time>2019-05-20T17:36:10Z</time>
      </trkpt>
      <trkpt lat="46.71231" lon="-1.97774">
        <ele>7</ele>
        <time>2019-05-20T17:36:11Z</time>
      </trkpt>
      <trkpt lat="46.71233" lon="-1.97772">
        <ele>7</ele>
        <time>2019-05-20T17:36:11Z</time>
      </trkpt>
      <trkpt lat="46.71235" lon="-1.97771">
        <ele>7</ele>
        <time>2019-05-20T17:36:12Z</time>
      </trkpt>
      <trkpt lat="46.7124" lon="-1.97773">
        <ele>7</ele>
        <time>2019-05-20T17:36:13Z</time>
      </trkpt>
      <trkpt lat="46.71241" lon="-1.97776">
        <ele>6</ele>
        <time>2019-05-20T17:36:13Z</time>
      </trkpt>
      <trkpt lat="46.71275" lon="-1.97748">
        <ele>7</ele>
        <time>2019-05-20T17:36:20Z</time>
      </trkpt>
      <trkpt lat="46.71295" lon="-1.97729">
        <ele>8</ele>
        <time>2019-05-20T17:36:24Z</time>
      </trkpt>
      <trkpt lat="46.71305" lon="-1.97718">
        <ele>8</ele>
        <time>2019-05-20T17:36:26Z</time>
      </trkpt>
      <trkpt lat="46.71332" lon="-1.97693">
        <ele>9</ele>
        <time>2019-05-20T17:36:32Z</time>
      </trkpt>
      <trkpt lat="46.71388" lon="-1.97633">
        <ele>9</ele>
        <time>2019-05-20T17:36:44Z</time>
      </trkpt>
      <trkpt lat="46.71405" lon="-1.97607">
        <ele>9</ele>
        <time>2019-05-20T17:36:49Z</time>
      </trkpt>
      <trkpt lat="46.71415" lon="-1.97595">
        <ele>9</ele>
        <time>2019-05-20T17:36:51Z</time>
      </trkpt>
      <trkpt lat="46.71433" lon="-1.97568">
        <ele>9</ele>
        <time>2019-05-20T17:36:56Z</time>
      </trkpt>
      <trkpt lat="46.71682" lon="-1.9714">
        <ele>13</ele>
        <time>2019-05-20T17:38:04Z</time>
      </trkpt>
      <trkpt lat="46.71761" lon="-1.97027">
        <ele>14</ele>
        <time>2019-05-20T17:38:24Z</time>
      </trkpt>
      <trkpt lat="46.71773" lon="-1.97003">
        <ele>14</ele>
        <time>2019-05-20T17:38:27Z</time>
      </trkpt>
      <trkpt lat="46.71786" lon="-1.96975">
        <ele>14</ele>
        <time>2019-05-20T17:38:32Z</time>
      </trkpt>
      <trkpt lat="46.71832" lon="-1.96862">
        <ele>14</ele>
        <time>2019-05-20T17:38:48Z</time>
      </trkpt>
      <trkpt lat="46.71849" lon="-1.96809">
        <ele>14</ele>
        <time>2019-05-20T17:38:55Z</time>
      </trkpt>
      <trkpt lat="46.71853" lon="-1.96782">
        <ele>13</ele>
        <time>2019-05-20T17:38:58Z</time>
      </trkpt>
      <trkpt lat="46.71853" lon="-1.96762">
        <ele>12</ele>
        <time>2019-05-20T17:39:01Z</time>
      </trkpt>
      <trkpt lat="46.71848" lon="-1.96627">
        <ele>12</ele>
        <time>2019-05-20T17:39:17Z</time>
      </trkpt>
      <trkpt lat="46.71848" lon="-1.9656">
        <ele>13</ele>
        <time>2019-05-20T17:39:25Z</time>
      </trkpt>
      <trkpt lat="46.7186" lon="-1.96447">
        <ele>16</ele>
        <time>2019-05-20T17:39:39Z</time>
      </trkpt>
      <trkpt lat="46.71864" lon="-1.96425">
        <ele>16</ele>
        <time>2019-05-20T17:39:42Z</time>
      </trkpt>
      <trkpt lat="46.71874" lon="-1.96398">
        <ele>16</ele>
        <time>2019-05-20T17:39:46Z</time>
      </trkpt>
      <trkpt lat="46.7189" lon="-1.96368">
        <ele>16</ele>
        <time>2019-05-20T17:39:50Z</time>
      </trkpt>
      <trkpt lat="46.7196" lon="-1.96256">
        <ele>14</ele>
        <time>2019-05-20T17:40:09Z</time>
      </trkpt>
      <trkpt lat="46.71988" lon="-1.96154">
        <ele>16</ele>
        <time>2019-05-20T17:40:22Z</time>
      </trkpt>
      <trkpt lat="46.72064" lon="-1.95859">
        <ele>17</ele>
        <time>2019-05-20T17:41:01Z</time>
      </trkpt>
      <trkpt lat="46.72073" lon="-1.9583">
        <ele>16</ele>
        <time>2019-05-20T17:41:05Z</time>
      </trkpt>
      <trkpt lat="46.72087" lon="-1.958">
        <ele>15</ele>
        <time>2019-05-20T17:41:09Z</time>
      </trkpt>
      <trkpt lat="46.72099" lon="-1.9578">
        <ele>14</ele>
        <time>2019-05-20T17:41:12Z</time>
      </trkpt>
      <trkpt lat="46.72205" lon="-1.95636">
        <ele>13</ele>
        <time>2019-05-20T17:41:38Z</time>
      </trkpt>
      <trkpt lat="46.72215" lon="-1.9563">
        <ele>13</ele>
        <time>2019-05-20T17:41:40Z</time>
      </trkpt>
      <trkpt lat="46.72232" lon="-1.95624">
        <ele>12</ele>
        <time>2019-05-20T17:41:43Z</time>
      </trkpt>
      <trkpt lat="46.72377" lon="-1.95609">
        <ele>6</ele>
        <time>2019-05-20T17:42:09Z</time>
      </trkpt>
      <trkpt lat="46.72395" lon="-1.95599">
        <ele>6</ele>
        <time>2019-05-20T17:42:12Z</time>
      </trkpt>
      <trkpt lat="46.72404" lon="-1.95592">
        <ele>5</ele>
        <time>2019-05-20T17:42:14Z</time>
      </trkpt>
      <trkpt lat="46.7242" lon="-1.9557">
        <ele>5</ele>
        <time>2019-05-20T17:42:18Z</time>
      </trkpt>
      <trkpt lat="46.7243" lon="-1.95546">
        <ele>5</ele>
        <time>2019-05-20T17:42:21Z</time>
      </trkpt>
      <trkpt lat="46.72443" lon="-1.95501">
        <ele>5</ele>
        <time>2019-05-20T17:42:27Z</time>
      </trkpt>
      <trkpt lat="46.72441" lon="-1.95437">
        <ele>6</ele>
        <time>2019-05-20T17:42:35Z</time>
      </trkpt>
      <trkpt lat="46.72431" lon="-1.95324">
        <ele>7</ele>
        <time>2019-05-20T17:42:49Z</time>
      </trkpt>
      <trkpt lat="46.72422" lon="-1.95243">
        <ele>8</ele>
        <time>2019-05-20T17:42:59Z</time>
      </trkpt>
      <trkpt lat="46.72394" lon="-1.95104">
        <ele>6</ele>
        <time>2019-05-20T17:43:17Z</time>
      </trkpt>
      <trkpt lat="46.72373" lon="-1.95038">
        <ele>6</ele>
        <time>2019-05-20T17:43:26Z</time>
      </trkpt>
      <trkpt lat="46.72351" lon="-1.94974">
        <ele>6</ele>
        <time>2019-05-20T17:43:34Z</time>
      </trkpt>
      <trkpt lat="46.72337" lon="-1.94915">
        <ele>7</ele>
        <time>2019-05-20T17:43:42Z</time>
      </trkpt>
      <trkpt lat="46.72336" lon="-1.94908">
        <ele>7</ele>
        <time>2019-05-20T17:43:43Z</time>
      </trkpt>
      <trkpt lat="46.7234" lon="-1.94897">
        <ele>7</ele>
        <time>2019-05-20T17:43:44Z</time>
      </trkpt>
      <trkpt lat="46.72348" lon="-1.94893">
        <ele>7</ele>
        <time>2019-05-20T17:43:46Z</time>
      </trkpt>
      <trkpt lat="46.72369" lon="-1.949">
        <ele>6</ele>
        <time>2019-05-20T17:43:50Z</time>
      </trkpt>
      <trkpt lat="46.72386" lon="-1.94903">
        <ele>6</ele>
        <time>2019-05-20T17:43:53Z</time>
      </trkpt>
      <trkpt lat="46.72428" lon="-1.94904">
        <ele>6</ele>
        <time>2019-05-20T17:44:00Z</time>
      </trkpt>
      <trkpt lat="46.72462" lon="-1.94909">
        <ele>5</ele>
        <time>2019-05-20T17:44:06Z</time>
      </trkpt>
      <trkpt lat="46.72519" lon="-1.94935">
        <ele>5</ele>
        <time>2019-05-20T17:44:17Z</time>
      </trkpt>
      <trkpt lat="46.72546" lon="-1.94945">
        <ele>5</ele>
        <time>2019-05-20T17:44:22Z</time>
      </trkpt>
      <trkpt lat="46.72571" lon="-1.94951">
        <ele>5</ele>
        <time>2019-05-20T17:44:26Z</time>
      </trkpt>
      <trkpt lat="46.72604" lon="-1.94956">
        <ele>4</ele>
        <time>2019-05-20T17:44:32Z</time>
      </trkpt>
      <trkpt lat="46.72665" lon="-1.94956">
        <ele>4</ele>
        <time>2019-05-20T17:44:43Z</time>
      </trkpt>
      <trkpt lat="46.72715" lon="-1.94949">
        <ele>4</ele>
        <time>2019-05-20T17:44:52Z</time>
      </trkpt>
      <trkpt lat="46.72714" lon="-1.94965">
        <ele>4</ele>
        <time>2019-05-20T17:44:54Z</time>
      </trkpt>
      <trkpt lat="46.72727" lon="-1.94965">
        <ele>4</ele>
        <time>2019-05-20T17:44:56Z</time>
      </trkpt>
      <trkpt lat="46.72738" lon="-1.94963">
        <ele>4</ele>
        <time>2019-05-20T17:44:58Z</time>
      </trkpt>
      <trkpt lat="46.72754" lon="-1.94967">
        <ele>4</ele>
        <time>2019-05-20T17:45:01Z</time>
      </trkpt>
      <trkpt lat="46.72775" lon="-1.94982">
        <ele>4</ele>
        <time>2019-05-20T17:45:05Z</time>
      </trkpt>
      <trkpt lat="46.7278" lon="-1.94988">
        <ele>4</ele>
        <time>2019-05-20T17:45:07Z</time>
      </trkpt>
      <trkpt lat="46.72787" lon="-1.94987">
        <ele>4</ele>
        <time>2019-05-20T17:45:08Z</time>
      </trkpt>
      <trkpt lat="46.72811" lon="-1.94975">
        <ele>5</ele>
        <time>2019-05-20T17:45:12Z</time>
      </trkpt>
      <trkpt lat="46.72818" lon="-1.94962">
        <ele>4</ele>
        <time>2019-05-20T17:45:14Z</time>
      </trkpt>
      <trkpt lat="46.72829" lon="-1.94951">
        <ele>4</ele>
        <time>2019-05-20T17:45:17Z</time>
      </trkpt>
      <trkpt lat="46.72855" lon="-1.94939">
        <ele>4</ele>
        <time>2019-05-20T17:45:22Z</time>
      </trkpt>
      <trkpt lat="46.72866" lon="-1.94925">
        <ele>4</ele>
        <time>2019-05-20T17:45:24Z</time>
      </trkpt>
      <trkpt lat="46.72898" lon="-1.94926">
        <ele>4</ele>
        <time>2019-05-20T17:45:30Z</time>
      </trkpt>
      <trkpt lat="46.72938" lon="-1.94938">
        <ele>5</ele>
        <time>2019-05-20T17:45:37Z</time>
      </trkpt>
      <trkpt lat="46.73044" lon="-1.94977">
        <ele>7</ele>
        <time>2019-05-20T17:45:57Z</time>
      </trkpt>
      <trkpt lat="46.73128" lon="-1.95005">
        <ele>7</ele>
        <time>2019-05-20T17:46:12Z</time>
      </trkpt>
      <trkpt lat="46.73429" lon="-1.95059">
        <ele>5</ele>
        <time>2019-05-20T17:47:06Z</time>
      </trkpt>
      <trkpt lat="46.73473" lon="-1.9506">
        <ele>4</ele>
        <time>2019-05-20T17:47:14Z</time>
      </trkpt>
      <trkpt lat="46.7348" lon="-1.95058">
        <ele>4</ele>
        <time>2019-05-20T17:47:15Z</time>
      </trkpt>
      <trkpt lat="46.7349" lon="-1.95049">
        <ele>4</ele>
        <time>2019-05-20T17:47:17Z</time>
      </trkpt>
      <trkpt lat="46.73505" lon="-1.9502">
        <ele>5</ele>
        <time>2019-05-20T17:47:22Z</time>
      </trkpt>
      <trkpt lat="46.73536" lon="-1.94948">
        <ele>6</ele>
        <time>2019-05-20T17:47:32Z</time>
      </trkpt>
      <trkpt lat="46.73576" lon="-1.94882">
        <ele>7</ele>
        <time>2019-05-20T17:47:43Z</time>
      </trkpt>
      <trkpt lat="46.73596" lon="-1.94852">
        <ele>7</ele>
        <time>2019-05-20T17:47:48Z</time>
      </trkpt>
      <trkpt lat="46.73635" lon="-1.94794">
        <ele>6</ele>
        <time>2019-05-20T17:47:58Z</time>
      </trkpt>
      <trkpt lat="46.73854" lon="-1.94491">
        <ele>7</ele>
        <time>2019-05-20T17:48:51Z</time>
      </trkpt>
      <trkpt lat="46.73883" lon="-1.94439">
        <ele>10</ele>
        <time>2019-05-20T17:49:00Z</time>
      </trkpt>
      <trkpt lat="46.73889" lon="-1.94425">
        <ele>10</ele>
        <time>2019-05-20T17:49:02Z</time>
      </trkpt>
      <trkpt lat="46.73914" lon="-1.94345">
        <ele>12</ele>
        <time>2019-05-20T17:49:12Z</time>
      </trkpt>
      <trkpt lat="46.73956" lon="-1.94192">
        <ele>13</ele>
        <time>2019-05-20T17:49:32Z</time>
      </trkpt>
      <trkpt lat="46.73962" lon="-1.94139">
        <ele>13</ele>
        <time>2019-05-20T17:49:39Z</time>
      </trkpt>
      <trkpt lat="46.73961" lon="-1.9411">
        <ele>12</ele>
        <time>2019-05-20T17:49:42Z</time>
      </trkpt>
      <trkpt lat="46.73866" lon="-1.93465">
        <ele>13</ele>
        <time>2019-05-20T17:51:03Z</time>
      </trkpt>
      <trkpt lat="46.73853" lon="-1.93378">
        <ele>12</ele>
        <time>2019-05-20T17:51:14Z</time>
      </trkpt>
      <trkpt lat="46.73849" lon="-1.93335">
        <ele>11</ele>
        <time>2019-05-20T17:51:19Z</time>
      </trkpt>
      <trkpt lat="46.73821" lon="-1.92806">
        <ele>10</ele>
        <time>2019-05-20T17:52:24Z</time>
      </trkpt>
      <trkpt lat="46.73816" lon="-1.92735">
        <ele>10</ele>
        <time>2019-05-20T17:52:32Z</time>
      </trkpt>
      <trkpt lat="46.73817" lon="-1.92695">
        <ele>11</ele>
        <time>2019-05-20T17:52:37Z</time>
      </trkpt>
      <trkpt lat="46.73822" lon="-1.9267">
        <ele>11</ele>
        <time>2019-05-20T17:52:41Z</time>
      </trkpt>
      <trkpt lat="46.73969" lon="-1.92178">
        <ele>4</ele>
        <time>2019-05-20T17:53:46Z</time>
      </trkpt>
      <trkpt lat="46.73974" lon="-1.92155">
        <ele>4</ele>
        <time>2019-05-20T17:53:49Z</time>
      </trkpt>
      <trkpt lat="46.73976" lon="-1.92131">
        <ele>4</ele>
        <time>2019-05-20T17:53:52Z</time>
      </trkpt>
      <trkpt lat="46.73975" lon="-1.92092">
        <ele>4</ele>
        <time>2019-05-20T17:53:57Z</time>
      </trkpt>
      <trkpt lat="46.73984" lon="-1.92042">
        <ele>4</ele>
        <time>2019-05-20T17:54:03Z</time>
      </trkpt>
      <trkpt lat="46.73991" lon="-1.9202">
        <ele>5</ele>
        <time>2019-05-20T17:54:06Z</time>
      </trkpt>
      <trkpt lat="46.74007" lon="-1.91983">
        <ele>5</ele>
        <time>2019-05-20T17:54:11Z</time>
      </trkpt>
      <trkpt lat="46.74056" lon="-1.91896">
        <ele>4</ele>
        <time>2019-05-20T17:54:25Z</time>
      </trkpt>
      <trkpt lat="46.74156" lon="-1.91738">
        <ele>4</ele>
        <time>2019-05-20T17:54:51Z</time>
      </trkpt>
      <trkpt lat="46.742" lon="-1.91664">
        <ele>4</ele>
        <time>2019-05-20T17:55:03Z</time>
      </trkpt>
      <trkpt lat="46.7425" lon="-1.91561">
        <ele>4</ele>
        <time>2019-05-20T17:55:19Z</time>
      </trkpt>
      <trkpt lat="46.74323" lon="-1.91403">
        <ele>4</ele>
        <time>2019-05-20T17:55:42Z</time>
      </trkpt>
      <trkpt lat="46.74358" lon="-1.91332">
        <ele>4</ele>
        <time>2019-05-20T17:55:52Z</time>
      </trkpt>
      <trkpt lat="46.74387" lon="-1.91293">
        <ele>3</ele>
        <time>2019-05-20T17:55:59Z</time>
      </trkpt>
      <trkpt lat="46.74566" lon="-1.91075">
        <ele>3</ele>
        <time>2019-05-20T17:56:41Z</time>
      </trkpt>
      <trkpt lat="46.74575" lon="-1.91061">
        <ele>2</ele>
        <time>2019-05-20T17:56:43Z</time>
      </trkpt>
      <trkpt lat="46.74577" lon="-1.91044">
        <ele>3</ele>
        <time>2019-05-20T17:56:45Z</time>
      </trkpt>
      <trkpt lat="46.74574" lon="-1.91036">
        <ele>3</ele>
        <time>2019-05-20T17:56:46Z</time>
      </trkpt>
      <trkpt lat="46.74577" lon="-1.91026">
        <ele>3</ele>
        <time>2019-05-20T17:56:48Z</time>
      </trkpt>
      <trkpt lat="46.7458" lon="-1.91024">
        <ele>3</ele>
        <time>2019-05-20T17:56:48Z</time>
      </trkpt>
      <trkpt lat="46.74587" lon="-1.91024">
        <ele>3</ele>
        <time>2019-05-20T17:56:50Z</time>
      </trkpt>
      <trkpt lat="46.74597" lon="-1.91009">
        <ele>3</ele>
        <time>2019-05-20T17:56:52Z</time>
      </trkpt>
      <trkpt lat="46.74598" lon="-1.91001">
        <ele>3</ele>
        <time>2019-05-20T17:56:53Z</time>
      </trkpt>
      <trkpt lat="46.74599" lon="-1.90976">
        <ele>3</ele>
        <time>2019-05-20T17:56:56Z</time>
      </trkpt>
      <trkpt lat="46.74596" lon="-1.90959">
        <ele>3</ele>
        <time>2019-05-20T17:56:58Z</time>
      </trkpt>
      <trkpt lat="46.74579" lon="-1.90914">
        <ele>3</ele>
        <time>2019-05-20T17:57:05Z</time>
      </trkpt>
      <trkpt lat="46.74564" lon="-1.90883">
        <ele>4</ele>
        <time>2019-05-20T17:57:09Z</time>
      </trkpt>
      <trkpt lat="46.74551" lon="-1.90863">
        <ele>4</ele>
        <time>2019-05-20T17:57:13Z</time>
      </trkpt>
      <trkpt lat="46.74513" lon="-1.90813">
        <ele>5</ele>
        <time>2019-05-20T17:57:22Z</time>
      </trkpt>
      <trkpt lat="46.74507" lon="-1.90801">
        <ele>5</ele>
        <time>2019-05-20T17:57:24Z</time>
      </trkpt>
      <trkpt lat="46.74487" lon="-1.90753">
        <ele>5</ele>
        <time>2019-05-20T17:57:30Z</time>
      </trkpt>
      <trkpt lat="46.74483" lon="-1.90734">
        <ele>5</ele>
        <time>2019-05-20T17:57:33Z</time>
      </trkpt>
      <trkpt lat="46.74483" lon="-1.90726">
        <ele>5</ele>
        <time>2019-05-20T17:57:34Z</time>
      </trkpt>
      <trkpt lat="46.74487" lon="-1.90707">
        <ele>5</ele>
        <time>2019-05-20T17:57:36Z</time>
      </trkpt>
      <trkpt lat="46.7449" lon="-1.907">
        <ele>4</ele>
        <time>2019-05-20T17:57:37Z</time>
      </trkpt>
      <trkpt lat="46.74516" lon="-1.90663">
        <ele>4</ele>
        <time>2019-05-20T17:57:44Z</time>
      </trkpt>
      <trkpt lat="46.74518" lon="-1.90655">
        <ele>4</ele>
        <time>2019-05-20T17:57:45Z</time>
      </trkpt>
      <trkpt lat="46.74527" lon="-1.90642">
        <ele>4</ele>
        <time>2019-05-20T17:57:47Z</time>
      </trkpt>
      <trkpt lat="46.74534" lon="-1.90638">
        <ele>4</ele>
        <time>2019-05-20T17:57:48Z</time>
      </trkpt>
      <trkpt lat="46.74539" lon="-1.90639">
        <ele>4</ele>
        <time>2019-05-20T17:57:49Z</time>
      </trkpt>
      <trkpt lat="46.74618" lon="-1.90574">
        <ele>2</ele>
        <time>2019-05-20T17:58:05Z</time>
      </trkpt>
      <trkpt lat="46.74682" lon="-1.90516">
        <ele>3</ele>
        <time>2019-05-20T17:58:19Z</time>
      </trkpt>
      <trkpt lat="46.74814" lon="-1.90413">
        <ele>4</ele>
        <time>2019-05-20T17:58:45Z</time>
      </trkpt>
      <trkpt lat="46.74817" lon="-1.90407">
        <ele>4</ele>
        <time>2019-05-20T17:58:46Z</time>
      </trkpt>
      <trkpt lat="46.74826" lon="-1.90398">
        <ele>4</ele>
        <time>2019-05-20T17:58:48Z</time>
      </trkpt>
      <trkpt lat="46.74828" lon="-1.9039">
        <ele>4</ele>
        <time>2019-05-20T17:58:49Z</time>
      </trkpt>
      <trkpt lat="46.74832" lon="-1.90387">
        <ele>4</ele>
        <time>2019-05-20T17:58:50Z</time>
      </trkpt>
      <trkpt lat="46.74837" lon="-1.90388">
        <ele>4</ele>
        <time>2019-05-20T17:58:51Z</time>
      </trkpt>
      <trkpt lat="46.74841" lon="-1.90394">
        <ele>4</ele>
        <time>2019-05-20T17:58:52Z</time>
      </trkpt>
      <trkpt lat="46.7485" lon="-1.90401">
        <ele>4</ele>
        <time>2019-05-20T17:58:54Z</time>
      </trkpt>
      <trkpt lat="46.74853" lon="-1.90406">
        <ele>4</ele>
        <time>2019-05-20T17:58:55Z</time>
      </trkpt>
      <trkpt lat="46.74858" lon="-1.90407">
        <ele>4</ele>
        <time>2019-05-20T17:58:56Z</time>
      </trkpt>
      <trkpt lat="46.74917" lon="-1.90403">
        <ele>4</ele>
        <time>2019-05-20T17:59:06Z</time>
      </trkpt>
      <trkpt lat="46.75038" lon="-1.90405">
        <ele>3</ele>
        <time>2019-05-20T17:59:28Z</time>
      </trkpt>
      <trkpt lat="46.75096" lon="-1.90395">
        <ele>3</ele>
        <time>2019-05-20T17:59:38Z</time>
      </trkpt>
      <trkpt lat="46.75278" lon="-1.90335">
        <ele>3</ele>
        <time>2019-05-20T18:00:11Z</time>
      </trkpt>
      <trkpt lat="46.75303" lon="-1.90325">
        <ele>3</ele>
        <time>2019-05-20T18:00:16Z</time>
      </trkpt>
      <trkpt lat="46.75359" lon="-1.90297">
        <ele>2</ele>
        <time>2019-05-20T18:00:26Z</time>
      </trkpt>
      <trkpt lat="46.75384" lon="-1.90276">
        <ele>2</ele>
        <time>2019-05-20T18:00:31Z</time>
      </trkpt>
      <trkpt lat="46.75497" lon="-1.90132">
        <ele>3</ele>
        <time>2019-05-20T18:00:58Z</time>
      </trkpt>
      <trkpt lat="46.75654" lon="-1.89913">
        <ele>2</ele>
        <time>2019-05-20T18:01:37Z</time>
      </trkpt>
      <trkpt lat="46.75748" lon="-1.89777">
        <ele>4</ele>
        <time>2019-05-20T18:02:00Z</time>
      </trkpt>
      <trkpt lat="46.75792" lon="-1.89707">
        <ele>4</ele>
        <time>2019-05-20T18:02:12Z</time>
      </trkpt>
      <trkpt lat="46.75829" lon="-1.89638">
        <ele>4</ele>
        <time>2019-05-20T18:02:23Z</time>
      </trkpt>
      <trkpt lat="46.75929" lon="-1.89481">
        <ele>3</ele>
        <time>2019-05-20T18:02:49Z</time>
      </trkpt>
      <trkpt lat="46.76032" lon="-1.8935">
        <ele>4</ele>
        <time>2019-05-20T18:03:13Z</time>
      </trkpt>
      <trkpt lat="46.76099" lon="-1.89251">
        <ele>4</ele>
        <time>2019-05-20T18:03:30Z</time>
      </trkpt>
      <trkpt lat="46.76129" lon="-1.89199">
        <ele>4</ele>
        <time>2019-05-20T18:03:38Z</time>
      </trkpt>
      <trkpt lat="46.76179" lon="-1.89121">
        <ele>3</ele>
        <time>2019-05-20T18:03:51Z</time>
      </trkpt>
      <trkpt lat="46.76215" lon="-1.89071">
        <ele>3</ele>
        <time>2019-05-20T18:04:00Z</time>
      </trkpt>
      <trkpt lat="46.76274" lon="-1.89006">
        <ele>4</ele>
        <time>2019-05-20T18:04:13Z</time>
      </trkpt>
      <trkpt lat="46.76415" lon="-1.88803">
        <ele>5</ele>
        <time>2019-05-20T18:04:48Z</time>
      </trkpt>
      <trkpt lat="46.76521" lon="-1.88656">
        <ele>4</ele>
        <time>2019-05-20T18:05:15Z</time>
      </trkpt>
      <trkpt lat="46.76517" lon="-1.88646">
        <ele>4</ele>
        <time>2019-05-20T18:05:16Z</time>
      </trkpt>
      <trkpt lat="46.76519" lon="-1.88638">
        <ele>4</ele>
        <time>2019-05-20T18:05:17Z</time>
      </trkpt>
      <trkpt lat="46.76525" lon="-1.88635">
        <ele>4</ele>
        <time>2019-05-20T18:05:18Z</time>
      </trkpt>
      <trkpt lat="46.7653" lon="-1.88638">
        <ele>4</ele>
        <time>2019-05-20T18:05:19Z</time>
      </trkpt>
      <trkpt lat="46.76531" lon="-1.88642">
        <ele>4</ele>
        <time>2019-05-20T18:05:20Z</time>
      </trkpt>
      <trkpt lat="46.76602" lon="-1.88585">
        <ele>6</ele>
        <time>2019-05-20T18:05:34Z</time>
      </trkpt>
      <trkpt lat="46.76766" lon="-1.88503">
        <ele>5</ele>
        <time>2019-05-20T18:06:05Z</time>
      </trkpt>
      <trkpt lat="46.76861" lon="-1.88508">
        <ele>4</ele>
        <time>2019-05-20T18:06:22Z</time>
      </trkpt>
      <trkpt lat="46.77002" lon="-1.88482">
        <ele>4</ele>
        <time>2019-05-20T18:06:47Z</time>
      </trkpt>
      <trkpt lat="46.77059" lon="-1.88462">
        <ele>5</ele>
        <time>2019-05-20T18:06:57Z</time>
      </trkpt>
      <trkpt lat="46.77161" lon="-1.8841">
        <ele>4</ele>
        <time>2019-05-20T18:07:17Z</time>
      </trkpt>
      <trkpt lat="46.77303" lon="-1.88324">
        <ele>3</ele>
        <time>2019-05-20T18:07:44Z</time>
      </trkpt>
      <trkpt lat="46.77334" lon="-1.88296">
        <ele>3</ele>
        <time>2019-05-20T18:07:51Z</time>
      </trkpt>
      <trkpt lat="46.77388" lon="-1.88223">
        <ele>3</ele>
        <time>2019-05-20T18:08:04Z</time>
      </trkpt>
      <trkpt lat="46.77463" lon="-1.88113">
        <ele>4</ele>
        <time>2019-05-20T18:08:23Z</time>
      </trkpt>
      <trkpt lat="46.77493" lon="-1.88076">
        <ele>4</ele>
        <time>2019-05-20T18:08:30Z</time>
      </trkpt>
      <trkpt lat="46.77699" lon="-1.87865">
        <ele>3</ele>
        <time>2019-05-20T18:09:14Z</time>
      </trkpt>
      <trkpt lat="46.77734" lon="-1.8779">
        <ele>3</ele>
        <time>2019-05-20T18:09:25Z</time>
      </trkpt>
      <trkpt lat="46.77751" lon="-1.87733">
        <ele>3</ele>
        <time>2019-05-20T18:09:33Z</time>
      </trkpt>
      <trkpt lat="46.77753" lon="-1.87706">
        <ele>4</ele>
        <time>2019-05-20T18:09:36Z</time>
      </trkpt>
      <trkpt lat="46.77745" lon="-1.87702">
        <ele>4</ele>
        <time>2019-05-20T18:09:38Z</time>
      </trkpt>
      <trkpt lat="46.7774" lon="-1.87694">
        <ele>4</ele>
        <time>2019-05-20T18:09:39Z</time>
      </trkpt>
      <trkpt lat="46.77738" lon="-1.87683">
        <ele>4</ele>
        <time>2019-05-20T18:09:40Z</time>
      </trkpt>
      <trkpt lat="46.77738" lon="-1.87676">
        <ele>4</ele>
        <time>2019-05-20T18:09:41Z</time>
      </trkpt>
      <trkpt lat="46.77743" lon="-1.87663">
        <ele>4</ele>
        <time>2019-05-20T18:09:43Z</time>
      </trkpt>
      <trkpt lat="46.77747" lon="-1.87658">
        <ele>4</ele>
        <time>2019-05-20T18:09:44Z</time>
      </trkpt>
      <trkpt lat="46.77753" lon="-1.87655">
        <ele>4</ele>
        <time>2019-05-20T18:09:45Z</time>
      </trkpt>
      <trkpt lat="46.77758" lon="-1.8763">
        <ele>4</ele>
        <time>2019-05-20T18:09:48Z</time>
      </trkpt>
      <trkpt lat="46.77741" lon="-1.8755">
        <ele>5</ele>
        <time>2019-05-20T18:09:59Z</time>
      </trkpt>
      <trkpt lat="46.77624" lon="-1.86724">
        <ele>7</ele>
        <time>2019-05-20T18:11:41Z</time>
      </trkpt>
      <trkpt lat="46.77613" lon="-1.86681">
        <ele>7</ele>
        <time>2019-05-20T18:11:47Z</time>
      </trkpt>
      <trkpt lat="46.77598" lon="-1.86639">
        <ele>7</ele>
        <time>2019-05-20T18:11:53Z</time>
      </trkpt>
      <trkpt lat="46.77582" lon="-1.86606">
        <ele>7</ele>
        <time>2019-05-20T18:11:58Z</time>
      </trkpt>
      <trkpt lat="46.77571" lon="-1.86591">
        <ele>7</ele>
        <time>2019-05-20T18:12:00Z</time>
      </trkpt>
      <trkpt lat="46.77318" lon="-1.86309">
        <ele>8</ele>
        <time>2019-05-20T18:12:57Z</time>
      </trkpt>
      <trkpt lat="46.77276" lon="-1.86255">
        <ele>9</ele>
        <time>2019-05-20T18:13:07Z</time>
      </trkpt>
      <trkpt lat="46.77251" lon="-1.8621">
        <ele>9</ele>
        <time>2019-05-20T18:13:14Z</time>
      </trkpt>
      <trkpt lat="46.77008" lon="-1.85746">
        <ele>13</ele>
        <time>2019-05-20T18:14:25Z</time>
      </trkpt>
      <trkpt lat="46.76929" lon="-1.85591">
        <ele>13</ele>
        <time>2019-05-20T18:14:49Z</time>
      </trkpt>
      <trkpt lat="46.76843" lon="-1.8534">
        <ele>13</ele>
        <time>2019-05-20T18:15:23Z</time>
      </trkpt>
      <trkpt lat="46.76832" lon="-1.85305">
        <ele>13</ele>
        <time>2019-05-20T18:15:28Z</time>
      </trkpt>
      <trkpt lat="46.76824" lon="-1.85272">
        <ele>13</ele>
        <time>2019-05-20T18:15:32Z</time>
      </trkpt>
      <trkpt lat="46.76816" lon="-1.85214">
        <ele>13</ele>
        <time>2019-05-20T18:15:39Z</time>
      </trkpt>
      <trkpt lat="46.76815" lon="-1.85185">
        <ele>13</ele>
        <time>2019-05-20T18:15:43Z</time>
      </trkpt>
      <trkpt lat="46.76817" lon="-1.85042">
        <ele>15</ele>
        <time>2019-05-20T18:16:00Z</time>
      </trkpt>
      <trkpt lat="46.76814" lon="-1.84995">
        <ele>15</ele>
        <time>2019-05-20T18:16:06Z</time>
      </trkpt>
      <trkpt lat="46.76808" lon="-1.84947">
        <ele>15</ele>
        <time>2019-05-20T18:16:12Z</time>
      </trkpt>
      <trkpt lat="46.76719" lon="-1.84443">
        <ele>18</ele>
        <time>2019-05-20T18:17:15Z</time>
      </trkpt>
      <trkpt lat="46.76715" lon="-1.84384">
        <ele>19</ele>
        <time>2019-05-20T18:17:22Z</time>
      </trkpt>
      <trkpt lat="46.76712" lon="-1.84282">
        <ele>19</ele>
        <time>2019-05-20T18:17:35Z</time>
      </trkpt>
      <trkpt lat="46.76707" lon="-1.84239">
        <ele>20</ele>
        <time>2019-05-20T18:17:40Z</time>
      </trkpt>
      <trkpt lat="46.76701" lon="-1.84214">
        <ele>20</ele>
        <time>2019-05-20T18:17:43Z</time>
      </trkpt>
      <trkpt lat="46.76689" lon="-1.84177">
        <ele>20</ele>
        <time>2019-05-20T18:17:48Z</time>
      </trkpt>
      <trkpt lat="46.76592" lon="-1.83933">
        <ele>21</ele>
        <time>2019-05-20T18:18:23Z</time>
      </trkpt>
      <trkpt lat="46.76583" lon="-1.83915">
        <ele>21</ele>
        <time>2019-05-20T18:18:25Z</time>
      </trkpt>
      <trkpt lat="46.76562" lon="-1.83892">
        <ele>20</ele>
        <time>2019-05-20T18:18:30Z</time>
      </trkpt>
      <trkpt lat="46.76569" lon="-1.83877">
        <ele>20</ele>
        <time>2019-05-20T18:18:32Z</time>
      </trkpt>
      <trkpt lat="46.76576" lon="-1.83871">
        <ele>20</ele>
        <time>2019-05-20T18:18:34Z</time>
      </trkpt>
      <trkpt lat="46.76602" lon="-1.83859">
        <ele>20</ele>
        <time>2019-05-20T18:18:39Z</time>
      </trkpt>
      <trkpt lat="46.76627" lon="-1.83854">
        <ele>20</ele>
        <time>2019-05-20T18:18:43Z</time>
      </trkpt>
      <trkpt lat="46.76633" lon="-1.8385">
        <ele>20</ele>
        <time>2019-05-20T18:18:44Z</time>
      </trkpt>
      <trkpt lat="46.76643" lon="-1.83833">
        <ele>20</ele>
        <time>2019-05-20T18:18:47Z</time>
      </trkpt>
      <trkpt lat="46.76648" lon="-1.83808">
        <ele>20</ele>
        <time>2019-05-20T18:18:50Z</time>
      </trkpt>
      <trkpt lat="46.76645" lon="-1.83705">
        <ele>20</ele>
        <time>2019-05-20T18:19:03Z</time>
      </trkpt>
      <trkpt lat="46.76646" lon="-1.83692">
        <ele>20</ele>
        <time>2019-05-20T18:19:04Z</time>
      </trkpt>
      <trkpt lat="46.76657" lon="-1.83653">
        <ele>20</ele>
        <time>2019-05-20T18:19:10Z</time>
      </trkpt>
      <trkpt lat="46.76658" lon="-1.83646">
        <ele>20</ele>
        <time>2019-05-20T18:19:10Z</time>
      </trkpt>
      <trkpt lat="46.76657" lon="-1.8364">
        <ele>20</ele>
        <time>2019-05-20T18:19:11Z</time>
      </trkpt>
      <trkpt lat="46.76646" lon="-1.8361">
        <ele>20</ele>
        <time>2019-05-20T18:19:15Z</time>
      </trkpt>
      <trkpt lat="46.76642" lon="-1.83597">
        <ele>20</ele>
        <time>2019-05-20T18:19:17Z</time>
      </trkpt>
      <trkpt lat="46.76646" lon="-1.8358">
        <ele>19</ele>
        <time>2019-05-20T18:19:19Z</time>
      </trkpt>
      <trkpt lat="46.76665" lon="-1.83533">
        <ele>20</ele>
        <time>2019-05-20T18:19:26Z</time>
      </trkpt>
      <trkpt lat="46.76677" lon="-1.83494">
        <ele>20</ele>
        <time>2019-05-20T18:19:31Z</time>
      </trkpt>
      <trkpt lat="46.76689" lon="-1.83432">
        <ele>19</ele>
        <time>2019-05-20T18:19:39Z</time>
      </trkpt>
      <trkpt lat="46.7669" lon="-1.83416">
        <ele>19</ele>
        <time>2019-05-20T18:19:41Z</time>
      </trkpt>
      <trkpt lat="46.76684" lon="-1.83399">
        <ele>19</ele>
        <time>2019-05-20T18:19:43Z</time>
      </trkpt>
      <trkpt lat="46.76707" lon="-1.83368">
        <ele>19</ele>
        <time>2019-05-20T18:19:49Z</time>
      </trkpt>
      <trkpt lat="46.76751" lon="-1.83294">
        <ele>19</ele>
        <time>2019-05-20T18:20:01Z</time>
      </trkpt>
      <trkpt lat="46.76781" lon="-1.83226">
        <ele>19</ele>
        <time>2019-05-20T18:20:11Z</time>
      </trkpt>
      <trkpt lat="46.76814" lon="-1.83126">
        <ele>18</ele>
        <time>2019-05-20T18:20:24Z</time>
      </trkpt>
      <trkpt lat="46.76833" lon="-1.83073">
        <ele>17</ele>
        <time>2019-05-20T18:20:31Z</time>
      </trkpt>
      <trkpt lat="46.76877" lon="-1.82986">
        <ele>20</ele>
        <time>2019-05-20T18:20:45Z</time>
      </trkpt>
      <trkpt lat="46.76824" lon="-1.82944">
        <ele>18</ele>
        <time>2019-05-20T18:20:55Z</time>
      </trkpt>
      <trkpt lat="46.76808" lon="-1.82929">
        <ele>18</ele>
        <time>2019-05-20T18:20:59Z</time>
      </trkpt>
      <trkpt lat="46.76781" lon="-1.82899">
        <ele>18</ele>
        <time>2019-05-20T18:21:05Z</time>
      </trkpt>
      <trkpt lat="46.76767" lon="-1.82879">
        <ele>18</ele>
        <time>2019-05-20T18:21:08Z</time>
      </trkpt>
      <trkpt lat="46.76743" lon="-1.82834">
        <ele>19</ele>
        <time>2019-05-20T18:21:15Z</time>
      </trkpt>
      <trkpt lat="46.7671" lon="-1.8276">
        <ele>18</ele>
        <time>2019-05-20T18:21:26Z</time>
      </trkpt>
      <trkpt lat="46.76698" lon="-1.8273">
        <ele>17</ele>
        <time>2019-05-20T18:21:30Z</time>
      </trkpt>
      <trkpt lat="46.76688" lon="-1.82698">
        <ele>17</ele>
        <time>2019-05-20T18:21:34Z</time>
      </trkpt>
      <trkpt lat="46.76681" lon="-1.82669">
        <ele>17</ele>
        <time>2019-05-20T18:21:38Z</time>
      </trkpt>
      <trkpt lat="46.76663" lon="-1.82561">
        <ele>17</ele>
        <time>2019-05-20T18:21:52Z</time>
      </trkpt>
      <trkpt lat="46.76651" lon="-1.82519">
        <ele>17</ele>
        <time>2019-05-20T18:21:57Z</time>
      </trkpt>
      <trkpt lat="46.76627" lon="-1.82473">
        <ele>17</ele>
        <time>2019-05-20T18:22:04Z</time>
      </trkpt>
      <trkpt lat="46.76574" lon="-1.82383">
        <ele>17</ele>
        <time>2019-05-20T18:22:19Z</time>
      </trkpt>
      <trkpt lat="46.76557" lon="-1.82342">
        <ele>17</ele>
        <time>2019-05-20T18:22:25Z</time>
      </trkpt>
      <trkpt lat="46.76554" lon="-1.82319">
        <ele>17</ele>
        <time>2019-05-20T18:22:27Z</time>
      </trkpt>
      <trkpt lat="46.76541" lon="-1.82122">
        <ele>18</ele>
        <time>2019-05-20T18:22:52Z</time>
      </trkpt>
      <trkpt lat="46.76539" lon="-1.82079">
        <ele>18</ele>
        <time>2019-05-20T18:22:57Z</time>
      </trkpt>
      <trkpt lat="46.76544" lon="-1.82031">
        <ele>17</ele>
        <time>2019-05-20T18:23:03Z</time>
      </trkpt>
      <trkpt lat="46.76553" lon="-1.82002">
        <ele>17</ele>
        <time>2019-05-20T18:23:07Z</time>
      </trkpt>
      <trkpt lat="46.76564" lon="-1.8198">
        <ele>18</ele>
        <time>2019-05-20T18:23:10Z</time>
      </trkpt>
      <trkpt lat="46.76629" lon="-1.81894">
        <ele>21</ele>
        <time>2019-05-20T18:23:26Z</time>
      </trkpt>
      <trkpt lat="46.76816" lon="-1.81661">
        <ele>34</ele>
        <time>2019-05-20T18:24:09Z</time>
      </trkpt>
      <trkpt lat="46.76832" lon="-1.81636">
        <ele>34</ele>
        <time>2019-05-20T18:24:14Z</time>
      </trkpt>
      <trkpt lat="46.76851" lon="-1.81599">
        <ele>35</ele>
        <time>2019-05-20T18:24:19Z</time>
      </trkpt>
      <trkpt lat="46.76868" lon="-1.81554">
        <ele>37</ele>
        <time>2019-05-20T18:24:25Z</time>
      </trkpt>
      <trkpt lat="46.76876" lon="-1.81522">
        <ele>38</ele>
        <time>2019-05-20T18:24:30Z</time>
      </trkpt>
      <trkpt lat="46.76925" lon="-1.81203">
        <ele>43</ele>
        <time>2019-05-20T18:25:09Z</time>
      </trkpt>
      <trkpt lat="46.76935" lon="-1.81109">
        <ele>43</ele>
        <time>2019-05-20T18:25:21Z</time>
      </trkpt>
      <trkpt lat="46.76947" lon="-1.80922">
        <ele>41</ele>
        <time>2019-05-20T18:25:44Z</time>
      </trkpt>
      <trkpt lat="46.7695" lon="-1.80835">
        <ele>42</ele>
        <time>2019-05-20T18:25:55Z</time>
      </trkpt>
      <trkpt lat="46.76947" lon="-1.80762">
        <ele>42</ele>
        <time>2019-05-20T18:26:03Z</time>
      </trkpt>
      <trkpt lat="46.76939" lon="-1.80699">
        <ele>41</ele>
        <time>2019-05-20T18:26:11Z</time>
      </trkpt>
      <trkpt lat="46.76911" lon="-1.80562">
        <ele>41</ele>
        <time>2019-05-20T18:26:29Z</time>
      </trkpt>
      <trkpt lat="46.76905" lon="-1.80538">
        <ele>41</ele>
        <time>2019-05-20T18:26:32Z</time>
      </trkpt>
      <trkpt lat="46.76897" lon="-1.80517">
        <ele>42</ele>
        <time>2019-05-20T18:26:35Z</time>
      </trkpt>
      <trkpt lat="46.76885" lon="-1.80495">
        <ele>43</ele>
        <time>2019-05-20T18:26:38Z</time>
      </trkpt>
      <trkpt lat="46.76801" lon="-1.80361">
        <ele>44</ele>
        <time>2019-05-20T18:27:00Z</time>
      </trkpt>
      <trkpt lat="46.76778" lon="-1.80317">
        <ele>44</ele>
        <time>2019-05-20T18:27:07Z</time>
      </trkpt>
      <trkpt lat="46.76768" lon="-1.80293">
        <ele>45</ele>
        <time>2019-05-20T18:27:10Z</time>
      </trkpt>
      <trkpt lat="46.76762" lon="-1.80262">
        <ele>45</ele>
        <time>2019-05-20T18:27:14Z</time>
      </trkpt>
      <trkpt lat="46.7676" lon="-1.80235">
        <ele>46</ele>
        <time>2019-05-20T18:27:18Z</time>
      </trkpt>
      <trkpt lat="46.76763" lon="-1.79969">
        <ele>45</ele>
        <time>2019-05-20T18:27:50Z</time>
      </trkpt>
      <trkpt lat="46.7677" lon="-1.79886">
        <ele>45</ele>
        <time>2019-05-20T18:28:00Z</time>
      </trkpt>
      <trkpt lat="46.76794" lon="-1.79655">
        <ele>47</ele>
        <time>2019-05-20T18:28:29Z</time>
      </trkpt>
      <trkpt lat="46.76801" lon="-1.79598">
        <ele>48</ele>
        <time>2019-05-20T18:28:36Z</time>
      </trkpt>
      <trkpt lat="46.76806" lon="-1.79573">
        <ele>48</ele>
        <time>2019-05-20T18:28:39Z</time>
      </trkpt>
      <trkpt lat="46.76813" lon="-1.7955">
        <ele>48</ele>
        <time>2019-05-20T18:28:42Z</time>
      </trkpt>
      <trkpt lat="46.7683" lon="-1.79507">
        <ele>49</ele>
        <time>2019-05-20T18:28:48Z</time>
      </trkpt>
      <trkpt lat="46.7695" lon="-1.7923">
        <ele>53</ele>
        <time>2019-05-20T18:29:28Z</time>
      </trkpt>
      <trkpt lat="46.76962" lon="-1.79199">
        <ele>52</ele>
        <time>2019-05-20T18:29:32Z</time>
      </trkpt>
      <trkpt lat="46.7697" lon="-1.79168">
        <ele>52</ele>
        <time>2019-05-20T18:29:36Z</time>
      </trkpt>
      <trkpt lat="46.7699" lon="-1.79078">
        <ele>52</ele>
        <time>2019-05-20T18:29:48Z</time>
      </trkpt>
      <trkpt lat="46.77105" lon="-1.78497">
        <ele>53</ele>
        <time>2019-05-20T18:31:02Z</time>
      </trkpt>
      <trkpt lat="46.77112" lon="-1.78447">
        <ele>54</ele>
        <time>2019-05-20T18:31:08Z</time>
      </trkpt>
      <trkpt lat="46.77136" lon="-1.78192">
        <ele>52</ele>
        <time>2019-05-20T18:31:39Z</time>
      </trkpt>
      <trkpt lat="46.77144" lon="-1.78141">
        <ele>52</ele>
        <time>2019-05-20T18:31:46Z</time>
      </trkpt>
      <trkpt lat="46.77181" lon="-1.77946">
        <ele>52</ele>
        <time>2019-05-20T18:32:10Z</time>
      </trkpt>
      <trkpt lat="46.77197" lon="-1.77847">
        <ele>52</ele>
        <time>2019-05-20T18:32:23Z</time>
      </trkpt>
      <trkpt lat="46.77229" lon="-1.7757">
        <ele>52</ele>
        <time>2019-05-20T18:32:57Z</time>
      </trkpt>
      <trkpt lat="46.77234" lon="-1.77534">
        <ele>52</ele>
        <time>2019-05-20T18:33:01Z</time>
      </trkpt>
      <trkpt lat="46.77246" lon="-1.77495">
        <ele>51</ele>
        <time>2019-05-20T18:33:07Z</time>
      </trkpt>
      <trkpt lat="46.77259" lon="-1.77467">
        <ele>51</ele>
        <time>2019-05-20T18:33:11Z</time>
      </trkpt>
      <trkpt lat="46.77641" lon="-1.76757">
        <ele>53</ele>
        <time>2019-05-20T18:35:01Z</time>
      </trkpt>
      <trkpt lat="46.77659" lon="-1.76721">
        <ele>53</ele>
        <time>2019-05-20T18:35:06Z</time>
      </trkpt>
      <trkpt lat="46.77422" lon="-1.76661">
        <ele>55</ele>
        <time>2019-05-20T18:35:49Z</time>
      </trkpt>
      <trkpt lat="46.7737" lon="-1.76644">
        <ele>54</ele>
        <time>2019-05-20T18:35:58Z</time>
      </trkpt>
      <trkpt lat="46.77054" lon="-1.76498">
        <ele>56</ele>
        <time>2019-05-20T18:36:57Z</time>
      </trkpt>
      <trkpt lat="46.76815" lon="-1.76384">
        <ele>56</ele>
        <time>2019-05-20T18:37:42Z</time>
      </trkpt>
      <trkpt lat="46.76755" lon="-1.76336">
        <ele>57</ele>
        <time>2019-05-20T18:37:54Z</time>
      </trkpt>
      <trkpt lat="46.76734" lon="-1.7631">
        <ele>56</ele>
        <time>2019-05-20T18:37:59Z</time>
      </trkpt>
      <trkpt lat="46.76707" lon="-1.76264">
        <ele>55</ele>
        <time>2019-05-20T18:38:07Z</time>
      </trkpt>
      <trkpt lat="46.76464" lon="-1.75703">
        <ele>51</ele>
        <time>2019-05-20T18:39:28Z</time>
      </trkpt>
      <trkpt lat="46.76447" lon="-1.7567">
        <ele>51</ele>
        <time>2019-05-20T18:39:33Z</time>
      </trkpt>
      <trkpt lat="46.76426" lon="-1.75645">
        <ele>50</ele>
        <time>2019-05-20T18:39:37Z</time>
      </trkpt>
      <trkpt lat="46.76298" lon="-1.7557">
        <ele>46</ele>
        <time>2019-05-20T18:40:02Z</time>
      </trkpt>
      <trkpt lat="46.76255" lon="-1.75559">
        <ele>44</ele>
        <time>2019-05-20T18:40:10Z</time>
      </trkpt>
      <trkpt lat="46.76229" lon="-1.75546">
        <ele>43</ele>
        <time>2019-05-20T18:40:15Z</time>
      </trkpt>
      <trkpt lat="46.76182" lon="-1.75469">
        <ele>38</ele>
        <time>2019-05-20T18:40:27Z</time>
      </trkpt>
      <trkpt lat="46.7616" lon="-1.75449">
        <ele>36</ele>
        <time>2019-05-20T18:40:32Z</time>
      </trkpt>
      <trkpt lat="46.76126" lon="-1.75432">
        <ele>35</ele>
        <time>2019-05-20T18:40:38Z</time>
      </trkpt>
      <trkpt lat="46.76041" lon="-1.75404">
        <ele>32</ele>
        <time>2019-05-20T18:40:54Z</time>
      </trkpt>
      <trkpt lat="46.76013" lon="-1.75406">
        <ele>30</ele>
        <time>2019-05-20T18:40:59Z</time>
      </trkpt>
      <trkpt lat="46.75989" lon="-1.75421">
        <ele>29</ele>
        <time>2019-05-20T18:41:03Z</time>
      </trkpt>
      <trkpt lat="46.75977" lon="-1.75448">
        <ele>28</ele>
        <time>2019-05-20T18:41:07Z</time>
      </trkpt>
      <trkpt lat="46.75971" lon="-1.75518">
        <ele>28</ele>
        <time>2019-05-20T18:41:16Z</time>
      </trkpt>
      <trkpt lat="46.75959" lon="-1.75543">
        <ele>28</ele>
        <time>2019-05-20T18:41:20Z</time>
      </trkpt>
      <trkpt lat="46.7593" lon="-1.7556">
        <ele>25</ele>
        <time>2019-05-20T18:41:25Z</time>
      </trkpt>
      <trkpt lat="46.7591" lon="-1.75558">
        <ele>23</ele>
        <time>2019-05-20T18:41:29Z</time>
      </trkpt>
      <trkpt lat="46.75889" lon="-1.75541">
        <ele>22</ele>
        <time>2019-05-20T18:41:33Z</time>
      </trkpt>
      <trkpt lat="46.75881" lon="-1.75501">
        <ele>21</ele>
        <time>2019-05-20T18:41:38Z</time>
      </trkpt>
      <trkpt lat="46.75872" lon="-1.75361">
        <ele>24</ele>
        <time>2019-05-20T18:41:55Z</time>
      </trkpt>
      <trkpt lat="46.75864" lon="-1.75338">
        <ele>24</ele>
        <time>2019-05-20T18:41:58Z</time>
      </trkpt>
      <trkpt lat="46.75846" lon="-1.75325">
        <ele>26</ele>
        <time>2019-05-20T18:42:02Z</time>
      </trkpt>
      <trkpt lat="46.75742" lon="-1.75297">
        <ele>34</ele>
        <time>2019-05-20T18:42:21Z</time>
      </trkpt>
      <trkpt lat="46.75706" lon="-1.75278">
        <ele>38</ele>
        <time>2019-05-20T18:42:27Z</time>
      </trkpt>
      <trkpt lat="46.75656" lon="-1.75224">
        <ele>42</ele>
        <time>2019-05-20T18:42:39Z</time>
      </trkpt>
      <trkpt lat="46.75589" lon="-1.75099">
        <ele>47</ele>
        <time>2019-05-20T18:42:58Z</time>
      </trkpt>
      <trkpt lat="46.75495" lon="-1.74894">
        <ele>48</ele>
        <time>2019-05-20T18:43:28Z</time>
      </trkpt>
      <trkpt lat="46.75447" lon="-1.7478">
        <ele>48</ele>
        <time>2019-05-20T18:43:44Z</time>
      </trkpt>
      <trkpt lat="46.75425" lon="-1.74712">
        <ele>48</ele>
        <time>2019-05-20T18:43:53Z</time>
      </trkpt>
      <trkpt lat="46.75413" lon="-1.74647">
        <ele>47</ele>
        <time>2019-05-20T18:44:02Z</time>
      </trkpt>
      <trkpt lat="46.75397" lon="-1.74478">
        <ele>48</ele>
        <time>2019-05-20T18:44:22Z</time>
      </trkpt>
      <trkpt lat="46.75392" lon="-1.74399">
        <ele>48</ele>
        <time>2019-05-20T18:44:32Z</time>
      </trkpt>
      <trkpt lat="46.75402" lon="-1.74194">
        <ele>47</ele>
        <time>2019-05-20T18:44:57Z</time>
      </trkpt>
      <trkpt lat="46.7541" lon="-1.74131">
        <ele>47</ele>
        <time>2019-05-20T18:45:05Z</time>
      </trkpt>
      <trkpt lat="46.75425" lon="-1.7408">
        <ele>47</ele>
        <time>2019-05-20T18:45:12Z</time>
      </trkpt>
      <trkpt lat="46.75448" lon="-1.73988">
        <ele>50</ele>
        <time>2019-05-20T18:45:24Z</time>
      </trkpt>
      <trkpt lat="46.7545" lon="-1.73961">
        <ele>51</ele>
        <time>2019-05-20T18:45:27Z</time>
      </trkpt>
      <trkpt lat="46.75443" lon="-1.73917">
        <ele>51</ele>
        <time>2019-05-20T18:45:33Z</time>
      </trkpt>
      <trkpt lat="46.75412" lon="-1.73865">
        <ele>52</ele>
        <time>2019-05-20T18:45:41Z</time>
      </trkpt>
      <trkpt lat="46.75374" lon="-1.73869">
        <ele>51</ele>
        <time>2019-05-20T18:45:48Z</time>
      </trkpt>
      <trkpt lat="46.75265" lon="-1.73908">
        <ele>48</ele>
        <time>2019-05-20T18:46:08Z</time>
      </trkpt>
      <trkpt lat="46.75254" lon="-1.73907">
        <ele>47</ele>
        <time>2019-05-20T18:46:10Z</time>
      </trkpt>
      <trkpt lat="46.75237" lon="-1.739">
        <ele>47</ele>
        <time>2019-05-20T18:46:13Z</time>
      </trkpt>
      <trkpt lat="46.752" lon="-1.73865">
        <ele>46</ele>
        <time>2019-05-20T18:46:21Z</time>
      </trkpt>
      <trkpt lat="46.75158" lon="-1.73842">
        <ele>45</ele>
        <time>2019-05-20T18:46:29Z</time>
      </trkpt>
      <trkpt lat="46.75138" lon="-1.73838">
        <ele>45</ele>
        <time>2019-05-20T18:46:32Z</time>
      </trkpt>
      <trkpt lat="46.75116" lon="-1.73839">
        <ele>43</ele>
        <time>2019-05-20T18:46:36Z</time>
      </trkpt>
      <trkpt lat="46.75034" lon="-1.7385">
        <ele>39</ele>
        <time>2019-05-20T18:46:51Z</time>
      </trkpt>
      <trkpt lat="46.74906" lon="-1.73839">
        <ele>33</ele>
        <time>2019-05-20T18:47:14Z</time>
      </trkpt>
      <trkpt lat="46.74885" lon="-1.73846">
        <ele>32</ele>
        <time>2019-05-20T18:47:17Z</time>
      </trkpt>
      <trkpt lat="46.74861" lon="-1.73867">
        <ele>30</ele>
        <time>2019-05-20T18:47:22Z</time>
      </trkpt>
      <trkpt lat="46.74868" lon="-1.73886">
        <ele>30</ele>
        <time>2019-05-20T18:47:25Z</time>
      </trkpt>
      <trkpt lat="46.74899" lon="-1.73947">
        <ele>28</ele>
        <time>2019-05-20T18:47:34Z</time>
      </trkpt>
      <trkpt lat="46.74913" lon="-1.73957">
        <ele>28</ele>
        <time>2019-05-20T18:47:37Z</time>
      </trkpt>
      <trkpt lat="46.74926" lon="-1.73959">
        <ele>28</ele>
        <time>2019-05-20T18:47:39Z</time>
      </trkpt>
      <trkpt lat="46.74938" lon="-1.73964">
        <ele>28</ele>
        <time>2019-05-20T18:47:42Z</time>
      </trkpt>
      <trkpt lat="46.7497" lon="-1.74011">
        <ele>27</ele>
        <time>2019-05-20T18:47:50Z</time>
      </trkpt>
      <trkpt lat="46.7496" lon="-1.74025">
        <ele>27</ele>
        <time>2019-05-20T18:47:52Z</time>
      </trkpt>
      <trkpt lat="46.74929" lon="-1.74047">
        <ele>25</ele>
        <time>2019-05-20T18:47:58Z</time>
      </trkpt>
      <trkpt lat="46.74847" lon="-1.74083">
        <ele>18</ele>
        <time>2019-05-20T18:48:13Z</time>
      </trkpt>
      <trkpt lat="46.74803" lon="-1.74097">
        <ele>15</ele>
        <time>2019-05-20T18:48:22Z</time>
      </trkpt>
      <trkpt lat="46.74757" lon="-1.74137">
        <ele>11</ele>
        <time>2019-05-20T18:48:31Z</time>
      </trkpt>
      <trkpt lat="46.74737" lon="-1.74157">
        <ele>12</ele>
        <time>2019-05-20T18:48:35Z</time>
      </trkpt>
      <trkpt lat="46.74727" lon="-1.74171">
        <ele>13</ele>
        <time>2019-05-20T18:48:38Z</time>
      </trkpt>
      <trkpt lat="46.74719" lon="-1.74178">
        <ele>14</ele>
        <time>2019-05-20T18:48:39Z</time>
      </trkpt>
      <trkpt lat="46.74711" lon="-1.74182">
        <ele>15</ele>
        <time>2019-05-20T18:48:41Z</time>
      </trkpt>
      <trkpt lat="46.74674" lon="-1.74193">
        <ele>18</ele>
        <time>2019-05-20T18:48:48Z</time>
      </trkpt>
      <trkpt lat="46.74617" lon="-1.74181">
        <ele>22</ele>
        <time>2019-05-20T18:48:58Z</time>
      </trkpt>
      <trkpt lat="46.74593" lon="-1.7417">
        <ele>24</ele>
        <time>2019-05-20T18:49:02Z</time>
      </trkpt>
      <trkpt lat="46.74564" lon="-1.74162">
        <ele>26</ele>
        <time>2019-05-20T18:49:08Z</time>
      </trkpt>
      <trkpt lat="46.74433" lon="-1.74073">
        <ele>32</ele>
        <time>2019-05-20T18:49:33Z</time>
      </trkpt>
      <trkpt lat="46.74352" lon="-1.74009">
        <ele>33</ele>
        <time>2019-05-20T18:49:50Z</time>
      </trkpt>
      <trkpt lat="46.74279" lon="-1.73965">
        <ele>35</ele>
        <time>2019-05-20T18:50:04Z</time>
      </trkpt>
      <trkpt lat="46.74242" lon="-1.73929">
        <ele>36</ele>
        <time>2019-05-20T18:50:12Z</time>
      </trkpt>
      <trkpt lat="46.74209" lon="-1.7389">
        <ele>36</ele>
        <time>2019-05-20T18:50:19Z</time>
      </trkpt>
      <trkpt lat="46.74183" lon="-1.73832">
        <ele>37</ele>
        <time>2019-05-20T18:50:28Z</time>
      </trkpt>
      <trkpt lat="46.7416" lon="-1.73747">
        <ele>39</ele>
        <time>2019-05-20T18:50:39Z</time>
      </trkpt>
      <trkpt lat="46.74131" lon="-1.7363">
        <ele>39</ele>
        <time>2019-05-20T18:50:54Z</time>
      </trkpt>
      <trkpt lat="46.74116" lon="-1.73577">
        <ele>39</ele>
        <time>2019-05-20T18:51:01Z</time>
      </trkpt>
      <trkpt lat="46.74101" lon="-1.73518">
        <ele>39</ele>
        <time>2019-05-20T18:51:09Z</time>
      </trkpt>
      <trkpt lat="46.74088" lon="-1.73428">
        <ele>39</ele>
        <time>2019-05-20T18:51:20Z</time>
      </trkpt>
      <trkpt lat="46.74091" lon="-1.73293">
        <ele>39</ele>
        <time>2019-05-20T18:51:36Z</time>
      </trkpt>
      <trkpt lat="46.74115" lon="-1.72946">
        <ele>39</ele>
        <time>2019-05-20T18:52:19Z</time>
      </trkpt>
      <trkpt lat="46.74122" lon="-1.72854">
        <ele>39</ele>
        <time>2019-05-20T18:52:30Z</time>
      </trkpt>
      <trkpt lat="46.74122" lon="-1.72805">
        <ele>39</ele>
        <time>2019-05-20T18:52:36Z</time>
      </trkpt>
      <trkpt lat="46.74116" lon="-1.72757">
        <ele>41</ele>
        <time>2019-05-20T18:52:42Z</time>
      </trkpt>
      <trkpt lat="46.74079" lon="-1.72613">
        <ele>38</ele>
        <time>2019-05-20T18:53:01Z</time>
      </trkpt>
      <trkpt lat="46.74072" lon="-1.72541">
        <ele>38</ele>
        <time>2019-05-20T18:53:10Z</time>
      </trkpt>
      <trkpt lat="46.74087" lon="-1.72302">
        <ele>38</ele>
        <time>2019-05-20T18:53:39Z</time>
      </trkpt>
      <trkpt lat="46.74095" lon="-1.72201">
        <ele>40</ele>
        <time>2019-05-20T18:53:51Z</time>
      </trkpt>
      <trkpt lat="46.74111" lon="-1.72067">
        <ele>40</ele>
        <time>2019-05-20T18:54:08Z</time>
      </trkpt>
      <trkpt lat="46.74124" lon="-1.71945">
        <ele>41</ele>
        <time>2019-05-20T18:54:23Z</time>
      </trkpt>
      <trkpt lat="46.74122" lon="-1.71815">
        <ele>44</ele>
        <time>2019-05-20T18:54:39Z</time>
      </trkpt>
      <trkpt lat="46.74137" lon="-1.71679">
        <ele>43</ele>
        <time>2019-05-20T18:54:56Z</time>
      </trkpt>
      <trkpt lat="46.74185" lon="-1.71507">
        <ele>38</ele>
        <time>2019-05-20T18:55:18Z</time>
      </trkpt>
      <trkpt lat="46.74193" lon="-1.7139">
        <ele>37</ele>
        <time>2019-05-20T18:55:33Z</time>
      </trkpt>
      <trkpt lat="46.7419" lon="-1.713">
        <ele>36</ele>
        <time>2019-05-20T18:55:44Z</time>
      </trkpt>
      <trkpt lat="46.74176" lon="-1.71228">
        <ele>37</ele>
        <time>2019-05-20T18:55:53Z</time>
      </trkpt>
      <trkpt lat="46.74168" lon="-1.71075">
        <ele>42</ele>
        <time>2019-05-20T18:56:12Z</time>
      </trkpt>
      <trkpt lat="46.74158" lon="-1.70973">
        <ele>43</ele>
        <time>2019-05-20T18:56:24Z</time>
      </trkpt>
      <trkpt lat="46.74165" lon="-1.70913">
        <ele>42</ele>
        <time>2019-05-20T18:56:32Z</time>
      </trkpt>
      <trkpt lat="46.74191" lon="-1.70816">
        <ele>40</ele>
        <time>2019-05-20T18:56:44Z</time>
      </trkpt>
      <trkpt lat="46.74202" lon="-1.70742">
        <ele>38</ele>
        <time>2019-05-20T18:56:53Z</time>
      </trkpt>
      <trkpt lat="46.74201" lon="-1.70694">
        <ele>37</ele>
        <time>2019-05-20T18:56:59Z</time>
      </trkpt>
      <trkpt lat="46.74182" lon="-1.70614">
        <ele>34</ele>
        <time>2019-05-20T18:57:10Z</time>
      </trkpt>
      <trkpt lat="46.74179" lon="-1.70576">
        <ele>33</ele>
        <time>2019-05-20T18:57:14Z</time>
      </trkpt>
      <trkpt lat="46.74184" lon="-1.70535">
        <ele>31</ele>
        <time>2019-05-20T18:57:19Z</time>
      </trkpt>
      <trkpt lat="46.74205" lon="-1.70443">
        <ele>29</ele>
        <time>2019-05-20T18:57:31Z</time>
      </trkpt>
      <trkpt lat="46.74209" lon="-1.70415">
        <ele>29</ele>
        <time>2019-05-20T18:57:35Z</time>
      </trkpt>
      <trkpt lat="46.74202" lon="-1.70297">
        <ele>32</ele>
        <time>2019-05-20T18:57:49Z</time>
      </trkpt>
      <trkpt lat="46.74207" lon="-1.70209">
        <ele>32</ele>
        <time>2019-05-20T18:58:00Z</time>
      </trkpt>
      <trkpt lat="46.74221" lon="-1.70025">
        <ele>36</ele>
        <time>2019-05-20T18:58:22Z</time>
      </trkpt>
      <trkpt lat="46.74238" lon="-1.69873">
        <ele>36</ele>
        <time>2019-05-20T18:58:41Z</time>
      </trkpt>
      <trkpt lat="46.74249" lon="-1.69787">
        <ele>37</ele>
        <time>2019-05-20T18:58:52Z</time>
      </trkpt>
      <trkpt lat="46.74254" lon="-1.69701">
        <ele>37</ele>
        <time>2019-05-20T18:59:02Z</time>
      </trkpt>
      <trkpt lat="46.74262" lon="-1.6927">
        <ele>37</ele>
        <time>2019-05-20T18:59:55Z</time>
      </trkpt>
      <trkpt lat="46.74284" lon="-1.69224">
        <ele>35</ele>
        <time>2019-05-20T19:00:02Z</time>
      </trkpt>
      <trkpt lat="46.7439" lon="-1.69015">
        <ele>27</ele>
        <time>2019-05-20T19:00:34Z</time>
      </trkpt>
      <trkpt lat="46.74401" lon="-1.68975">
        <ele>26</ele>
        <time>2019-05-20T19:00:39Z</time>
      </trkpt>
      <trkpt lat="46.7443" lon="-1.6885">
        <ele>22</ele>
        <time>2019-05-20T19:00:55Z</time>
      </trkpt>
      <trkpt lat="46.74476" lon="-1.68781">
        <ele>22</ele>
        <time>2019-05-20T19:01:07Z</time>
      </trkpt>
      <trkpt lat="46.74524" lon="-1.68714">
        <ele>22</ele>
        <time>2019-05-20T19:01:18Z</time>
      </trkpt>
      <trkpt lat="46.74589" lon="-1.68691">
        <ele>22</ele>
        <time>2019-05-20T19:01:30Z</time>
      </trkpt>
      <trkpt lat="46.74615" lon="-1.68663">
        <ele>23</ele>
        <time>2019-05-20T19:01:36Z</time>
      </trkpt>
      <trkpt lat="46.74647" lon="-1.68601">
        <ele>25</ele>
        <time>2019-05-20T19:01:46Z</time>
      </trkpt>
      <trkpt lat="46.74645" lon="-1.68487">
        <ele>25</ele>
        <time>2019-05-20T19:01:59Z</time>
      </trkpt>
      <trkpt lat="46.74639" lon="-1.68429">
        <ele>24</ele>
        <time>2019-05-20T19:02:07Z</time>
      </trkpt>
      <trkpt lat="46.74643" lon="-1.68381">
        <ele>24</ele>
        <time>2019-05-20T19:02:13Z</time>
      </trkpt>
      <trkpt lat="46.74653" lon="-1.68336">
        <ele>23</ele>
        <time>2019-05-20T19:02:18Z</time>
      </trkpt>
      <trkpt lat="46.74678" lon="-1.68284">
        <ele>23</ele>
        <time>2019-05-20T19:02:26Z</time>
      </trkpt>
      <trkpt lat="46.74333" lon="-1.68173">
        <ele>32</ele>
        <time>2019-05-20T19:03:29Z</time>
      </trkpt>
      <trkpt lat="46.74325" lon="-1.68168">
        <ele>32</ele>
        <time>2019-05-20T19:03:30Z</time>
      </trkpt>
      <trkpt lat="46.74316" lon="-1.68175">
        <ele>32</ele>
        <time>2019-05-20T19:03:32Z</time>
      </trkpt>
      <trkpt lat="46.74295" lon="-1.68185">
        <ele>32</ele>
        <time>2019-05-20T19:03:36Z</time>
      </trkpt>
      <trkpt lat="46.74109" lon="-1.68221">
        <ele>34</ele>
        <time>2019-05-20T19:04:10Z</time>
      </trkpt>
      <trkpt lat="46.74074" lon="-1.68223">
        <ele>34</ele>
        <time>2019-05-20T19:04:16Z</time>
      </trkpt>
      <trkpt lat="46.74041" lon="-1.68217">
        <ele>35</ele>
        <time>2019-05-20T19:04:22Z</time>
      </trkpt>
      <trkpt lat="46.73919" lon="-1.68179">
        <ele>36</ele>
        <time>2019-05-20T19:04:44Z</time>
      </trkpt>
      <trkpt lat="46.73887" lon="-1.68173">
        <ele>36</ele>
        <time>2019-05-20T19:04:50Z</time>
      </trkpt>
      <trkpt lat="46.73858" lon="-1.68175">
        <ele>37</ele>
        <time>2019-05-20T19:04:55Z</time>
      </trkpt>
      <trkpt lat="46.73833" lon="-1.68183">
        <ele>37</ele>
        <time>2019-05-20T19:04:59Z</time>
      </trkpt>
      <trkpt lat="46.73598" lon="-1.68279">
        <ele>40</ele>
        <time>2019-05-20T19:05:43Z</time>
      </trkpt>
      <trkpt lat="46.73576" lon="-1.68286">
        <ele>40</ele>
        <time>2019-05-20T19:05:47Z</time>
      </trkpt>
      <trkpt lat="46.73543" lon="-1.6829">
        <ele>39</ele>
        <time>2019-05-20T19:05:53Z</time>
      </trkpt>
      <trkpt lat="46.73391" lon="-1.6829">
        <ele>41</ele>
        <time>2019-05-20T19:06:20Z</time>
      </trkpt>
      <trkpt lat="46.73146" lon="-1.68286">
        <ele>46</ele>
        <time>2019-05-20T19:07:03Z</time>
      </trkpt>
      <trkpt lat="46.73124" lon="-1.68288">
        <ele>47</ele>
        <time>2019-05-20T19:07:07Z</time>
      </trkpt>
      <trkpt lat="46.72978" lon="-1.68318">
        <ele>47</ele>
        <time>2019-05-20T19:07:33Z</time>
      </trkpt>
      <trkpt lat="46.72869" lon="-1.68338">
        <ele>48</ele>
        <time>2019-05-20T19:07:53Z</time>
      </trkpt>
      <trkpt lat="46.72838" lon="-1.68338">
        <ele>48</ele>
        <time>2019-05-20T19:07:59Z</time>
      </trkpt>
      <trkpt lat="46.72823" lon="-1.68335">
        <ele>48</ele>
        <time>2019-05-20T19:08:01Z</time>
      </trkpt>
      <trkpt lat="46.72771" lon="-1.68319">
        <ele>48</ele>
        <time>2019-05-20T19:08:11Z</time>
      </trkpt>
      <trkpt lat="46.72587" lon="-1.68251">
        <ele>49</ele>
        <time>2019-05-20T19:08:44Z</time>
      </trkpt>
      <trkpt lat="46.72547" lon="-1.68239">
        <ele>49</ele>
        <time>2019-05-20T19:08:52Z</time>
      </trkpt>
      <trkpt lat="46.72516" lon="-1.68236">
        <ele>50</ele>
        <time>2019-05-20T19:08:57Z</time>
      </trkpt>
      <trkpt lat="46.72395" lon="-1.68234">
        <ele>51</ele>
        <time>2019-05-20T19:09:19Z</time>
      </trkpt>
      <trkpt lat="46.72383" lon="-1.68232">
        <ele>51</ele>
        <time>2019-05-20T19:09:21Z</time>
      </trkpt>
      <trkpt lat="46.72372" lon="-1.68227">
        <ele>51</ele>
        <time>2019-05-20T19:09:23Z</time>
      </trkpt>
      <trkpt lat="46.72353" lon="-1.68214">
        <ele>50</ele>
        <time>2019-05-20T19:09:27Z</time>
      </trkpt>
      <trkpt lat="46.72339" lon="-1.68199">
        <ele>50</ele>
        <time>2019-05-20T19:09:30Z</time>
      </trkpt>
      <trkpt lat="46.72321" lon="-1.68171">
        <ele>49</ele>
        <time>2019-05-20T19:09:34Z</time>
      </trkpt>
      <trkpt lat="46.71895" lon="-1.67421">
        <ele>52</ele>
        <time>2019-05-20T19:11:33Z</time>
      </trkpt>
      <trkpt lat="46.71888" lon="-1.67412">
        <ele>52</ele>
        <time>2019-05-20T19:11:35Z</time>
      </trkpt>
      <trkpt lat="46.71469" lon="-1.6705">
        <ele>51</ele>
        <time>2019-05-20T19:13:02Z</time>
      </trkpt>
      <trkpt lat="46.70894" lon="-1.66585">
        <ele>40</ele>
        <time>2019-05-20T19:14:59Z</time>
      </trkpt>
      <trkpt lat="46.70618" lon="-1.66373">
        <ele>42</ele>
        <time>2019-05-20T19:15:54Z</time>
      </trkpt>
      <trkpt lat="46.70523" lon="-1.66303">
        <ele>42</ele>
        <time>2019-05-20T19:16:13Z</time>
      </trkpt>
      <trkpt lat="46.70431" lon="-1.66182">
        <ele>39</ele>
        <time>2019-05-20T19:16:35Z</time>
      </trkpt>
      <trkpt lat="46.70155" lon="-1.65738">
        <ele>43</ele>
        <time>2019-05-20T19:17:48Z</time>
      </trkpt>
      <trkpt lat="46.70028" lon="-1.65538">
        <ele>36</ele>
        <time>2019-05-20T19:18:21Z</time>
      </trkpt>
      <trkpt lat="46.69994" lon="-1.6548">
        <ele>34</ele>
        <time>2019-05-20T19:18:31Z</time>
      </trkpt>
      <trkpt lat="46.69976" lon="-1.65441">
        <ele>33</ele>
        <time>2019-05-20T19:18:37Z</time>
      </trkpt>
      <trkpt lat="46.69961" lon="-1.65408">
        <ele>32</ele>
        <time>2019-05-20T19:18:41Z</time>
      </trkpt>
      <trkpt lat="46.69908" lon="-1.65256">
        <ele>28</ele>
        <time>2019-05-20T19:19:02Z</time>
      </trkpt>
      <trkpt lat="46.69886" lon="-1.65197">
        <ele>29</ele>
        <time>2019-05-20T19:19:10Z</time>
      </trkpt>
      <trkpt lat="46.69856" lon="-1.65108">
        <ele>32</ele>
        <time>2019-05-20T19:19:22Z</time>
      </trkpt>
      <trkpt lat="46.69798" lon="-1.64909">
        <ele>36</ele>
        <time>2019-05-20T19:19:49Z</time>
      </trkpt>
      <trkpt lat="46.69737" lon="-1.64712">
        <ele>34</ele>
        <time>2019-05-20T19:20:15Z</time>
      </trkpt>
      <trkpt lat="46.69723" lon="-1.64675">
        <ele>33</ele>
        <time>2019-05-20T19:20:20Z</time>
      </trkpt>
      <trkpt lat="46.69709" lon="-1.64643">
        <ele>32</ele>
        <time>2019-05-20T19:20:25Z</time>
      </trkpt>
      <trkpt lat="46.69695" lon="-1.64619">
        <ele>32</ele>
        <time>2019-05-20T19:20:29Z</time>
      </trkpt>
      <trkpt lat="46.69677" lon="-1.64602">
        <ele>31</ele>
        <time>2019-05-20T19:20:33Z</time>
      </trkpt>
      <trkpt lat="46.6963" lon="-1.64566">
        <ele>31</ele>
        <time>2019-05-20T19:20:42Z</time>
      </trkpt>
      <trkpt lat="46.6922" lon="-1.64264">
        <ele>39</ele>
        <time>2019-05-20T19:22:04Z</time>
      </trkpt>
      <trkpt lat="46.69175" lon="-1.64217">
        <ele>39</ele>
        <time>2019-05-20T19:22:14Z</time>
      </trkpt>
      <trkpt lat="46.69043" lon="-1.64071">
        <ele>36</ele>
        <time>2019-05-20T19:22:43Z</time>
      </trkpt>
      <trkpt lat="46.68928" lon="-1.63954">
        <ele>33</ele>
        <time>2019-05-20T19:23:08Z</time>
      </trkpt>
      <trkpt lat="46.68919" lon="-1.63941">
        <ele>32</ele>
        <time>2019-05-20T19:23:10Z</time>
      </trkpt>
      <trkpt lat="46.68913" lon="-1.63927">
        <ele>31</ele>
        <time>2019-05-20T19:23:12Z</time>
      </trkpt>
      <trkpt lat="46.68908" lon="-1.63912">
        <ele>31</ele>
        <time>2019-05-20T19:23:14Z</time>
      </trkpt>
      <trkpt lat="46.68901" lon="-1.63843">
        <ele>33</ele>
        <time>2019-05-20T19:23:23Z</time>
      </trkpt>
      <trkpt lat="46.68894" lon="-1.63803">
        <ele>35</ele>
        <time>2019-05-20T19:23:28Z</time>
      </trkpt>
      <trkpt lat="46.68851" lon="-1.63665">
        <ele>40</ele>
        <time>2019-05-20T19:23:46Z</time>
      </trkpt>
      <trkpt lat="46.68834" lon="-1.63619">
        <ele>41</ele>
        <time>2019-05-20T19:23:53Z</time>
      </trkpt>
      <trkpt lat="46.68746" lon="-1.63407">
        <ele>47</ele>
        <time>2019-05-20T19:24:23Z</time>
      </trkpt>
      <trkpt lat="46.6873" lon="-1.63349">
        <ele>48</ele>
        <time>2019-05-20T19:24:31Z</time>
      </trkpt>
      <trkpt lat="46.68725" lon="-1.63316">
        <ele>49</ele>
        <time>2019-05-20T19:24:35Z</time>
      </trkpt>
      <trkpt lat="46.68722" lon="-1.63277">
        <ele>48</ele>
        <time>2019-05-20T19:24:40Z</time>
      </trkpt>
      <trkpt lat="46.68715" lon="-1.63005">
        <ele>51</ele>
        <time>2019-05-20T19:25:13Z</time>
      </trkpt>
      <trkpt lat="46.68699" lon="-1.62689">
        <ele>55</ele>
        <time>2019-05-20T19:25:52Z</time>
      </trkpt>
      <trkpt lat="46.68692" lon="-1.62621">
        <ele>55</ele>
        <time>2019-05-20T19:26:00Z</time>
      </trkpt>
      <trkpt lat="46.68687" lon="-1.62593">
        <ele>55</ele>
        <time>2019-05-20T19:26:03Z</time>
      </trkpt>
      <trkpt lat="46.68679" lon="-1.62563">
        <ele>55</ele>
        <time>2019-05-20T19:26:07Z</time>
      </trkpt>
      <trkpt lat="46.68666" lon="-1.62528">
        <ele>56</ele>
        <time>2019-05-20T19:26:12Z</time>
      </trkpt>
      <trkpt lat="46.68623" lon="-1.62431">
        <ele>56</ele>
        <time>2019-05-20T19:26:26Z</time>
      </trkpt>
      <trkpt lat="46.68605" lon="-1.62398">
        <ele>56</ele>
        <time>2019-05-20T19:26:31Z</time>
      </trkpt>
      <trkpt lat="46.68589" lon="-1.62375">
        <ele>56</ele>
        <time>2019-05-20T19:26:35Z</time>
      </trkpt>
      <trkpt lat="46.68409" lon="-1.62153">
        <ele>57</ele>
        <time>2019-05-20T19:27:17Z</time>
      </trkpt>
      <trkpt lat="46.68343" lon="-1.62075">
        <ele>56</ele>
        <time>2019-05-20T19:27:33Z</time>
      </trkpt>
      <trkpt lat="46.68255" lon="-1.61956">
        <ele>53</ele>
        <time>2019-05-20T19:27:54Z</time>
      </trkpt>
      <trkpt lat="46.68226" lon="-1.61926">
        <ele>52</ele>
        <time>2019-05-20T19:28:00Z</time>
      </trkpt>
      <trkpt lat="46.68124" lon="-1.61799">
        <ele>47</ele>
        <time>2019-05-20T19:28:24Z</time>
      </trkpt>
      <trkpt lat="46.68102" lon="-1.61775">
        <ele>46</ele>
        <time>2019-05-20T19:28:29Z</time>
      </trkpt>
      <trkpt lat="46.68076" lon="-1.61754">
        <ele>46</ele>
        <time>2019-05-20T19:28:34Z</time>
      </trkpt>
      <trkpt lat="46.68044" lon="-1.61734">
        <ele>46</ele>
        <time>2019-05-20T19:28:40Z</time>
      </trkpt>
      <trkpt lat="46.67947" lon="-1.61688">
        <ele>43</ele>
        <time>2019-05-20T19:28:59Z</time>
      </trkpt>
      <trkpt lat="46.67933" lon="-1.61673">
        <ele>42</ele>
        <time>2019-05-20T19:29:02Z</time>
      </trkpt>
      <trkpt lat="46.67924" lon="-1.6166">
        <ele>42</ele>
        <time>2019-05-20T19:29:04Z</time>
      </trkpt>
      <trkpt lat="46.67882" lon="-1.61474">
        <ele>45</ele>
        <time>2019-05-20T19:29:28Z</time>
      </trkpt>
      <trkpt lat="46.6786" lon="-1.61357">
        <ele>48</ele>
        <time>2019-05-20T19:29:43Z</time>
      </trkpt>
      <trkpt lat="46.67855" lon="-1.61344">
        <ele>48</ele>
        <time>2019-05-20T19:29:45Z</time>
      </trkpt>
      <trkpt lat="46.67815" lon="-1.61284">
        <ele>49</ele>
        <time>2019-05-20T19:29:55Z</time>
      </trkpt>
      <trkpt lat="46.67773" lon="-1.61208">
        <ele>49</ele>
        <time>2019-05-20T19:30:07Z</time>
      </trkpt>
      <trkpt lat="46.67757" lon="-1.61177">
        <ele>49</ele>
        <time>2019-05-20T19:30:11Z</time>
      </trkpt>
      <trkpt lat="46.67734" lon="-1.61139">
        <ele>49</ele>
        <time>2019-05-20T19:30:18Z</time>
      </trkpt>
      <trkpt lat="46.67718" lon="-1.6112">
        <ele>49</ele>
        <time>2019-05-20T19:30:21Z</time>
      </trkpt>
      <trkpt lat="46.677" lon="-1.61107">
        <ele>49</ele>
        <time>2019-05-20T19:30:25Z</time>
      </trkpt>
      <trkpt lat="46.67654" lon="-1.6108">
        <ele>48</ele>
        <time>2019-05-20T19:30:34Z</time>
      </trkpt>
      <trkpt lat="46.67618" lon="-1.61051">
        <ele>47</ele>
        <time>2019-05-20T19:30:41Z</time>
      </trkpt>
      <trkpt lat="46.67623" lon="-1.61012">
        <ele>46</ele>
        <time>2019-05-20T19:30:46Z</time>
      </trkpt>
      <trkpt lat="46.6762" lon="-1.61008">
        <ele>46</ele>
        <time>2019-05-20T19:30:47Z</time>
      </trkpt>
      <trkpt lat="46.67613" lon="-1.6098">
        <ele>45</ele>
        <time>2019-05-20T19:30:50Z</time>
      </trkpt>
      <trkpt lat="46.67611" lon="-1.60932">
        <ele>42</ele>
        <time>2019-05-20T19:30:56Z</time>
      </trkpt>
      <trkpt lat="46.67588" lon="-1.6082">
        <ele>39</ele>
        <time>2019-05-20T19:31:10Z</time>
      </trkpt>
      <trkpt lat="46.67582" lon="-1.60797">
        <ele>38</ele>
        <time>2019-05-20T19:31:13Z</time>
      </trkpt>
      <trkpt lat="46.67568" lon="-1.60763">
        <ele>38</ele>
        <time>2019-05-20T19:31:18Z</time>
      </trkpt>
      <trkpt lat="46.67513" lon="-1.60661">
        <ele>42</ele>
        <time>2019-05-20T19:31:34Z</time>
      </trkpt>
      <trkpt lat="46.67501" lon="-1.60632">
        <ele>42</ele>
        <time>2019-05-20T19:31:38Z</time>
      </trkpt>
      <trkpt lat="46.67486" lon="-1.60586">
        <ele>42</ele>
        <time>2019-05-20T19:31:44Z</time>
      </trkpt>
      <trkpt lat="46.6748" lon="-1.6055">
        <ele>42</ele>
        <time>2019-05-20T19:31:49Z</time>
      </trkpt>
      <trkpt lat="46.67479" lon="-1.60531">
        <ele>41</ele>
        <time>2019-05-20T19:31:51Z</time>
      </trkpt>
      <trkpt lat="46.67482" lon="-1.60494">
        <ele>41</ele>
        <time>2019-05-20T19:31:56Z</time>
      </trkpt>
      <trkpt lat="46.67488" lon="-1.60471">
        <ele>40</ele>
        <time>2019-05-20T19:31:59Z</time>
      </trkpt>
      <trkpt lat="46.67494" lon="-1.60458">
        <ele>40</ele>
        <time>2019-05-20T19:32:01Z</time>
      </trkpt>
      <trkpt lat="46.67502" lon="-1.60448">
        <ele>40</ele>
        <time>2019-05-20T19:32:03Z</time>
      </trkpt>
      <trkpt lat="46.67535" lon="-1.60415">
        <ele>39</ele>
        <time>2019-05-20T19:32:10Z</time>
      </trkpt>
      <trkpt lat="46.6754" lon="-1.60406">
        <ele>40</ele>
        <time>2019-05-20T19:32:11Z</time>
      </trkpt>
      <trkpt lat="46.67546" lon="-1.60393">
        <ele>40</ele>
        <time>2019-05-20T19:32:13Z</time>
      </trkpt>
      <trkpt lat="46.67552" lon="-1.60373">
        <ele>40</ele>
        <time>2019-05-20T19:32:16Z</time>
      </trkpt>
      <trkpt lat="46.67567" lon="-1.60315">
        <ele>40</ele>
        <time>2019-05-20T19:32:23Z</time>
      </trkpt>
      <trkpt lat="46.67571" lon="-1.60286">
        <ele>41</ele>
        <time>2019-05-20T19:32:27Z</time>
      </trkpt>
      <trkpt lat="46.67574" lon="-1.60175">
        <ele>42</ele>
        <time>2019-05-20T19:32:40Z</time>
      </trkpt>
      <trkpt lat="46.67573" lon="-1.60152">
        <ele>42</ele>
        <time>2019-05-20T19:32:43Z</time>
      </trkpt>
      <trkpt lat="46.67567" lon="-1.6013">
        <ele>42</ele>
        <time>2019-05-20T19:32:46Z</time>
      </trkpt>
      <trkpt lat="46.67562" lon="-1.60121">
        <ele>42</ele>
        <time>2019-05-20T19:32:47Z</time>
      </trkpt>
      <trkpt lat="46.67549" lon="-1.60104">
        <ele>42</ele>
        <time>2019-05-20T19:32:51Z</time>
      </trkpt>
      <trkpt lat="46.67542" lon="-1.60098">
        <ele>42</ele>
        <time>2019-05-20T19:32:52Z</time>
      </trkpt>
      <trkpt lat="46.67535" lon="-1.60094">
        <ele>43</ele>
        <time>2019-05-20T19:32:53Z</time>
      </trkpt>
      <trkpt lat="46.67514" lon="-1.6009">
        <ele>43</ele>
        <time>2019-05-20T19:32:57Z</time>
      </trkpt>
      <trkpt lat="46.67182" lon="-1.60081">
        <ele>46</ele>
        <time>2019-05-20T19:33:56Z</time>
      </trkpt>
      <trkpt lat="46.67165" lon="-1.60074">
        <ele>45</ele>
        <time>2019-05-20T19:33:59Z</time>
      </trkpt>
      <trkpt lat="46.67152" lon="-1.6006">
        <ele>45</ele>
        <time>2019-05-20T19:34:02Z</time>
      </trkpt>
      <trkpt lat="46.67133" lon="-1.60024">
        <ele>46</ele>
        <time>2019-05-20T19:34:08Z</time>
      </trkpt>
      <trkpt lat="46.67114" lon="-1.59964">
        <ele>48</ele>
        <time>2019-05-20T19:34:16Z</time>
      </trkpt>
      <trkpt lat="46.67105" lon="-1.59923">
        <ele>48</ele>
        <time>2019-05-20T19:34:21Z</time>
      </trkpt>
      <trkpt lat="46.67102" lon="-1.59878">
        <ele>49</ele>
        <time>2019-05-20T19:34:27Z</time>
      </trkpt>
      <trkpt lat="46.67096" lon="-1.59845">
        <ele>49</ele>
        <time>2019-05-20T19:34:31Z</time>
      </trkpt>
      <trkpt lat="46.67086" lon="-1.59813">
        <ele>49</ele>
        <time>2019-05-20T19:34:35Z</time>
      </trkpt>
      <trkpt lat="46.67064" lon="-1.59761">
        <ele>49</ele>
        <time>2019-05-20T19:34:43Z</time>
      </trkpt>
      <trkpt lat="46.67025" lon="-1.59663">
        <ele>47</ele>
        <time>2019-05-20T19:34:56Z</time>
      </trkpt>
      <trkpt lat="46.67012" lon="-1.59635">
        <ele>47</ele>
        <time>2019-05-20T19:35:01Z</time>
      </trkpt>
      <trkpt lat="46.66994" lon="-1.59601">
        <ele>47</ele>
        <time>2019-05-20T19:35:06Z</time>
      </trkpt>
      <trkpt lat="46.66969" lon="-1.59563">
        <ele>48</ele>
        <time>2019-05-20T19:35:12Z</time>
      </trkpt>
      <trkpt lat="46.66954" lon="-1.59543">
        <ele>48</ele>
        <time>2019-05-20T19:35:16Z</time>
      </trkpt>
      <trkpt lat="46.66917" lon="-1.59505">
        <ele>48</ele>
        <time>2019-05-20T19:35:24Z</time>
      </trkpt>
      <trkpt lat="46.66783" lon="-1.59378">
        <ele>47</ele>
        <time>2019-05-20T19:35:52Z</time>
      </trkpt>
      <trkpt lat="46.66747" lon="-1.59335">
        <ele>48</ele>
        <time>2019-05-20T19:36:01Z</time>
      </trkpt>
      <trkpt lat="46.66672" lon="-1.59238">
        <ele>49</ele>
        <time>2019-05-20T19:36:18Z</time>
      </trkpt>
      <trkpt lat="46.66603" lon="-1.59162">
        <ele>48</ele>
        <time>2019-05-20T19:36:34Z</time>
      </trkpt>
      <trkpt lat="46.66579" lon="-1.5913">
        <ele>48</ele>
        <time>2019-05-20T19:36:40Z</time>
      </trkpt>
      <trkpt lat="46.6656" lon="-1.591">
        <ele>49</ele>
        <time>2019-05-20T19:36:45Z</time>
      </trkpt>
      <trkpt lat="46.6654" lon="-1.59065">
        <ele>50</ele>
        <time>2019-05-20T19:36:50Z</time>
      </trkpt>
      <trkpt lat="46.66512" lon="-1.59025">
        <ele>51</ele>
        <time>2019-05-20T19:36:57Z</time>
      </trkpt>
      <trkpt lat="46.66474" lon="-1.58981">
        <ele>51</ele>
        <time>2019-05-20T19:37:06Z</time>
      </trkpt>
      <trkpt lat="46.66459" lon="-1.58962">
        <ele>51</ele>
        <time>2019-05-20T19:37:09Z</time>
      </trkpt>
      <trkpt lat="46.66435" lon="-1.58921">
        <ele>50</ele>
        <time>2019-05-20T19:37:16Z</time>
      </trkpt>
      <trkpt lat="46.66414" lon="-1.58876">
        <ele>49</ele>
        <time>2019-05-20T19:37:23Z</time>
      </trkpt>
      <trkpt lat="46.66408" lon="-1.58855">
        <ele>48</ele>
        <time>2019-05-20T19:37:25Z</time>
      </trkpt>
      <trkpt lat="46.66396" lon="-1.58766">
        <ele>45</ele>
        <time>2019-05-20T19:37:36Z</time>
      </trkpt>
      <trkpt lat="46.66383" lon="-1.58715">
        <ele>42</ele>
        <time>2019-05-20T19:37:43Z</time>
      </trkpt>
      <trkpt lat="46.66374" lon="-1.58691">
        <ele>42</ele>
        <time>2019-05-20T19:37:46Z</time>
      </trkpt>
      <trkpt lat="46.66344" lon="-1.58631">
        <ele>40</ele>
        <time>2019-05-20T19:37:55Z</time>
      </trkpt>
      <trkpt lat="46.6633" lon="-1.58611">
        <ele>40</ele>
        <time>2019-05-20T19:37:59Z</time>
      </trkpt>
      <trkpt lat="46.66273" lon="-1.58542">
        <ele>42</ele>
        <time>2019-05-20T19:38:12Z</time>
      </trkpt>
      <trkpt lat="46.66241" lon="-1.58495">
        <ele>45</ele>
        <time>2019-05-20T19:38:20Z</time>
      </trkpt>
      <trkpt lat="46.66223" lon="-1.58446">
        <ele>44</ele>
        <time>2019-05-20T19:38:27Z</time>
      </trkpt>
      <trkpt lat="46.66202" lon="-1.58365">
        <ele>43</ele>
        <time>2019-05-20T19:38:38Z</time>
      </trkpt>
      <trkpt lat="46.66174" lon="-1.58251">
        <ele>45</ele>
        <time>2019-05-20T19:38:52Z</time>
      </trkpt>
      <trkpt lat="46.66168" lon="-1.58232">
        <ele>45</ele>
        <time>2019-05-20T19:38:55Z</time>
      </trkpt>
      <trkpt lat="46.66159" lon="-1.58212">
        <ele>46</ele>
        <time>2019-05-20T19:38:58Z</time>
      </trkpt>
      <trkpt lat="46.66119" lon="-1.5814">
        <ele>48</ele>
        <time>2019-05-20T19:39:09Z</time>
      </trkpt>
      <trkpt lat="46.66102" lon="-1.58107">
        <ele>48</ele>
        <time>2019-05-20T19:39:14Z</time>
      </trkpt>
      <trkpt lat="46.66072" lon="-1.58034">
        <ele>46</ele>
        <time>2019-05-20T19:39:25Z</time>
      </trkpt>
      <trkpt lat="46.66054" lon="-1.57984">
        <ele>45</ele>
        <time>2019-05-20T19:39:31Z</time>
      </trkpt>
      <trkpt lat="46.66041" lon="-1.5794">
        <ele>44</ele>
        <time>2019-05-20T19:39:37Z</time>
      </trkpt>
      <trkpt lat="46.6602" lon="-1.57856">
        <ele>42</ele>
        <time>2019-05-20T19:39:48Z</time>
      </trkpt>
      <trkpt lat="46.65994" lon="-1.57775">
        <ele>41</ele>
        <time>2019-05-20T19:39:59Z</time>
      </trkpt>
      <trkpt lat="46.6598" lon="-1.5772">
        <ele>40</ele>
        <time>2019-05-20T19:40:06Z</time>
      </trkpt>
      <trkpt lat="46.65971" lon="-1.57621">
        <ele>40</ele>
        <time>2019-05-20T19:40:18Z</time>
      </trkpt>
      <trkpt lat="46.65967" lon="-1.57589">
        <ele>40</ele>
        <time>2019-05-20T19:40:22Z</time>
      </trkpt>
      <trkpt lat="46.65958" lon="-1.57544">
        <ele>41</ele>
        <time>2019-05-20T19:40:28Z</time>
      </trkpt>
      <trkpt lat="46.65886" lon="-1.57307">
        <ele>47</ele>
        <time>2019-05-20T19:41:00Z</time>
      </trkpt>
      <trkpt lat="46.65867" lon="-1.57219">
        <ele>49</ele>
        <time>2019-05-20T19:41:11Z</time>
      </trkpt>
      <trkpt lat="46.65872" lon="-1.57079">
        <ele>52</ele>
        <time>2019-05-20T19:41:28Z</time>
      </trkpt>
      <trkpt lat="46.65869" lon="-1.57053">
        <ele>53</ele>
        <time>2019-05-20T19:41:31Z</time>
      </trkpt>
      <trkpt lat="46.65866" lon="-1.57034">
        <ele>53</ele>
        <time>2019-05-20T19:41:34Z</time>
      </trkpt>
      <trkpt lat="46.65838" lon="-1.56932">
        <ele>54</ele>
        <time>2019-05-20T19:41:47Z</time>
      </trkpt>
      <trkpt lat="46.65828" lon="-1.56909">
        <ele>54</ele>
        <time>2019-05-20T19:41:51Z</time>
      </trkpt>
      <trkpt lat="46.65738" lon="-1.56771">
        <ele>58</ele>
        <time>2019-05-20T19:42:14Z</time>
      </trkpt>
      <trkpt lat="46.65613" lon="-1.56567">
        <ele>56</ele>
        <time>2019-05-20T19:42:47Z</time>
      </trkpt>
      <trkpt lat="46.65603" lon="-1.56553">
        <ele>55</ele>
        <time>2019-05-20T19:42:50Z</time>
      </trkpt>
      <trkpt lat="46.65592" lon="-1.56541">
        <ele>55</ele>
        <time>2019-05-20T19:42:52Z</time>
      </trkpt>
      <trkpt lat="46.65502" lon="-1.56458">
        <ele>54</ele>
        <time>2019-05-20T19:43:11Z</time>
      </trkpt>
      <trkpt lat="46.65473" lon="-1.56418">
        <ele>55</ele>
        <time>2019-05-20T19:43:18Z</time>
      </trkpt>
      <trkpt lat="46.65458" lon="-1.56393">
        <ele>55</ele>
        <time>2019-05-20T19:43:22Z</time>
      </trkpt>
      <trkpt lat="46.65422" lon="-1.56293">
        <ele>56</ele>
        <time>2019-05-20T19:43:36Z</time>
      </trkpt>
      <trkpt lat="46.65384" lon="-1.56155">
        <ele>57</ele>
        <time>2019-05-20T19:43:54Z</time>
      </trkpt>
      <trkpt lat="46.65349" lon="-1.56023">
        <ele>58</ele>
        <time>2019-05-20T19:44:11Z</time>
      </trkpt>
      <trkpt lat="46.65346" lon="-1.56002">
        <ele>58</ele>
        <time>2019-05-20T19:44:14Z</time>
      </trkpt>
      <trkpt lat="46.65342" lon="-1.55939">
        <ele>57</ele>
        <time>2019-05-20T19:44:22Z</time>
      </trkpt>
      <trkpt lat="46.65335" lon="-1.55916">
        <ele>56</ele>
        <time>2019-05-20T19:44:25Z</time>
      </trkpt>
      <trkpt lat="46.65326" lon="-1.55899">
        <ele>56</ele>
        <time>2019-05-20T19:44:28Z</time>
      </trkpt>
      <trkpt lat="46.6531" lon="-1.55883">
        <ele>57</ele>
        <time>2019-05-20T19:44:31Z</time>
      </trkpt>
      <trkpt lat="46.65185" lon="-1.55802">
        <ele>62</ele>
        <time>2019-05-20T19:44:55Z</time>
      </trkpt>
      <trkpt lat="46.65169" lon="-1.55788">
        <ele>63</ele>
        <time>2019-05-20T19:44:59Z</time>
      </trkpt>
      <trkpt lat="46.65163" lon="-1.5578">
        <ele>63</ele>
        <time>2019-05-20T19:45:00Z</time>
      </trkpt>
      <trkpt lat="46.65128" lon="-1.55722">
        <ele>63</ele>
        <time>2019-05-20T19:45:09Z</time>
      </trkpt>
      <trkpt lat="46.65098" lon="-1.5568">
        <ele>64</ele>
        <time>2019-05-20T19:45:17Z</time>
      </trkpt>
      <trkpt lat="46.65009" lon="-1.55558">
        <ele>64</ele>
        <time>2019-05-20T19:45:39Z</time>
      </trkpt>
      <trkpt lat="46.64949" lon="-1.55452">
        <ele>62</ele>
        <time>2019-05-20T19:45:55Z</time>
      </trkpt>
      <trkpt lat="46.64913" lon="-1.55399">
        <ele>61</ele>
        <time>2019-05-20T19:46:05Z</time>
      </trkpt>
      <trkpt lat="46.64868" lon="-1.55357">
        <ele>62</ele>
        <time>2019-05-20T19:46:14Z</time>
      </trkpt>
      <trkpt lat="46.64828" lon="-1.55314">
        <ele>62</ele>
        <time>2019-05-20T19:46:23Z</time>
      </trkpt>
      <trkpt lat="46.6478" lon="-1.55255">
        <ele>64</ele>
        <time>2019-05-20T19:46:34Z</time>
      </trkpt>
      <trkpt lat="46.64726" lon="-1.55186">
        <ele>65</ele>
        <time>2019-05-20T19:46:47Z</time>
      </trkpt>
      <trkpt lat="46.64685" lon="-1.55137">
        <ele>65</ele>
        <time>2019-05-20T19:46:56Z</time>
      </trkpt>
      <trkpt lat="46.64608" lon="-1.55059">
        <ele>66</ele>
        <time>2019-05-20T19:47:13Z</time>
      </trkpt>
      <trkpt lat="46.64592" lon="-1.55037">
        <ele>67</ele>
        <time>2019-05-20T19:47:17Z</time>
      </trkpt>
      <trkpt lat="46.64403" lon="-1.54707">
        <ele>69</ele>
        <time>2019-05-20T19:48:09Z</time>
      </trkpt>
      <trkpt lat="46.64393" lon="-1.54686">
        <ele>68</ele>
        <time>2019-05-20T19:48:12Z</time>
      </trkpt>
      <trkpt lat="46.64341" lon="-1.54544">
        <ele>67</ele>
        <time>2019-05-20T19:48:32Z</time>
      </trkpt>
      <trkpt lat="46.64328" lon="-1.54504">
        <ele>68</ele>
        <time>2019-05-20T19:48:38Z</time>
      </trkpt>
      <trkpt lat="46.64323" lon="-1.54481">
        <ele>68</ele>
        <time>2019-05-20T19:48:41Z</time>
      </trkpt>
      <trkpt lat="46.64321" lon="-1.54453">
        <ele>67</ele>
        <time>2019-05-20T19:48:44Z</time>
      </trkpt>
      <trkpt lat="46.64323" lon="-1.54415">
        <ele>66</ele>
        <time>2019-05-20T19:48:49Z</time>
      </trkpt>
      <trkpt lat="46.64348" lon="-1.54189">
        <ele>61</ele>
        <time>2019-05-20T19:49:17Z</time>
      </trkpt>
      <trkpt lat="46.64347" lon="-1.54173">
        <ele>61</ele>
        <time>2019-05-20T19:49:19Z</time>
      </trkpt>
      <trkpt lat="46.64344" lon="-1.54159">
        <ele>61</ele>
        <time>2019-05-20T19:49:20Z</time>
      </trkpt>
      <trkpt lat="46.64341" lon="-1.54149">
        <ele>61</ele>
        <time>2019-05-20T19:49:22Z</time>
      </trkpt>
      <trkpt lat="46.6433" lon="-1.5413">
        <ele>61</ele>
        <time>2019-05-20T19:49:25Z</time>
      </trkpt>
      <trkpt lat="46.64314" lon="-1.54116">
        <ele>61</ele>
        <time>2019-05-20T19:49:28Z</time>
      </trkpt>
      <trkpt lat="46.64297" lon="-1.54108">
        <ele>62</ele>
        <time>2019-05-20T19:49:31Z</time>
      </trkpt>
      <trkpt lat="46.64295" lon="-1.54113">
        <ele>62</ele>
        <time>2019-05-20T19:49:32Z</time>
      </trkpt>
      <trkpt lat="46.64288" lon="-1.54117">
        <ele>62</ele>
        <time>2019-05-20T19:49:33Z</time>
      </trkpt>
      <trkpt lat="46.64285" lon="-1.54117">
        <ele>62</ele>
        <time>2019-05-20T19:49:34Z</time>
      </trkpt>
      <trkpt lat="46.64282" lon="-1.54114">
        <ele>62</ele>
        <time>2019-05-20T19:49:34Z</time>
      </trkpt>
      <trkpt lat="46.64278" lon="-1.54105">
        <ele>62</ele>
        <time>2019-05-20T19:49:36Z</time>
      </trkpt>
      <trkpt lat="46.64279" lon="-1.54099">
        <ele>62</ele>
        <time>2019-05-20T19:49:36Z</time>
      </trkpt>
      <trkpt lat="46.64248" lon="-1.54084">
        <ele>62</ele>
        <time>2019-05-20T19:49:42Z</time>
      </trkpt>
      <trkpt lat="46.64224" lon="-1.5407">
        <ele>62</ele>
        <time>2019-05-20T19:49:47Z</time>
      </trkpt>
      <trkpt lat="46.64197" lon="-1.54047">
        <ele>62</ele>
        <time>2019-05-20T19:49:52Z</time>
      </trkpt>
      <trkpt lat="46.64195" lon="-1.54053">
        <ele>62</ele>
        <time>2019-05-20T19:49:53Z</time>
      </trkpt>
      <trkpt lat="46.64188" lon="-1.54058">
        <ele>62</ele>
        <time>2019-05-20T19:49:55Z</time>
      </trkpt>
      <trkpt lat="46.6418" lon="-1.54054">
        <ele>62</ele>
        <time>2019-05-20T19:49:56Z</time>
      </trkpt>
      <trkpt lat="46.64177" lon="-1.54045">
        <ele>62</ele>
        <time>2019-05-20T19:49:57Z</time>
      </trkpt>
      <trkpt lat="46.64179" lon="-1.54033">
        <ele>62</ele>
        <time>2019-05-20T19:49:59Z</time>
      </trkpt>
      <trkpt lat="46.64182" lon="-1.5403">
        <ele>62</ele>
        <time>2019-05-20T19:50:00Z</time>
      </trkpt>
      <trkpt lat="46.64169" lon="-1.53993">
        <ele>62</ele>
        <time>2019-05-20T19:50:05Z</time>
      </trkpt>
      <trkpt lat="46.64154" lon="-1.53953">
        <ele>63</ele>
        <time>2019-05-20T19:50:10Z</time>
      </trkpt>
      <trkpt lat="46.64085" lon="-1.53794">
        <ele>64</ele>
        <time>2019-05-20T19:50:33Z</time>
      </trkpt>
      <trkpt lat="46.64069" lon="-1.53767">
        <ele>65</ele>
        <time>2019-05-20T19:50:38Z</time>
      </trkpt>
      <trkpt lat="46.64016" lon="-1.53707">
        <ele>64</ele>
        <time>2019-05-20T19:50:49Z</time>
      </trkpt>
      <trkpt lat="46.63726" lon="-1.53395">
        <ele>67</ele>
        <time>2019-05-20T19:51:54Z</time>
      </trkpt>
      <trkpt lat="46.63552" lon="-1.53237">
        <ele>67</ele>
        <time>2019-05-20T19:52:30Z</time>
      </trkpt>
      <trkpt lat="46.63522" lon="-1.53214">
        <ele>68</ele>
        <time>2019-05-20T19:52:36Z</time>
      </trkpt>
      <trkpt lat="46.63452" lon="-1.53169">
        <ele>69</ele>
        <time>2019-05-20T19:52:50Z</time>
      </trkpt>
      <trkpt lat="46.63438" lon="-1.53156">
        <ele>69</ele>
        <time>2019-05-20T19:52:53Z</time>
      </trkpt>
      <trkpt lat="46.6343" lon="-1.5314">
        <ele>69</ele>
        <time>2019-05-20T19:52:55Z</time>
      </trkpt>
      <trkpt lat="46.6342" lon="-1.53145">
        <ele>69</ele>
        <time>2019-05-20T19:52:57Z</time>
      </trkpt>
      <trkpt lat="46.63411" lon="-1.53144">
        <ele>69</ele>
        <time>2019-05-20T19:52:59Z</time>
      </trkpt>
      <trkpt lat="46.63232" lon="-1.53038">
        <ele>70</ele>
        <time>2019-05-20T19:53:33Z</time>
      </trkpt>
      <trkpt lat="46.63212" lon="-1.53029">
        <ele>70</ele>
        <time>2019-05-20T19:53:37Z</time>
      </trkpt>
      <trkpt lat="46.63194" lon="-1.53029">
        <ele>71</ele>
        <time>2019-05-20T19:53:40Z</time>
      </trkpt>
      <trkpt lat="46.63156" lon="-1.53039">
        <ele>70</ele>
        <time>2019-05-20T19:53:47Z</time>
      </trkpt>
      <trkpt lat="46.63061" lon="-1.53073">
        <ele>71</ele>
        <time>2019-05-20T19:54:04Z</time>
      </trkpt>
      <trkpt lat="46.62991" lon="-1.53092">
        <ele>71</ele>
        <time>2019-05-20T19:54:17Z</time>
      </trkpt>
      <trkpt lat="46.62908" lon="-1.53111">
        <ele>69</ele>
        <time>2019-05-20T19:54:32Z</time>
      </trkpt>
      <trkpt lat="46.62837" lon="-1.53123">
        <ele>70</ele>
        <time>2019-05-20T19:54:45Z</time>
      </trkpt>
      <trkpt lat="46.6278" lon="-1.53125">
        <ele>70</ele>
        <time>2019-05-20T19:54:55Z</time>
      </trkpt>
      <trkpt lat="46.62727" lon="-1.5313">
        <ele>70</ele>
        <time>2019-05-20T19:55:04Z</time>
      </trkpt>
      <trkpt lat="46.62567" lon="-1.53164">
        <ele>70</ele>
        <time>2019-05-20T19:55:33Z</time>
      </trkpt>
      <trkpt lat="46.62564" lon="-1.53972">
        <ele>68</ele>
        <time>2019-05-20T19:57:12Z</time>
      </trkpt>
      <trkpt lat="46.62562" lon="-1.54059">
        <ele>67</ele>
        <time>2019-05-20T19:57:22Z</time>
      </trkpt>
      <trkpt lat="46.62555" lon="-1.54166">
        <ele>63</ele>
        <time>2019-05-20T19:57:35Z</time>
      </trkpt>
      <trkpt lat="46.62518" lon="-1.5462">
        <ele>65</ele>
        <time>2019-05-20T19:58:31Z</time>
      </trkpt>
      <trkpt lat="46.6251" lon="-1.54679">
        <ele>66</ele>
        <time>2019-05-20T19:58:39Z</time>
      </trkpt>
      <trkpt lat="46.62504" lon="-1.54708">
        <ele>67</ele>
        <time>2019-05-20T19:58:42Z</time>
      </trkpt>
      <trkpt lat="46.62479" lon="-1.5479">
        <ele>67</ele>
        <time>2019-05-20T19:58:53Z</time>
      </trkpt>
      <trkpt lat="46.62449" lon="-1.5488">
        <ele>67</ele>
        <time>2019-05-20T19:59:06Z</time>
      </trkpt>
      <trkpt lat="46.62435" lon="-1.5491">
        <ele>67</ele>
        <time>2019-05-20T19:59:10Z</time>
      </trkpt>
      <trkpt lat="46.62415" lon="-1.54945">
        <ele>67</ele>
        <time>2019-05-20T19:59:15Z</time>
      </trkpt>
      <trkpt lat="46.62055" lon="-1.55472">
        <ele>69</ele>
        <time>2019-05-20T20:00:46Z</time>
      </trkpt>
      <trkpt lat="46.62036" lon="-1.55505">
        <ele>69</ele>
        <time>2019-05-20T20:00:52Z</time>
      </trkpt>
      <trkpt lat="46.61818" lon="-1.55959">
        <ele>69</ele>
        <time>2019-05-20T20:01:59Z</time>
      </trkpt>
      <trkpt lat="46.61813" lon="-1.55987">
        <ele>69</ele>
        <time>2019-05-20T20:02:03Z</time>
      </trkpt>
      <trkpt lat="46.61811" lon="-1.56036">
        <ele>69</ele>
        <time>2019-05-20T20:02:09Z</time>
      </trkpt>
      <trkpt lat="46.61835" lon="-1.56419">
        <ele>71</ele>
        <time>2019-05-20T20:02:56Z</time>
      </trkpt>
      <trkpt lat="46.61836" lon="-1.56479">
        <ele>70</ele>
        <time>2019-05-20T20:03:03Z</time>
      </trkpt>
      <trkpt lat="46.61831" lon="-1.56553">
        <ele>69</ele>
        <time>2019-05-20T20:03:12Z</time>
      </trkpt>
      <trkpt lat="46.61823" lon="-1.56649">
        <ele>68</ele>
        <time>2019-05-20T20:03:24Z</time>
      </trkpt>
      <trkpt lat="46.61817" lon="-1.56692">
        <ele>68</ele>
        <time>2019-05-20T20:03:29Z</time>
      </trkpt>
      <trkpt lat="46.6181" lon="-1.56729">
        <ele>68</ele>
        <time>2019-05-20T20:03:34Z</time>
      </trkpt>
      <trkpt lat="46.61799" lon="-1.56768">
        <ele>69</ele>
        <time>2019-05-20T20:03:39Z</time>
      </trkpt>
      <trkpt lat="46.61741" lon="-1.56972">
        <ele>69</ele>
        <time>2019-05-20T20:04:06Z</time>
      </trkpt>
      <trkpt lat="46.61712" lon="-1.57068">
        <ele>69</ele>
        <time>2019-05-20T20:04:19Z</time>
      </trkpt>
      <trkpt lat="46.61672" lon="-1.57163">
        <ele>69</ele>
        <time>2019-05-20T20:04:33Z</time>
      </trkpt>
      <trkpt lat="46.61607" lon="-1.57295">
        <ele>67</ele>
        <time>2019-05-20T20:04:53Z</time>
      </trkpt>
      <trkpt lat="46.6161" lon="-1.57302">
        <ele>68</ele>
        <time>2019-05-20T20:04:54Z</time>
      </trkpt>
      <trkpt lat="46.61608" lon="-1.57314">
        <ele>68</ele>
        <time>2019-05-20T20:04:55Z</time>
      </trkpt>
      <trkpt lat="46.61603" lon="-1.57319">
        <ele>67</ele>
        <time>2019-05-20T20:04:56Z</time>
      </trkpt>
      <trkpt lat="46.61597" lon="-1.57319">
        <ele>67</ele>
        <time>2019-05-20T20:04:57Z</time>
      </trkpt>
      <trkpt lat="46.61594" lon="-1.57317">
        <ele>67</ele>
        <time>2019-05-20T20:04:58Z</time>
      </trkpt>
      <trkpt lat="46.61589" lon="-1.57327">
        <ele>67</ele>
        <time>2019-05-20T20:04:59Z</time>
      </trkpt>
      <trkpt lat="46.61576" lon="-1.57382">
        <ele>67</ele>
        <time>2019-05-20T20:05:06Z</time>
      </trkpt>
      <trkpt lat="46.61564" lon="-1.57442">
        <ele>67</ele>
        <time>2019-05-20T20:05:14Z</time>
      </trkpt>
      <trkpt lat="46.6155" lon="-1.57486">
        <ele>67</ele>
        <time>2019-05-20T20:05:20Z</time>
      </trkpt>
      <trkpt lat="46.6154" lon="-1.57512">
        <ele>66</ele>
        <time>2019-05-20T20:05:24Z</time>
      </trkpt>
      <trkpt lat="46.61523" lon="-1.57539">
        <ele>66</ele>
        <time>2019-05-20T20:05:28Z</time>
      </trkpt>
      <trkpt lat="46.61497" lon="-1.57575">
        <ele>67</ele>
        <time>2019-05-20T20:05:34Z</time>
      </trkpt>
      <trkpt lat="46.61434" lon="-1.57649">
        <ele>66</ele>
        <time>2019-05-20T20:05:49Z</time>
      </trkpt>
      <trkpt lat="46.61421" lon="-1.5767">
        <ele>66</ele>
        <time>2019-05-20T20:05:52Z</time>
      </trkpt>
      <trkpt lat="46.614" lon="-1.57718">
        <ele>66</ele>
        <time>2019-05-20T20:05:59Z</time>
      </trkpt>
      <trkpt lat="46.61362" lon="-1.57832">
        <ele>66</ele>
        <time>2019-05-20T20:06:15Z</time>
      </trkpt>
      <trkpt lat="46.61359" lon="-1.57845">
        <ele>66</ele>
        <time>2019-05-20T20:06:16Z</time>
      </trkpt>
      <trkpt lat="46.6136" lon="-1.57887">
        <ele>65</ele>
        <time>2019-05-20T20:06:22Z</time>
      </trkpt>
      <trkpt lat="46.61339" lon="-1.57889">
        <ele>65</ele>
        <time>2019-05-20T20:06:25Z</time>
      </trkpt>
      <trkpt lat="46.61332" lon="-1.57894">
        <ele>65</ele>
        <time>2019-05-20T20:06:27Z</time>
      </trkpt>
      <trkpt lat="46.61327" lon="-1.579">
        <ele>65</ele>
        <time>2019-05-20T20:06:28Z</time>
      </trkpt>
      <trkpt lat="46.6126" lon="-1.57949">
        <ele>64</ele>
        <time>2019-05-20T20:06:41Z</time>
      </trkpt>
      <trkpt lat="46.61209" lon="-1.57972">
        <ele>64</ele>
        <time>2019-05-20T20:06:51Z</time>
      </trkpt>
      <trkpt lat="46.61218" lon="-1.58003">
        <ele>64</ele>
        <time>2019-05-20T20:06:55Z</time>
      </trkpt>
      <trkpt lat="46.61283" lon="-1.58244">
        <ele>64</ele>
        <time>2019-05-20T20:07:26Z</time>
      </trkpt>
      <trkpt lat="46.61287" lon="-1.58262">
        <ele>64</ele>
        <time>2019-05-20T20:07:29Z</time>
      </trkpt>
      <trkpt lat="46.61295" lon="-1.58285">
        <ele>65</ele>
        <time>2019-05-20T20:07:32Z</time>
      </trkpt>
      <trkpt lat="46.61301" lon="-1.58315">
        <ele>65</ele>
        <time>2019-05-20T20:07:36Z</time>
      </trkpt>
      <trkpt lat="46.61302" lon="-1.58326">
        <ele>65</ele>
        <time>2019-05-20T20:07:37Z</time>
      </trkpt>
      <trkpt lat="46.61307" lon="-1.58335">
        <ele>65</ele>
        <time>2019-05-20T20:07:39Z</time>
      </trkpt>
      <trkpt lat="46.61306" lon="-1.58343">
        <ele>65</ele>
        <time>2019-05-20T20:07:40Z</time>
      </trkpt>
      <trkpt lat="46.61302" lon="-1.58348">
        <ele>65</ele>
        <time>2019-05-20T20:07:40Z</time>
      </trkpt>
      <trkpt lat="46.61294" lon="-1.58347">
        <ele>64</ele>
        <time>2019-05-20T20:07:42Z</time>
      </trkpt>
      <trkpt lat="46.6129" lon="-1.58355">
        <ele>64</ele>
        <time>2019-05-20T20:07:43Z</time>
      </trkpt>
      <trkpt lat="46.61259" lon="-1.5839">
        <ele>64</ele>
        <time>2019-05-20T20:07:50Z</time>
      </trkpt>
      <trkpt lat="46.61041" lon="-1.58635">
        <ele>64</ele>
        <time>2019-05-20T20:08:39Z</time>
      </trkpt>
      <trkpt lat="46.60848" lon="-1.58845">
        <ele>59</ele>
        <time>2019-05-20T20:09:22Z</time>
      </trkpt>
      <trkpt lat="46.60833" lon="-1.58869">
        <ele>59</ele>
        <time>2019-05-20T20:09:26Z</time>
      </trkpt>
      <trkpt lat="46.60822" lon="-1.58891">
        <ele>58</ele>
        <time>2019-05-20T20:09:29Z</time>
      </trkpt>
      <trkpt lat="46.6072" lon="-1.59309">
        <ele>50</ele>
        <time>2019-05-20T20:10:23Z</time>
      </trkpt>
      <trkpt lat="46.60709" lon="-1.59346">
        <ele>51</ele>
        <time>2019-05-20T20:10:28Z</time>
      </trkpt>
      <trkpt lat="46.60699" lon="-1.59367">
        <ele>52</ele>
        <time>2019-05-20T20:10:32Z</time>
      </trkpt>
      <trkpt lat="46.60683" lon="-1.59394">
        <ele>54</ele>
        <time>2019-05-20T20:10:36Z</time>
      </trkpt>
      <trkpt lat="46.60575" lon="-1.5953">
        <ele>55</ele>
        <time>2019-05-20T20:11:01Z</time>
      </trkpt>
      <trkpt lat="46.6042" lon="-1.59768">
        <ele>51</ele>
        <time>2019-05-20T20:11:41Z</time>
      </trkpt>
      <trkpt lat="46.60405" lon="-1.59784">
        <ele>51</ele>
        <time>2019-05-20T20:11:45Z</time>
      </trkpt>
      <trkpt lat="46.60392" lon="-1.59796">
        <ele>51</ele>
        <time>2019-05-20T20:11:47Z</time>
      </trkpt>
      <trkpt lat="46.60351" lon="-1.59818">
        <ele>51</ele>
        <time>2019-05-20T20:11:55Z</time>
      </trkpt>
      <trkpt lat="46.6034" lon="-1.59829">
        <ele>51</ele>
        <time>2019-05-20T20:11:58Z</time>
      </trkpt>
      <trkpt lat="46.60332" lon="-1.59843">
        <ele>51</ele>
        <time>2019-05-20T20:12:00Z</time>
      </trkpt>
      <trkpt lat="46.60303" lon="-1.59921">
        <ele>48</ele>
        <time>2019-05-20T20:12:11Z</time>
      </trkpt>
      <trkpt lat="46.60232" lon="-1.60215">
        <ele>50</ele>
        <time>2019-05-20T20:12:49Z</time>
      </trkpt>
      <trkpt lat="46.6016" lon="-1.60536">
        <ele>54</ele>
        <time>2019-05-20T20:13:30Z</time>
      </trkpt>
      <trkpt lat="46.60145" lon="-1.60592">
        <ele>54</ele>
        <time>2019-05-20T20:13:37Z</time>
      </trkpt>
      <trkpt lat="46.60132" lon="-1.60621">
        <ele>53</ele>
        <time>2019-05-20T20:13:42Z</time>
      </trkpt>
      <trkpt lat="46.60108" lon="-1.60659">
        <ele>52</ele>
        <time>2019-05-20T20:13:48Z</time>
      </trkpt>
      <trkpt lat="46.6009" lon="-1.6068">
        <ele>52</ele>
        <time>2019-05-20T20:13:52Z</time>
      </trkpt>
      <trkpt lat="46.60018" lon="-1.60744">
        <ele>53</ele>
        <time>2019-05-20T20:14:07Z</time>
      </trkpt>
      <trkpt lat="46.59944" lon="-1.60816">
        <ele>52</ele>
        <time>2019-05-20T20:14:23Z</time>
      </trkpt>
      <trkpt lat="46.59763" lon="-1.61032">
        <ele>52</ele>
        <time>2019-05-20T20:15:05Z</time>
      </trkpt>
      <trkpt lat="46.5973" lon="-1.61067">
        <ele>51</ele>
        <time>2019-05-20T20:15:12Z</time>
      </trkpt>
      <trkpt lat="46.59609" lon="-1.61181">
        <ele>52</ele>
        <time>2019-05-20T20:15:37Z</time>
      </trkpt>
      <trkpt lat="46.59474" lon="-1.61314">
        <ele>50</ele>
        <time>2019-05-20T20:16:06Z</time>
      </trkpt>
      <trkpt lat="46.59449" lon="-1.61348">
        <ele>50</ele>
        <time>2019-05-20T20:16:13Z</time>
      </trkpt>
      <trkpt lat="46.59428" lon="-1.61387">
        <ele>50</ele>
        <time>2019-05-20T20:16:19Z</time>
      </trkpt>
      <trkpt lat="46.59356" lon="-1.61546">
        <ele>49</ele>
        <time>2019-05-20T20:16:42Z</time>
      </trkpt>
      <trkpt lat="46.59331" lon="-1.61594">
        <ele>49</ele>
        <time>2019-05-20T20:16:49Z</time>
      </trkpt>
      <trkpt lat="46.59227" lon="-1.61782">
        <ele>51</ele>
        <time>2019-05-20T20:17:19Z</time>
      </trkpt>
      <trkpt lat="46.59216" lon="-1.61814">
        <ele>51</ele>
        <time>2019-05-20T20:17:23Z</time>
      </trkpt>
      <trkpt lat="46.59212" lon="-1.61837">
        <ele>50</ele>
        <time>2019-05-20T20:17:26Z</time>
      </trkpt>
      <trkpt lat="46.59213" lon="-1.61863">
        <ele>50</ele>
        <time>2019-05-20T20:17:29Z</time>
      </trkpt>
      <trkpt lat="46.59234" lon="-1.61981">
        <ele>50</ele>
        <time>2019-05-20T20:17:44Z</time>
      </trkpt>
      <trkpt lat="46.59242" lon="-1.62011">
        <ele>50</ele>
        <time>2019-05-20T20:17:48Z</time>
      </trkpt>
      <trkpt lat="46.59251" lon="-1.62035">
        <ele>50</ele>
        <time>2019-05-20T20:17:51Z</time>
      </trkpt>
      <trkpt lat="46.59321" lon="-1.62175">
        <ele>48</ele>
        <time>2019-05-20T20:18:13Z</time>
      </trkpt>
      <trkpt lat="46.59334" lon="-1.62323">
        <ele>45</ele>
        <time>2019-05-20T20:18:31Z</time>
      </trkpt>
      <trkpt lat="46.5934" lon="-1.62353">
        <ele>44</ele>
        <time>2019-05-20T20:18:35Z</time>
      </trkpt>
      <trkpt lat="46.5941" lon="-1.62508">
        <ele>38</ele>
        <time>2019-05-20T20:18:57Z</time>
      </trkpt>
      <trkpt lat="46.59428" lon="-1.62567">
        <ele>36</ele>
        <time>2019-05-20T20:19:05Z</time>
      </trkpt>
      <trkpt lat="46.59485" lon="-1.62775">
        <ele>30</ele>
        <time>2019-05-20T20:19:33Z</time>
      </trkpt>
      <trkpt lat="46.59484" lon="-1.62806">
        <ele>30</ele>
        <time>2019-05-20T20:19:36Z</time>
      </trkpt>
      <trkpt lat="46.59481" lon="-1.62819">
        <ele>30</ele>
        <time>2019-05-20T20:19:38Z</time>
      </trkpt>
      <trkpt lat="46.59384" lon="-1.62951">
        <ele>34</ele>
        <time>2019-05-20T20:20:02Z</time>
      </trkpt>
      <trkpt lat="46.59375" lon="-1.62959">
        <ele>35</ele>
        <time>2019-05-20T20:20:04Z</time>
      </trkpt>
      <trkpt lat="46.59294" lon="-1.63143">
        <ele>37</ele>
        <time>2019-05-20T20:20:30Z</time>
      </trkpt>
      <trkpt lat="46.59262" lon="-1.6321">
        <ele>36</ele>
        <time>2019-05-20T20:20:40Z</time>
      </trkpt>
      <trkpt lat="46.59253" lon="-1.63244">
        <ele>35</ele>
        <time>2019-05-20T20:20:45Z</time>
      </trkpt>
      <trkpt lat="46.59246" lon="-1.63402">
        <ele>41</ele>
        <time>2019-05-20T20:21:04Z</time>
      </trkpt>
      <trkpt lat="46.5924" lon="-1.63445">
        <ele>43</ele>
        <time>2019-05-20T20:21:09Z</time>
      </trkpt>
      <trkpt lat="46.59227" lon="-1.6348">
        <ele>44</ele>
        <time>2019-05-20T20:21:14Z</time>
      </trkpt>
      <trkpt lat="46.59188" lon="-1.63526">
        <ele>45</ele>
        <time>2019-05-20T20:21:23Z</time>
      </trkpt>
      <trkpt lat="46.59114" lon="-1.63624">
        <ele>46</ele>
        <time>2019-05-20T20:21:41Z</time>
      </trkpt>
      <trkpt lat="46.59079" lon="-1.63704">
        <ele>47</ele>
        <time>2019-05-20T20:21:53Z</time>
      </trkpt>
      <trkpt lat="46.58973" lon="-1.63903">
        <ele>46</ele>
        <time>2019-05-20T20:22:23Z</time>
      </trkpt>
      <trkpt lat="46.58966" lon="-1.63925">
        <ele>46</ele>
        <time>2019-05-20T20:22:26Z</time>
      </trkpt>
      <trkpt lat="46.58964" lon="-1.63948">
        <ele>47</ele>
        <time>2019-05-20T20:22:29Z</time>
      </trkpt>
      <trkpt lat="46.58969" lon="-1.63978">
        <ele>47</ele>
        <time>2019-05-20T20:22:33Z</time>
      </trkpt>
      <trkpt lat="46.58985" lon="-1.64016">
        <ele>47</ele>
        <time>2019-05-20T20:22:38Z</time>
      </trkpt>
      <trkpt lat="46.58991" lon="-1.64037">
        <ele>47</ele>
        <time>2019-05-20T20:22:41Z</time>
      </trkpt>
      <trkpt lat="46.58992" lon="-1.64056">
        <ele>47</ele>
        <time>2019-05-20T20:22:44Z</time>
      </trkpt>
      <trkpt lat="46.58979" lon="-1.64181">
        <ele>46</ele>
        <time>2019-05-20T20:22:59Z</time>
      </trkpt>
      <trkpt lat="46.59007" lon="-1.64359">
        <ele>43</ele>
        <time>2019-05-20T20:23:21Z</time>
      </trkpt>
      <trkpt lat="46.59002" lon="-1.64372">
        <ele>43</ele>
        <time>2019-05-20T20:23:23Z</time>
      </trkpt>
      <trkpt lat="46.58996" lon="-1.64383">
        <ele>43</ele>
        <time>2019-05-20T20:23:25Z</time>
      </trkpt>
      <trkpt lat="46.58939" lon="-1.64449">
        <ele>43</ele>
        <time>2019-05-20T20:23:38Z</time>
      </trkpt>
      <trkpt lat="46.58931" lon="-1.64462">
        <ele>43</ele>
        <time>2019-05-20T20:23:40Z</time>
      </trkpt>
      <trkpt lat="46.58926" lon="-1.64478">
        <ele>42</ele>
        <time>2019-05-20T20:23:42Z</time>
      </trkpt>
      <trkpt lat="46.58925" lon="-1.64494">
        <ele>42</ele>
        <time>2019-05-20T20:23:44Z</time>
      </trkpt>
      <trkpt lat="46.5899" lon="-1.64602">
        <ele>41</ele>
        <time>2019-05-20T20:24:02Z</time>
      </trkpt>
      <trkpt lat="46.59004" lon="-1.6462">
        <ele>41</ele>
        <time>2019-05-20T20:24:05Z</time>
      </trkpt>
      <trkpt lat="46.59027" lon="-1.64641">
        <ele>41</ele>
        <time>2019-05-20T20:24:10Z</time>
      </trkpt>
      <trkpt lat="46.59039" lon="-1.64663">
        <ele>41</ele>
        <time>2019-05-20T20:24:13Z</time>
      </trkpt>
      <trkpt lat="46.59041" lon="-1.6468">
        <ele>41</ele>
        <time>2019-05-20T20:24:15Z</time>
      </trkpt>
      <trkpt lat="46.59045" lon="-1.64741">
        <ele>40</ele>
        <time>2019-05-20T20:24:23Z</time>
      </trkpt>
      <trkpt lat="46.59038" lon="-1.64738">
        <ele>40</ele>
        <time>2019-05-20T20:24:24Z</time>
      </trkpt>
      <trkpt lat="46.59019" lon="-1.64746">
        <ele>41</ele>
        <time>2019-05-20T20:24:28Z</time>
      </trkpt>
      <trkpt lat="46.59005" lon="-1.64765">
        <ele>40</ele>
        <time>2019-05-20T20:24:31Z</time>
      </trkpt>
      <trkpt lat="46.59005" lon="-1.64789">
        <ele>39</ele>
        <time>2019-05-20T20:24:34Z</time>
      </trkpt>
      <trkpt lat="46.58973" lon="-1.64792">
        <ele>38</ele>
        <time>2019-05-20T20:24:40Z</time>
      </trkpt>
      <trkpt lat="46.58823" lon="-1.64814">
        <ele>36</ele>
        <time>2019-05-20T20:25:06Z</time>
      </trkpt>
      <trkpt lat="46.58797" lon="-1.64811">
        <ele>35</ele>
        <time>2019-05-20T20:25:11Z</time>
      </trkpt>
      <trkpt lat="46.58769" lon="-1.64797">
        <ele>34</ele>
        <time>2019-05-20T20:25:16Z</time>
      </trkpt>
      <trkpt lat="46.58746" lon="-1.64776">
        <ele>34</ele>
        <time>2019-05-20T20:25:21Z</time>
      </trkpt>
      <trkpt lat="46.58702" lon="-1.64719">
        <ele>36</ele>
        <time>2019-05-20T20:25:32Z</time>
      </trkpt>
      <trkpt lat="46.58681" lon="-1.64735">
        <ele>36</ele>
        <time>2019-05-20T20:25:36Z</time>
      </trkpt>
      <trkpt lat="46.58359" lon="-1.64836">
        <ele>40</ele>
        <time>2019-05-20T20:26:35Z</time>
      </trkpt>
      <trkpt lat="46.58218" lon="-1.64882">
        <ele>39</ele>
        <time>2019-05-20T20:27:00Z</time>
      </trkpt>
      <trkpt lat="46.58189" lon="-1.64901">
        <ele>40</ele>
        <time>2019-05-20T20:27:06Z</time>
      </trkpt>
      <trkpt lat="46.58169" lon="-1.64921">
        <ele>40</ele>
        <time>2019-05-20T20:27:10Z</time>
      </trkpt>
      <trkpt lat="46.58005" lon="-1.65125">
        <ele>40</ele>
        <time>2019-05-20T20:27:49Z</time>
      </trkpt>
      <trkpt lat="46.57983" lon="-1.65166">
        <ele>41</ele>
        <time>2019-05-20T20:27:55Z</time>
      </trkpt>
      <trkpt lat="46.57966" lon="-1.6522">
        <ele>41</ele>
        <time>2019-05-20T20:28:02Z</time>
      </trkpt>
      <trkpt lat="46.57946" lon="-1.65339">
        <ele>40</ele>
        <time>2019-05-20T20:28:17Z</time>
      </trkpt>
      <trkpt lat="46.57929" lon="-1.65403">
        <ele>39</ele>
        <time>2019-05-20T20:28:26Z</time>
      </trkpt>
      <trkpt lat="46.57867" lon="-1.65556">
        <ele>39</ele>
        <time>2019-05-20T20:28:47Z</time>
      </trkpt>
      <trkpt lat="46.57816" lon="-1.65703">
        <ele>38</ele>
        <time>2019-05-20T20:29:07Z</time>
      </trkpt>
      <trkpt lat="46.57705" lon="-1.66347">
        <ele>22</ele>
        <time>2019-05-20T20:30:29Z</time>
      </trkpt>
      <trkpt lat="46.57674" lon="-1.66416">
        <ele>20</ele>
        <time>2019-05-20T20:30:39Z</time>
      </trkpt>
      <trkpt lat="46.57642" lon="-1.66469">
        <ele>17</ele>
        <time>2019-05-20T20:30:47Z</time>
      </trkpt>
      <trkpt lat="46.57568" lon="-1.66552">
        <ele>15</ele>
        <time>2019-05-20T20:31:04Z</time>
      </trkpt>
      <trkpt lat="46.57553" lon="-1.66576">
        <ele>13</ele>
        <time>2019-05-20T20:31:08Z</time>
      </trkpt>
      <trkpt lat="46.57533" lon="-1.6665">
        <ele>12</ele>
        <time>2019-05-20T20:31:18Z</time>
      </trkpt>
      <trkpt lat="46.5752" lon="-1.66707">
        <ele>14</ele>
        <time>2019-05-20T20:31:25Z</time>
      </trkpt>
      <trkpt lat="46.57502" lon="-1.66757">
        <ele>16</ele>
        <time>2019-05-20T20:31:32Z</time>
      </trkpt>
      <trkpt lat="46.57483" lon="-1.66793">
        <ele>16</ele>
        <time>2019-05-20T20:31:38Z</time>
      </trkpt>
      <trkpt lat="46.57449" lon="-1.66827">
        <ele>19</ele>
        <time>2019-05-20T20:31:45Z</time>
      </trkpt>
      <trkpt lat="46.57247" lon="-1.66984">
        <ele>27</ele>
        <time>2019-05-20T20:32:26Z</time>
      </trkpt>
      <trkpt lat="46.57181" lon="-1.6704">
        <ele>25</ele>
        <time>2019-05-20T20:32:39Z</time>
      </trkpt>
      <trkpt lat="46.57044" lon="-1.6719">
        <ele>28</ele>
        <time>2019-05-20T20:33:10Z</time>
      </trkpt>
      <trkpt lat="46.56999" lon="-1.67214">
        <ele>30</ele>
        <time>2019-05-20T20:33:18Z</time>
      </trkpt>
      <trkpt lat="46.56863" lon="-1.67243">
        <ele>33</ele>
        <time>2019-05-20T20:33:43Z</time>
      </trkpt>
      <trkpt lat="46.56798" lon="-1.6726">
        <ele>35</ele>
        <time>2019-05-20T20:33:54Z</time>
      </trkpt>
      <trkpt lat="46.5677" lon="-1.6727">
        <ele>36</ele>
        <time>2019-05-20T20:34:00Z</time>
      </trkpt>
      <trkpt lat="46.56758" lon="-1.673">
        <ele>37</ele>
        <time>2019-05-20T20:34:04Z</time>
      </trkpt>
      <trkpt lat="46.56673" lon="-1.67422">
        <ele>36</ele>
        <time>2019-05-20T20:34:25Z</time>
      </trkpt>
      <trkpt lat="46.56626" lon="-1.67498">
        <ele>35</ele>
        <time>2019-05-20T20:34:38Z</time>
      </trkpt>
      <trkpt lat="46.56613" lon="-1.67537">
        <ele>34</ele>
        <time>2019-05-20T20:34:43Z</time>
      </trkpt>
      <trkpt lat="46.56602" lon="-1.67591">
        <ele>33</ele>
        <time>2019-05-20T20:34:50Z</time>
      </trkpt>
      <trkpt lat="46.56604" lon="-1.67941">
        <ele>33</ele>
        <time>2019-05-20T20:35:33Z</time>
      </trkpt>
      <trkpt lat="46.56585" lon="-1.68088">
        <ele>33</ele>
        <time>2019-05-20T20:35:51Z</time>
      </trkpt>
      <trkpt lat="46.56558" lon="-1.68178">
        <ele>33</ele>
        <time>2019-05-20T20:36:03Z</time>
      </trkpt>
      <trkpt lat="46.56451" lon="-1.68442">
        <ele>35</ele>
        <time>2019-05-20T20:36:40Z</time>
      </trkpt>
      <trkpt lat="46.56424" lon="-1.68664">
        <ele>35</ele>
        <time>2019-05-20T20:37:08Z</time>
      </trkpt>
      <trkpt lat="46.56377" lon="-1.69023">
        <ele>37</ele>
        <time>2019-05-20T20:37:53Z</time>
      </trkpt>
      <trkpt lat="46.56372" lon="-1.69133">
        <ele>37</ele>
        <time>2019-05-20T20:38:06Z</time>
      </trkpt>
      <trkpt lat="46.56372" lon="-1.69658">
        <ele>36</ele>
        <time>2019-05-20T20:39:10Z</time>
      </trkpt>
      <trkpt lat="46.56368" lon="-1.69826">
        <ele>34</ele>
        <time>2019-05-20T20:39:31Z</time>
      </trkpt>
      <trkpt lat="46.56365" lon="-1.69861">
        <ele>34</ele>
        <time>2019-05-20T20:39:35Z</time>
      </trkpt>
      <trkpt lat="46.56343" lon="-1.70025">
        <ele>32</ele>
        <time>2019-05-20T20:39:56Z</time>
      </trkpt>
      <trkpt lat="46.56333" lon="-1.70141">
        <ele>32</ele>
        <time>2019-05-20T20:40:10Z</time>
      </trkpt>
      <trkpt lat="46.56323" lon="-1.70282">
        <ele>29</ele>
        <time>2019-05-20T20:40:27Z</time>
      </trkpt>
      <trkpt lat="46.56324" lon="-1.70333">
        <ele>29</ele>
        <time>2019-05-20T20:40:34Z</time>
      </trkpt>
      <trkpt lat="46.56331" lon="-1.70401">
        <ele>31</ele>
        <time>2019-05-20T20:40:42Z</time>
      </trkpt>
      <trkpt lat="46.56413" lon="-1.70882">
        <ele>34</ele>
        <time>2019-05-20T20:41:43Z</time>
      </trkpt>
      <trkpt lat="46.56419" lon="-1.70929">
        <ele>34</ele>
        <time>2019-05-20T20:41:48Z</time>
      </trkpt>
      <trkpt lat="46.56434" lon="-1.71261">
        <ele>33</ele>
        <time>2019-05-20T20:42:29Z</time>
      </trkpt>
      <trkpt lat="46.56434" lon="-1.713">
        <ele>33</ele>
        <time>2019-05-20T20:42:34Z</time>
      </trkpt>
      <trkpt lat="46.56422" lon="-1.71399">
        <ele>33</ele>
        <time>2019-05-20T20:42:46Z</time>
      </trkpt>
      <trkpt lat="46.56418" lon="-1.71452">
        <ele>33</ele>
        <time>2019-05-20T20:42:53Z</time>
      </trkpt>
      <trkpt lat="46.56419" lon="-1.7148">
        <ele>33</ele>
        <time>2019-05-20T20:42:56Z</time>
      </trkpt>
      <trkpt lat="46.56424" lon="-1.71491">
        <ele>33</ele>
        <time>2019-05-20T20:42:58Z</time>
      </trkpt>
      <trkpt lat="46.56477" lon="-1.71441">
        <ele>31</ele>
        <time>2019-05-20T20:43:09Z</time>
      </trkpt>
      <trkpt lat="46.56486" lon="-1.71454">
        <ele>31</ele>
        <time>2019-05-20T20:43:11Z</time>
      </trkpt>
      <trkpt lat="46.56588" lon="-1.71517">
        <ele>29</ele>
        <time>2019-05-20T20:43:31Z</time>
      </trkpt>
      <trkpt lat="46.56695" lon="-1.71591">
        <ele>27</ele>
        <time>2019-05-20T20:43:52Z</time>
      </trkpt>
      <trkpt lat="46.56719" lon="-1.71599">
        <ele>27</ele>
        <time>2019-05-20T20:43:56Z</time>
      </trkpt>
      <trkpt lat="46.56966" lon="-1.71636">
        <ele>32</ele>
        <time>2019-05-20T20:44:41Z</time>
      </trkpt>
      <trkpt lat="46.57126" lon="-1.71674">
        <ele>33</ele>
        <time>2019-05-20T20:45:09Z</time>
      </trkpt>
      <trkpt lat="46.57163" lon="-1.71685">
        <ele>33</ele>
        <time>2019-05-20T20:45:16Z</time>
      </trkpt>
      <trkpt lat="46.57265" lon="-1.71732">
        <ele>33</ele>
        <time>2019-05-20T20:45:35Z</time>
      </trkpt>
      <trkpt lat="46.5738" lon="-1.71803">
        <ele>31</ele>
        <time>2019-05-20T20:45:57Z</time>
      </trkpt>
      <trkpt lat="46.57587" lon="-1.71952">
        <ele>28</ele>
        <time>2019-05-20T20:46:39Z</time>
      </trkpt>
      <trkpt lat="46.57713" lon="-1.71999">
        <ele>23</ele>
        <time>2019-05-20T20:47:02Z</time>
      </trkpt>
      <trkpt lat="46.57755" lon="-1.72028">
        <ele>20</ele>
        <time>2019-05-20T20:47:10Z</time>
      </trkpt>
      <trkpt lat="46.57988" lon="-1.72136">
        <ele>6</ele>
        <time>2019-05-20T20:47:53Z</time>
      </trkpt>
      <trkpt lat="46.58129" lon="-1.72235">
        <ele>14</ele>
        <time>2019-05-20T20:48:21Z</time>
      </trkpt>
      <trkpt lat="46.58208" lon="-1.72258">
        <ele>18</ele>
        <time>2019-05-20T20:48:36Z</time>
      </trkpt>
      <trkpt lat="46.58243" lon="-1.72278">
        <ele>19</ele>
        <time>2019-05-20T20:48:42Z</time>
      </trkpt>
      <trkpt lat="46.58264" lon="-1.72317">
        <ele>20</ele>
        <time>2019-05-20T20:48:48Z</time>
      </trkpt>
      <trkpt lat="46.58387" lon="-1.7257">
        <ele>28</ele>
        <time>2019-05-20T20:49:26Z</time>
      </trkpt>
      <trkpt lat="46.58453" lon="-1.72649">
        <ele>32</ele>
        <time>2019-05-20T20:49:42Z</time>
      </trkpt>
      <trkpt lat="46.58526" lon="-1.72758">
        <ele>33</ele>
        <time>2019-05-20T20:50:00Z</time>
      </trkpt>
      <trkpt lat="46.58554" lon="-1.72807">
        <ele>32</ele>
        <time>2019-05-20T20:50:08Z</time>
      </trkpt>
      <trkpt lat="46.58572" lon="-1.72882">
        <ele>31</ele>
        <time>2019-05-20T20:50:18Z</time>
      </trkpt>
      <trkpt lat="46.58577" lon="-1.72962">
        <ele>30</ele>
        <time>2019-05-20T20:50:27Z</time>
      </trkpt>
      <trkpt lat="46.58572" lon="-1.73126">
        <ele>22</ele>
        <time>2019-05-20T20:50:48Z</time>
      </trkpt>
      <trkpt lat="46.5858" lon="-1.73158">
        <ele>20</ele>
        <time>2019-05-20T20:50:52Z</time>
      </trkpt>
      <trkpt lat="46.58602" lon="-1.7318">
        <ele>18</ele>
        <time>2019-05-20T20:50:56Z</time>
      </trkpt>
      <trkpt lat="46.58632" lon="-1.73182">
        <ele>17</ele>
        <time>2019-05-20T20:51:02Z</time>
      </trkpt>
      <trkpt lat="46.5869" lon="-1.7317">
        <ele>14</ele>
        <time>2019-05-20T20:51:12Z</time>
      </trkpt>
      <trkpt lat="46.58708" lon="-1.73154">
        <ele>13</ele>
        <time>2019-05-20T20:51:16Z</time>
      </trkpt>
      <trkpt lat="46.58718" lon="-1.73136">
        <ele>13</ele>
        <time>2019-05-20T20:51:19Z</time>
      </trkpt>
      <trkpt lat="46.58749" lon="-1.73062">
        <ele>13</ele>
        <time>2019-05-20T20:51:29Z</time>
      </trkpt>
      <trkpt lat="46.58765" lon="-1.7304">
        <ele>13</ele>
        <time>2019-05-20T20:51:33Z</time>
      </trkpt>
      <trkpt lat="46.58788" lon="-1.73029">
        <ele>12</ele>
        <time>2019-05-20T20:51:38Z</time>
      </trkpt>
      <trkpt lat="46.58808" lon="-1.73026">
        <ele>11</ele>
        <time>2019-05-20T20:51:41Z</time>
      </trkpt>
      <trkpt lat="46.5883" lon="-1.73032">
        <ele>9</ele>
        <time>2019-05-20T20:51:45Z</time>
      </trkpt>
      <trkpt lat="46.58842" lon="-1.73047">
        <ele>10</ele>
        <time>2019-05-20T20:51:48Z</time>
      </trkpt>
      <trkpt lat="46.58929" lon="-1.73208">
        <ele>19</ele>
        <time>2019-05-20T20:52:13Z</time>
      </trkpt>
      <trkpt lat="46.58936" lon="-1.73235">
        <ele>19</ele>
        <time>2019-05-20T20:52:17Z</time>
      </trkpt>
      <trkpt lat="46.58941" lon="-1.73258">
        <ele>20</ele>
        <time>2019-05-20T20:52:20Z</time>
      </trkpt>
      <trkpt lat="46.58943" lon="-1.73278">
        <ele>21</ele>
        <time>2019-05-20T20:52:22Z</time>
      </trkpt>
      <trkpt lat="46.58942" lon="-1.73299">
        <ele>22</ele>
        <time>2019-05-20T20:52:25Z</time>
      </trkpt>
      <trkpt lat="46.58938" lon="-1.73327">
        <ele>23</ele>
        <time>2019-05-20T20:52:28Z</time>
      </trkpt>
      <trkpt lat="46.58927" lon="-1.73358">
        <ele>23</ele>
        <time>2019-05-20T20:52:32Z</time>
      </trkpt>
      <trkpt lat="46.589" lon="-1.73417">
        <ele>25</ele>
        <time>2019-05-20T20:52:41Z</time>
      </trkpt>
      <trkpt lat="46.58895" lon="-1.73439">
        <ele>25</ele>
        <time>2019-05-20T20:52:44Z</time>
      </trkpt>
      <trkpt lat="46.58893" lon="-1.73456">
        <ele>26</ele>
        <time>2019-05-20T20:52:46Z</time>
      </trkpt>
      <trkpt lat="46.58894" lon="-1.73482">
        <ele>26</ele>
        <time>2019-05-20T20:52:49Z</time>
      </trkpt>
      <trkpt lat="46.589" lon="-1.73541">
        <ele>28</ele>
        <time>2019-05-20T20:52:56Z</time>
      </trkpt>
      <trkpt lat="46.5891" lon="-1.7357">
        <ele>29</ele>
        <time>2019-05-20T20:53:00Z</time>
      </trkpt>
      <trkpt lat="46.58979" lon="-1.73809">
        <ele>35</ele>
        <time>2019-05-20T20:53:32Z</time>
      </trkpt>
      <trkpt lat="46.58993" lon="-1.73839">
        <ele>36</ele>
        <time>2019-05-20T20:53:37Z</time>
      </trkpt>
      <trkpt lat="46.59107" lon="-1.74012">
        <ele>38</ele>
        <time>2019-05-20T20:54:06Z</time>
      </trkpt>
      <trkpt lat="46.59132" lon="-1.74032">
        <ele>37</ele>
        <time>2019-05-20T20:54:11Z</time>
      </trkpt>
      <trkpt lat="46.59191" lon="-1.74067">
        <ele>37</ele>
        <time>2019-05-20T20:54:22Z</time>
      </trkpt>
      <trkpt lat="46.59543" lon="-1.74255">
        <ele>41</ele>
        <time>2019-05-20T20:55:29Z</time>
      </trkpt>
      <trkpt lat="46.59581" lon="-1.74296">
        <ele>41</ele>
        <time>2019-05-20T20:55:37Z</time>
      </trkpt>
      <trkpt lat="46.59611" lon="-1.74318">
        <ele>42</ele>
        <time>2019-05-20T20:55:43Z</time>
      </trkpt>
      <trkpt lat="46.59688" lon="-1.74358">
        <ele>46</ele>
        <time>2019-05-20T20:55:58Z</time>
      </trkpt>
      <trkpt lat="46.59773" lon="-1.74416">
        <ele>50</ele>
        <time>2019-05-20T20:56:15Z</time>
      </trkpt>
      <trkpt lat="46.59828" lon="-1.74424">
        <ele>52</ele>
        <time>2019-05-20T20:56:24Z</time>
      </trkpt>
      <trkpt lat="46.59845" lon="-1.74433">
        <ele>52</ele>
        <time>2019-05-20T20:56:28Z</time>
      </trkpt>
      <trkpt lat="46.59923" lon="-1.74525">
        <ele>54</ele>
        <time>2019-05-20T20:56:46Z</time>
      </trkpt>
      <trkpt lat="46.60039" lon="-1.74673">
        <ele>57</ele>
        <time>2019-05-20T20:57:13Z</time>
      </trkpt>
      <trkpt lat="46.60065" lon="-1.74717">
        <ele>58</ele>
        <time>2019-05-20T20:57:20Z</time>
      </trkpt>
      <trkpt lat="46.60098" lon="-1.74806">
        <ele>59</ele>
        <time>2019-05-20T20:57:32Z</time>
      </trkpt>
      <trkpt lat="46.60123" lon="-1.74867">
        <ele>59</ele>
        <time>2019-05-20T20:57:41Z</time>
      </trkpt>
      <trkpt lat="46.60155" lon="-1.74936">
        <ele>58</ele>
        <time>2019-05-20T20:57:51Z</time>
      </trkpt>
      <trkpt lat="46.60174" lon="-1.74988">
        <ele>57</ele>
        <time>2019-05-20T20:57:59Z</time>
      </trkpt>
      <trkpt lat="46.60208" lon="-1.75149">
        <ele>56</ele>
        <time>2019-05-20T20:58:19Z</time>
      </trkpt>
      <trkpt lat="46.60187" lon="-1.75183">
        <ele>55</ele>
        <time>2019-05-20T20:58:25Z</time>
      </trkpt>
      <trkpt lat="46.60173" lon="-1.75215">
        <ele>55</ele>
        <time>2019-05-20T20:58:29Z</time>
      </trkpt>
      <trkpt lat="46.60143" lon="-1.75304">
        <ele>55</ele>
        <time>2019-05-20T20:58:41Z</time>
      </trkpt>
      <trkpt lat="46.60138" lon="-1.75329">
        <ele>55</ele>
        <time>2019-05-20T20:58:45Z</time>
      </trkpt>
      <trkpt lat="46.60135" lon="-1.75377">
        <ele>55</ele>
        <time>2019-05-20T20:58:51Z</time>
      </trkpt>
      <trkpt lat="46.60119" lon="-1.75435">
        <ele>55</ele>
        <time>2019-05-20T20:58:58Z</time>
      </trkpt>
      <trkpt lat="46.6012" lon="-1.75445">
        <ele>55</ele>
        <time>2019-05-20T20:58:59Z</time>
      </trkpt>
      <trkpt lat="46.60141" lon="-1.75543">
        <ele>54</ele>
        <time>2019-05-20T20:59:12Z</time>
      </trkpt>
      <trkpt lat="46.60152" lon="-1.75609">
        <ele>52</ele>
        <time>2019-05-20T20:59:20Z</time>
      </trkpt>
      <trkpt lat="46.60155" lon="-1.75609">
        <ele>52</ele>
        <time>2019-05-20T20:59:21Z</time>
      </trkpt>
      <trkpt lat="46.60158" lon="-1.75615">
        <ele>52</ele>
        <time>2019-05-20T20:59:22Z</time>
      </trkpt>
      <trkpt lat="46.60165" lon="-1.75617">
        <ele>52</ele>
        <time>2019-05-20T20:59:23Z</time>
      </trkpt>
      <trkpt lat="46.60193" lon="-1.75615">
        <ele>53</ele>
        <time>2019-05-20T20:59:28Z</time>
      </trkpt>
      <trkpt lat="46.60199" lon="-1.75618">
        <ele>53</ele>
        <time>2019-05-20T20:59:29Z</time>
      </trkpt>
      <trkpt lat="46.60273" lon="-1.75667">
        <ele>52</ele>
        <time>2019-05-20T20:59:44Z</time>
      </trkpt>
      <trkpt lat="46.60281" lon="-1.75676">
        <ele>52</ele>
        <time>2019-05-20T20:59:45Z</time>
      </trkpt>
      <trkpt lat="46.60306" lon="-1.75709">
        <ele>51</ele>
        <time>2019-05-20T20:59:51Z</time>
      </trkpt>
      <trkpt lat="46.60366" lon="-1.75822">
        <ele>49</ele>
        <time>2019-05-20T21:00:09Z</time>
      </trkpt>
      <trkpt lat="46.60397" lon="-1.75866">
        <ele>48</ele>
        <time>2019-05-20T21:00:16Z</time>
      </trkpt>
      <trkpt lat="46.60573" lon="-1.76083">
        <ele>48</ele>
        <time>2019-05-20T21:00:58Z</time>
      </trkpt>
      <trkpt lat="46.60724" lon="-1.76267">
        <ele>48</ele>
        <time>2019-05-20T21:01:33Z</time>
      </trkpt>
      <trkpt lat="46.60727" lon="-1.76325">
        <ele>47</ele>
        <time>2019-05-20T21:01:40Z</time>
      </trkpt>
      <trkpt lat="46.6073" lon="-1.76346">
        <ele>47</ele>
        <time>2019-05-20T21:01:42Z</time>
      </trkpt>
      <trkpt lat="46.60805" lon="-1.7678">
        <ele>51</ele>
        <time>2019-05-20T21:02:37Z</time>
      </trkpt>
      <trkpt lat="46.60817" lon="-1.76836">
        <ele>53</ele>
        <time>2019-05-20T21:02:44Z</time>
      </trkpt>
      <trkpt lat="46.60916" lon="-1.77226">
        <ele>53</ele>
        <time>2019-05-20T21:03:35Z</time>
      </trkpt>
      <trkpt lat="46.6092" lon="-1.77247">
        <ele>53</ele>
        <time>2019-05-20T21:03:38Z</time>
      </trkpt>
      <trkpt lat="46.60929" lon="-1.77327">
        <ele>52</ele>
        <time>2019-05-20T21:03:48Z</time>
      </trkpt>
      <trkpt lat="46.60942" lon="-1.77473">
        <ele>51</ele>
        <time>2019-05-20T21:04:06Z</time>
      </trkpt>
      <trkpt lat="46.60952" lon="-1.77541">
        <ele>48</ele>
        <time>2019-05-20T21:04:14Z</time>
      </trkpt>
      <trkpt lat="46.60957" lon="-1.77557">
        <ele>47</ele>
        <time>2019-05-20T21:04:16Z</time>
      </trkpt>
      <trkpt lat="46.6098" lon="-1.77612">
        <ele>44</ele>
        <time>2019-05-20T21:04:24Z</time>
      </trkpt>
      <trkpt lat="46.60983" lon="-1.77632">
        <ele>44</ele>
        <time>2019-05-20T21:04:27Z</time>
      </trkpt>
      <trkpt lat="46.60982" lon="-1.77644">
        <ele>43</ele>
        <time>2019-05-20T21:04:28Z</time>
      </trkpt>
      <trkpt lat="46.60974" lon="-1.77669">
        <ele>43</ele>
        <time>2019-05-20T21:04:31Z</time>
      </trkpt>
      <trkpt lat="46.60948" lon="-1.7775">
        <ele>42</ele>
        <time>2019-05-20T21:04:42Z</time>
      </trkpt>
      <trkpt lat="46.6094" lon="-1.77781">
        <ele>42</ele>
        <time>2019-05-20T21:04:46Z</time>
      </trkpt>
      <trkpt lat="46.60928" lon="-1.77868">
        <ele>42</ele>
        <time>2019-05-20T21:04:57Z</time>
      </trkpt>
      <trkpt lat="46.60906" lon="-1.78059">
        <ele>43</ele>
        <time>2019-05-20T21:05:21Z</time>
      </trkpt>
      <trkpt lat="46.60846" lon="-1.78435">
        <ele>33</ele>
        <time>2019-05-20T21:06:08Z</time>
      </trkpt>
      <trkpt lat="46.60844" lon="-1.78466">
        <ele>33</ele>
        <time>2019-05-20T21:06:12Z</time>
      </trkpt>
      <trkpt lat="46.60846" lon="-1.78661">
        <ele>28</ele>
        <time>2019-05-20T21:06:36Z</time>
      </trkpt>
      <trkpt lat="46.60861" lon="-1.7882">
        <ele>31</ele>
        <time>2019-05-20T21:06:55Z</time>
      </trkpt>
      <trkpt lat="46.60864" lon="-1.78884">
        <ele>31</ele>
        <time>2019-05-20T21:07:03Z</time>
      </trkpt>
      <trkpt lat="46.60869" lon="-1.79062">
        <ele>30</ele>
        <time>2019-05-20T21:07:25Z</time>
      </trkpt>
      <trkpt lat="46.60872" lon="-1.79113">
        <ele>31</ele>
        <time>2019-05-20T21:07:31Z</time>
      </trkpt>
      <trkpt lat="46.60879" lon="-1.79145">
        <ele>31</ele>
        <time>2019-05-20T21:07:35Z</time>
      </trkpt>
      <trkpt lat="46.60918" lon="-1.79253">
        <ele>35</ele>
        <time>2019-05-20T21:07:50Z</time>
      </trkpt>
      <trkpt lat="46.60929" lon="-1.79306">
        <ele>36</ele>
        <time>2019-05-20T21:07:57Z</time>
      </trkpt>
      <trkpt lat="46.60927" lon="-1.79349">
        <ele>37</ele>
        <time>2019-05-20T21:08:02Z</time>
      </trkpt>
      <trkpt lat="46.60915" lon="-1.79401">
        <ele>38</ele>
        <time>2019-05-20T21:08:09Z</time>
      </trkpt>
      <trkpt lat="46.60818" lon="-1.79716">
        <ele>33</ele>
        <time>2019-05-20T21:08:51Z</time>
      </trkpt>
      <trkpt lat="46.60781" lon="-1.7983">
        <ele>33</ele>
        <time>2019-05-20T21:09:07Z</time>
      </trkpt>
      <trkpt lat="46.60762" lon="-1.79929">
        <ele>33</ele>
        <time>2019-05-20T21:09:19Z</time>
      </trkpt>
      <trkpt lat="46.60731" lon="-1.80128">
        <ele>38</ele>
        <time>2019-05-20T21:09:44Z</time>
      </trkpt>
      <trkpt lat="46.60695" lon="-1.80268">
        <ele>37</ele>
        <time>2019-05-20T21:10:02Z</time>
      </trkpt>
      <trkpt lat="46.60673" lon="-1.80336">
        <ele>36</ele>
        <time>2019-05-20T21:10:12Z</time>
      </trkpt>
      <trkpt lat="46.60595" lon="-1.80534">
        <ele>41</ele>
        <time>2019-05-20T21:10:39Z</time>
      </trkpt>
      <trkpt lat="46.60586" lon="-1.80563">
        <ele>40</ele>
        <time>2019-05-20T21:10:43Z</time>
      </trkpt>
      <trkpt lat="46.6058" lon="-1.80594">
        <ele>40</ele>
        <time>2019-05-20T21:10:47Z</time>
      </trkpt>
      <trkpt lat="46.60576" lon="-1.80629">
        <ele>39</ele>
        <time>2019-05-20T21:10:52Z</time>
      </trkpt>
      <trkpt lat="46.60568" lon="-1.80848">
        <ele>35</ele>
        <time>2019-05-20T21:11:18Z</time>
      </trkpt>
      <trkpt lat="46.60539" lon="-1.81018">
        <ele>34</ele>
        <time>2019-05-20T21:11:40Z</time>
      </trkpt>
      <trkpt lat="46.60536" lon="-1.81051">
        <ele>34</ele>
        <time>2019-05-20T21:11:44Z</time>
      </trkpt>
      <trkpt lat="46.60538" lon="-1.81093">
        <ele>33</ele>
        <time>2019-05-20T21:11:49Z</time>
      </trkpt>
      <trkpt lat="46.60621" lon="-1.81572">
        <ele>30</ele>
        <time>2019-05-20T21:12:49Z</time>
      </trkpt>
      <trkpt lat="46.60628" lon="-1.81636">
        <ele>29</ele>
        <time>2019-05-20T21:12:57Z</time>
      </trkpt>
      <trkpt lat="46.6063" lon="-1.81707">
        <ele>28</ele>
        <time>2019-05-20T21:13:06Z</time>
      </trkpt>
      <trkpt lat="46.60636" lon="-1.81758">
        <ele>26</ele>
        <time>2019-05-20T21:13:12Z</time>
      </trkpt>
      <trkpt lat="46.6065" lon="-1.81803">
        <ele>25</ele>
        <time>2019-05-20T21:13:18Z</time>
      </trkpt>
      <trkpt lat="46.60668" lon="-1.8185">
        <ele>25</ele>
        <time>2019-05-20T21:13:25Z</time>
      </trkpt>
      <trkpt lat="46.60677" lon="-1.81893">
        <ele>24</ele>
        <time>2019-05-20T21:13:31Z</time>
      </trkpt>
      <trkpt lat="46.60678" lon="-1.81943">
        <ele>24</ele>
        <time>2019-05-20T21:13:37Z</time>
      </trkpt>
      <trkpt lat="46.60671" lon="-1.82007">
        <ele>24</ele>
        <time>2019-05-20T21:13:45Z</time>
      </trkpt>
      <trkpt lat="46.6064" lon="-1.82218">
        <ele>26</ele>
        <time>2019-05-20T21:14:11Z</time>
      </trkpt>
      <trkpt lat="46.60625" lon="-1.82443">
        <ele>29</ele>
        <time>2019-05-20T21:14:39Z</time>
      </trkpt>
      <trkpt lat="46.60606" lon="-1.82772">
        <ele>28</ele>
        <time>2019-05-20T21:15:19Z</time>
      </trkpt>
      <trkpt lat="46.60604" lon="-1.82798">
        <ele>28</ele>
        <time>2019-05-20T21:15:22Z</time>
      </trkpt>
      <trkpt lat="46.60597" lon="-1.82825">
        <ele>28</ele>
        <time>2019-05-20T21:15:26Z</time>
      </trkpt>
      <trkpt lat="46.60583" lon="-1.82865">
        <ele>28</ele>
        <time>2019-05-20T21:15:31Z</time>
      </trkpt>
      <trkpt lat="46.6058" lon="-1.82873">
        <ele>28</ele>
        <time>2019-05-20T21:15:32Z</time>
      </trkpt>
      <trkpt lat="46.60591" lon="-1.82916">
        <ele>29</ele>
        <time>2019-05-20T21:15:38Z</time>
      </trkpt>
      <trkpt lat="46.60603" lon="-1.82972">
        <ele>29</ele>
        <time>2019-05-20T21:15:45Z</time>
      </trkpt>
      <trkpt lat="46.60612" lon="-1.83004">
        <ele>29</ele>
        <time>2019-05-20T21:15:49Z</time>
      </trkpt>
      <trkpt lat="46.60656" lon="-1.83087">
        <ele>29</ele>
        <time>2019-05-20T21:16:02Z</time>
      </trkpt>
      <trkpt lat="46.60681" lon="-1.8315">
        <ele>28</ele>
        <time>2019-05-20T21:16:11Z</time>
      </trkpt>
      <trkpt lat="46.60685" lon="-1.83168">
        <ele>27</ele>
        <time>2019-05-20T21:16:13Z</time>
      </trkpt>
      <trkpt lat="46.60686" lon="-1.83185">
        <ele>27</ele>
        <time>2019-05-20T21:16:15Z</time>
      </trkpt>
      <trkpt lat="46.60681" lon="-1.83248">
        <ele>26</ele>
        <time>2019-05-20T21:16:23Z</time>
      </trkpt>
      <trkpt lat="46.60681" lon="-1.83268">
        <ele>26</ele>
        <time>2019-05-20T21:16:26Z</time>
      </trkpt>
      <trkpt lat="46.60687" lon="-1.83312">
        <ele>26</ele>
        <time>2019-05-20T21:16:31Z</time>
      </trkpt>
      <trkpt lat="46.60695" lon="-1.83319">
        <ele>26</ele>
        <time>2019-05-20T21:16:33Z</time>
      </trkpt>
      <trkpt lat="46.60766" lon="-1.83464">
        <ele>24</ele>
        <time>2019-05-20T21:16:54Z</time>
      </trkpt>
      <trkpt lat="46.6077" lon="-1.83487">
        <ele>24</ele>
        <time>2019-05-20T21:16:57Z</time>
      </trkpt>
      <trkpt lat="46.60769" lon="-1.83492">
        <ele>24</ele>
        <time>2019-05-20T21:16:58Z</time>
      </trkpt>
      <trkpt lat="46.60784" lon="-1.83509">
        <ele>24</ele>
        <time>2019-05-20T21:17:01Z</time>
      </trkpt>
      <trkpt lat="46.60806" lon="-1.83543">
        <ele>25</ele>
        <time>2019-05-20T21:17:07Z</time>
      </trkpt>
      <trkpt lat="46.60979" lon="-1.83778">
        <ele>22</ele>
        <time>2019-05-20T21:17:49Z</time>
      </trkpt>
      <trkpt lat="46.60984" lon="-1.83787">
        <ele>22</ele>
        <time>2019-05-20T21:17:51Z</time>
      </trkpt>
      <trkpt lat="46.60997" lon="-1.83821">
        <ele>21</ele>
        <time>2019-05-20T21:17:55Z</time>
      </trkpt>
      <trkpt lat="46.61018" lon="-1.83862">
        <ele>21</ele>
        <time>2019-05-20T21:18:02Z</time>
      </trkpt>
      <trkpt lat="46.61025" lon="-1.83887">
        <ele>21</ele>
        <time>2019-05-20T21:18:05Z</time>
      </trkpt>
      <trkpt lat="46.6103" lon="-1.83915">
        <ele>21</ele>
        <time>2019-05-20T21:18:08Z</time>
      </trkpt>
      <trkpt lat="46.61032" lon="-1.83937">
        <ele>21</ele>
        <time>2019-05-20T21:18:11Z</time>
      </trkpt>
      <trkpt lat="46.6103" lon="-1.84001">
        <ele>20</ele>
        <time>2019-05-20T21:18:19Z</time>
      </trkpt>
      <trkpt lat="46.6103" lon="-1.84092">
        <ele>18</ele>
        <time>2019-05-20T21:18:30Z</time>
      </trkpt>
      <trkpt lat="46.61023" lon="-1.8412">
        <ele>16</ele>
        <time>2019-05-20T21:18:34Z</time>
      </trkpt>
      <trkpt lat="46.61017" lon="-1.84123">
        <ele>15</ele>
        <time>2019-05-20T21:18:35Z</time>
      </trkpt>
      <trkpt lat="46.61015" lon="-1.84148">
        <ele>14</ele>
        <time>2019-05-20T21:18:38Z</time>
      </trkpt>
      <trkpt lat="46.61016" lon="-1.8418">
        <ele>12</ele>
        <time>2019-05-20T21:18:42Z</time>
      </trkpt>
      <trkpt lat="46.61017" lon="-1.84189">
        <ele>12</ele>
        <time>2019-05-20T21:18:43Z</time>
      </trkpt>
      <trkpt lat="46.61049" lon="-1.84243">
        <ele>8</ele>
        <time>2019-05-20T21:18:52Z</time>
      </trkpt>
      <trkpt lat="46.6105" lon="-1.84256">
        <ele>7</ele>
        <time>2019-05-20T21:18:53Z</time>
      </trkpt>
      <trkpt lat="46.61043" lon="-1.84278">
        <ele>6</ele>
        <time>2019-05-20T21:18:56Z</time>
      </trkpt>
      <trkpt lat="46.61034" lon="-1.84293">
        <ele>6</ele>
        <time>2019-05-20T21:18:59Z</time>
      </trkpt>
      <trkpt lat="46.61025" lon="-1.84301">
        <ele>6</ele>
        <time>2019-05-20T21:19:01Z</time>
      </trkpt>
      <trkpt lat="46.60997" lon="-1.84347">
        <ele>5</ele>
        <time>2019-05-20T21:19:08Z</time>
      </trkpt>
      <trkpt lat="46.60987" lon="-1.8437">
        <ele>6</ele>
        <time>2019-05-20T21:19:11Z</time>
      </trkpt>
      <trkpt lat="46.60987" lon="-1.84386">
        <ele>6</ele>
        <time>2019-05-20T21:19:13Z</time>
      </trkpt>
      <trkpt lat="46.6099" lon="-1.84401">
        <ele>6</ele>
        <time>2019-05-20T21:19:15Z</time>
      </trkpt>
      <trkpt lat="46.61001" lon="-1.84428">
        <ele>7</ele>
        <time>2019-05-20T21:19:19Z</time>
      </trkpt>
      <trkpt lat="46.61013" lon="-1.84473">
        <ele>9</ele>
        <time>2019-05-20T21:19:25Z</time>
      </trkpt>
      <trkpt lat="46.61023" lon="-1.84493">
        <ele>10</ele>
        <time>2019-05-20T21:19:28Z</time>
      </trkpt>
      <trkpt lat="46.61034" lon="-1.84537">
        <ele>13</ele>
        <time>2019-05-20T21:19:34Z</time>
      </trkpt>
      <trkpt lat="46.61052" lon="-1.84659">
        <ele>19</ele>
        <time>2019-05-20T21:19:49Z</time>
      </trkpt>
      <trkpt lat="46.6105" lon="-1.84671">
        <ele>19</ele>
        <time>2019-05-20T21:19:51Z</time>
      </trkpt>
      <trkpt lat="46.61081" lon="-1.84699">
        <ele>19</ele>
        <time>2019-05-20T21:19:57Z</time>
      </trkpt>
      <trkpt lat="46.611" lon="-1.8473">
        <ele>19</ele>
        <time>2019-05-20T21:20:02Z</time>
      </trkpt>
      <trkpt lat="46.61116" lon="-1.84746">
        <ele>20</ele>
        <time>2019-05-20T21:20:06Z</time>
      </trkpt>
      <trkpt lat="46.61124" lon="-1.84743">
        <ele>19</ele>
        <time>2019-05-20T21:20:07Z</time>
      </trkpt>
      <trkpt lat="46.61132" lon="-1.84744">
        <ele>19</ele>
        <time>2019-05-20T21:20:08Z</time>
      </trkpt>
      <trkpt lat="46.61138" lon="-1.84749">
        <ele>19</ele>
        <time>2019-05-20T21:20:10Z</time>
      </trkpt>
      <trkpt lat="46.61145" lon="-1.84761">
        <ele>19</ele>
        <time>2019-05-20T21:20:12Z</time>
      </trkpt>
      <trkpt lat="46.61147" lon="-1.84772">
        <ele>19</ele>
        <time>2019-05-20T21:20:13Z</time>
      </trkpt>
      <trkpt lat="46.61147" lon="-1.84782">
        <ele>19</ele>
        <time>2019-05-20T21:20:14Z</time>
      </trkpt>
      <trkpt lat="46.61144" lon="-1.84792">
        <ele>20</ele>
        <time>2019-05-20T21:20:16Z</time>
      </trkpt>
      <trkpt lat="46.61139" lon="-1.84799">
        <ele>20</ele>
        <time>2019-05-20T21:20:17Z</time>
      </trkpt>
      <trkpt lat="46.61136" lon="-1.84814">
        <ele>20</ele>
        <time>2019-05-20T21:20:19Z</time>
      </trkpt>
      <trkpt lat="46.61133" lon="-1.8483">
        <ele>20</ele>
        <time>2019-05-20T21:20:21Z</time>
      </trkpt>
      <trkpt lat="46.61133" lon="-1.84861">
        <ele>21</ele>
        <time>2019-05-20T21:20:25Z</time>
      </trkpt>
      <trkpt lat="46.61136" lon="-1.84927">
        <ele>22</ele>
        <time>2019-05-20T21:20:33Z</time>
      </trkpt>
      <trkpt lat="46.6114" lon="-1.84951">
        <ele>21</ele>
        <time>2019-05-20T21:20:36Z</time>
      </trkpt>
      <trkpt lat="46.61146" lon="-1.8497">
        <ele>21</ele>
        <time>2019-05-20T21:20:38Z</time>
      </trkpt>
      <trkpt lat="46.61157" lon="-1.84987">
        <ele>20</ele>
        <time>2019-05-20T21:20:41Z</time>
      </trkpt>
      <trkpt lat="46.612" lon="-1.85032">
        <ele>19</ele>
        <time>2019-05-20T21:20:50Z</time>
      </trkpt>
      <trkpt lat="46.61219" lon="-1.85058">
        <ele>18</ele>
        <time>2019-05-20T21:20:55Z</time>
      </trkpt>
      <trkpt lat="46.61275" lon="-1.85155">
        <ele>17</ele>
        <time>2019-05-20T21:21:11Z</time>
      </trkpt>
      <trkpt lat="46.61296" lon="-1.85182">
        <ele>16</ele>
        <time>2019-05-20T21:21:16Z</time>
      </trkpt>
      <trkpt lat="46.61336" lon="-1.85221">
        <ele>16</ele>
        <time>2019-05-20T21:21:24Z</time>
      </trkpt>
      <trkpt lat="46.61356" lon="-1.85249">
        <ele>15</ele>
        <time>2019-05-20T21:21:29Z</time>
      </trkpt>
      <trkpt lat="46.6137" lon="-1.85283">
        <ele>15</ele>
        <time>2019-05-20T21:21:34Z</time>
      </trkpt>
      <trkpt lat="46.61401" lon="-1.85419">
        <ele>14</ele>
        <time>2019-05-20T21:21:51Z</time>
      </trkpt>
      <trkpt lat="46.61416" lon="-1.85472">
        <ele>13</ele>
        <time>2019-05-20T21:21:58Z</time>
      </trkpt>
      <trkpt lat="46.61447" lon="-1.85545">
        <ele>11</ele>
        <time>2019-05-20T21:22:09Z</time>
      </trkpt>
      <trkpt lat="46.6147" lon="-1.85616">
        <ele>10</ele>
        <time>2019-05-20T21:22:19Z</time>
      </trkpt>
      <trkpt lat="46.61486" lon="-1.85682">
        <ele>9</ele>
        <time>2019-05-20T21:22:27Z</time>
      </trkpt>
      <trkpt lat="46.61494" lon="-1.85744">
        <ele>8</ele>
        <time>2019-05-20T21:22:35Z</time>
      </trkpt>
      <trkpt lat="46.61498" lon="-1.8576">
        <ele>8</ele>
        <time>2019-05-20T21:22:37Z</time>
      </trkpt>
      <trkpt lat="46.61503" lon="-1.85769">
        <ele>8</ele>
        <time>2019-05-20T21:22:38Z</time>
      </trkpt>
      <trkpt lat="46.61507" lon="-1.85772">
        <ele>8</ele>
        <time>2019-05-20T21:22:39Z</time>
      </trkpt>
      <trkpt lat="46.61512" lon="-1.85784">
        <ele>8</ele>
        <time>2019-05-20T21:22:41Z</time>
      </trkpt>
      <trkpt lat="46.61513" lon="-1.85791">
        <ele>7</ele>
        <time>2019-05-20T21:22:42Z</time>
      </trkpt>
      <trkpt lat="46.61525" lon="-1.85815">
        <ele>7</ele>
        <time>2019-05-20T21:22:45Z</time>
      </trkpt>
      <trkpt lat="46.61543" lon="-1.85843">
        <ele>7</ele>
        <time>2019-05-20T21:22:50Z</time>
      </trkpt>
      <trkpt lat="46.61577" lon="-1.85913">
        <ele>7</ele>
        <time>2019-05-20T21:23:00Z</time>
      </trkpt>
      <trkpt lat="46.6167" lon="-1.86041">
        <ele>8</ele>
        <time>2019-05-20T21:23:23Z</time>
      </trkpt>
      <trkpt lat="46.61701" lon="-1.86092">
        <ele>8</ele>
        <time>2019-05-20T21:23:32Z</time>
      </trkpt>
      <trkpt lat="46.61735" lon="-1.86155">
        <ele>8</ele>
        <time>2019-05-20T21:23:41Z</time>
      </trkpt>
      <trkpt lat="46.61759" lon="-1.8621">
        <ele>8</ele>
        <time>2019-05-20T21:23:49Z</time>
      </trkpt>
      <trkpt lat="46.61763" lon="-1.86232">
        <ele>8</ele>
        <time>2019-05-20T21:23:52Z</time>
      </trkpt>
      <trkpt lat="46.61767" lon="-1.86306">
        <ele>8</ele>
        <time>2019-05-20T21:24:01Z</time>
      </trkpt>
      <trkpt lat="46.61763" lon="-1.86335">
        <ele>8</ele>
        <time>2019-05-20T21:24:05Z</time>
      </trkpt>
      <trkpt lat="46.6176" lon="-1.86342">
        <ele>8</ele>
        <time>2019-05-20T21:24:06Z</time>
      </trkpt>
      <trkpt lat="46.61756" lon="-1.8635">
        <ele>8</ele>
        <time>2019-05-20T21:24:07Z</time>
      </trkpt>
      <trkpt lat="46.61746" lon="-1.86361">
        <ele>8</ele>
        <time>2019-05-20T21:24:09Z</time>
      </trkpt>
      <trkpt lat="46.61704" lon="-1.86391">
        <ele>9</ele>
        <time>2019-05-20T21:24:18Z</time>
      </trkpt>
      <trkpt lat="46.61677" lon="-1.86407">
        <ele>9</ele>
        <time>2019-05-20T21:24:23Z</time>
      </trkpt>
      <trkpt lat="46.61652" lon="-1.86427">
        <ele>8</ele>
        <time>2019-05-20T21:24:28Z</time>
      </trkpt>
      <trkpt lat="46.61641" lon="-1.86445">
        <ele>8</ele>
        <time>2019-05-20T21:24:31Z</time>
      </trkpt>
      <trkpt lat="46.61637" lon="-1.86466">
        <ele>7</ele>
        <time>2019-05-20T21:24:33Z</time>
      </trkpt>
      <trkpt lat="46.61626" lon="-1.86625">
        <ele>5</ele>
        <time>2019-05-20T21:24:53Z</time>
      </trkpt>
      <trkpt lat="46.61624" lon="-1.86664">
        <ele>4</ele>
        <time>2019-05-20T21:24:58Z</time>
      </trkpt>
      <trkpt lat="46.61625" lon="-1.86675">
        <ele>4</ele>
        <time>2019-05-20T21:24:59Z</time>
      </trkpt>
      <trkpt lat="46.61641" lon="-1.86773">
        <ele>4</ele>
        <time>2019-05-20T21:25:11Z</time>
      </trkpt>
      <trkpt lat="46.61636" lon="-1.86775">
        <ele>4</ele>
        <time>2019-05-20T21:25:12Z</time>
      </trkpt>
      <trkpt lat="46.61644" lon="-1.86827">
        <ele>4</ele>
        <time>2019-05-20T21:25:19Z</time>
      </trkpt>
      <trkpt lat="46.61659" lon="-1.86889">
        <ele>4</ele>
        <time>2019-05-20T21:25:27Z</time>
      </trkpt>
      <trkpt lat="46.61675" lon="-1.86922">
        <ele>4</ele>
        <time>2019-05-20T21:25:32Z</time>
      </trkpt>
      <trkpt lat="46.61677" lon="-1.86932">
        <ele>4</ele>
        <time>2019-05-20T21:25:33Z</time>
      </trkpt>
      <trkpt lat="46.61684" lon="-1.86947">
        <ele>4</ele>
        <time>2019-05-20T21:25:35Z</time>
      </trkpt>
      <trkpt lat="46.61693" lon="-1.86963">
        <ele>4</ele>
        <time>2019-05-20T21:25:38Z</time>
      </trkpt>
      <trkpt lat="46.61704" lon="-1.86975">
        <ele>5</ele>
        <time>2019-05-20T21:25:40Z</time>
      </trkpt>
      <trkpt lat="46.61737" lon="-1.87009">
        <ele>4</ele>
        <time>2019-05-20T21:25:47Z</time>
      </trkpt>
      <trkpt lat="46.61741" lon="-1.87015">
        <ele>4</ele>
        <time>2019-05-20T21:25:48Z</time>
      </trkpt>
      <trkpt lat="46.61744" lon="-1.87031">
        <ele>4</ele>
        <time>2019-05-20T21:25:51Z</time>
      </trkpt>
      <trkpt lat="46.61752" lon="-1.87041">
        <ele>6</ele>
        <time>2019-05-20T21:25:52Z</time>
      </trkpt>
      <trkpt lat="46.61808" lon="-1.87098">
        <ele>5</ele>
        <time>2019-05-20T21:26:05Z</time>
      </trkpt>
      <trkpt lat="46.61813" lon="-1.871">
        <ele>5</ele>
        <time>2019-05-20T21:26:05Z</time>
      </trkpt>
      <trkpt lat="46.61824" lon="-1.87096">
        <ele>6</ele>
        <time>2019-05-20T21:26:07Z</time>
      </trkpt>
      <trkpt lat="46.61833" lon="-1.87098">
        <ele>6</ele>
        <time>2019-05-20T21:26:09Z</time>
      </trkpt>
      <trkpt lat="46.61845" lon="-1.8711">
        <ele>6</ele>
        <time>2019-05-20T21:26:12Z</time>
      </trkpt>
      <trkpt lat="46.61862" lon="-1.87144">
        <ele>5</ele>
        <time>2019-05-20T21:26:17Z</time>
      </trkpt>
      <trkpt lat="46.61891" lon="-1.87168">
        <ele>6</ele>
        <time>2019-05-20T21:26:23Z</time>
      </trkpt>
      <trkpt lat="46.61895" lon="-1.87171">
        <ele>6</ele>
        <time>2019-05-20T21:26:24Z</time>
      </trkpt>
      <trkpt lat="46.61905" lon="-1.87172">
        <ele>6</ele>
        <time>2019-05-20T21:26:25Z</time>
      </trkpt>
      <trkpt lat="46.61916" lon="-1.87181">
        <ele>6</ele>
        <time>2019-05-20T21:26:28Z</time>
      </trkpt>
      <trkpt lat="46.61996" lon="-1.87229">
        <ele>6</ele>
        <time>2019-05-20T21:26:43Z</time>
      </trkpt>
      <trkpt lat="46.62004" lon="-1.87231">
        <ele>6</ele>
        <time>2019-05-20T21:26:44Z</time>
      </trkpt>
      <trkpt lat="46.62023" lon="-1.87241">
        <ele>6</ele>
        <time>2019-05-20T21:26:48Z</time>
      </trkpt>
      <trkpt lat="46.62045" lon="-1.87249">
        <ele>6</ele>
        <time>2019-05-20T21:26:52Z</time>
      </trkpt>
      <trkpt lat="46.62054" lon="-1.87249">
        <ele>6</ele>
        <time>2019-05-20T21:26:54Z</time>
      </trkpt>
      <trkpt lat="46.62071" lon="-1.87242">
        <ele>6</ele>
        <time>2019-05-20T21:26:57Z</time>
      </trkpt>
      <trkpt lat="46.6209" lon="-1.87229">
        <ele>6</ele>
        <time>2019-05-20T21:27:01Z</time>
      </trkpt>
      <trkpt lat="46.62118" lon="-1.87217">
        <ele>7</ele>
        <time>2019-05-20T21:27:06Z</time>
      </trkpt>
      <trkpt lat="46.62138" lon="-1.87216">
        <ele>8</ele>
        <time>2019-05-20T21:27:09Z</time>
      </trkpt>
      <trkpt lat="46.62174" lon="-1.87235">
        <ele>8</ele>
        <time>2019-05-20T21:27:16Z</time>
      </trkpt>
      <trkpt lat="46.62179" lon="-1.87235">
        <ele>8</ele>
        <time>2019-05-20T21:27:17Z</time>
      </trkpt>
      <trkpt lat="46.62296" lon="-1.87317">
        <ele>6</ele>
        <time>2019-05-20T21:27:40Z</time>
      </trkpt>
      <trkpt lat="46.62349" lon="-1.87341">
        <ele>7</ele>
        <time>2019-05-20T21:27:50Z</time>
      </trkpt>
      <trkpt lat="46.62399" lon="-1.8736">
        <ele>6</ele>
        <time>2019-05-20T21:27:59Z</time>
      </trkpt>
      <trkpt lat="46.6241" lon="-1.87361">
        <ele>7</ele>
        <time>2019-05-20T21:28:01Z</time>
      </trkpt>
      <trkpt lat="46.62437" lon="-1.87369">
        <ele>6</ele>
        <time>2019-05-20T21:28:06Z</time>
      </trkpt>
      <trkpt lat="46.6245" lon="-1.87371">
        <ele>7</ele>
        <time>2019-05-20T21:28:08Z</time>
      </trkpt>
      <trkpt lat="46.62502" lon="-1.87366">
        <ele>7</ele>
        <time>2019-05-20T21:28:18Z</time>
      </trkpt>
      <trkpt lat="46.62564" lon="-1.87377">
        <ele>7</ele>
        <time>2019-05-20T21:28:29Z</time>
      </trkpt>
      <trkpt lat="46.62573" lon="-1.87376">
        <ele>7</ele>
        <time>2019-05-20T21:28:30Z</time>
      </trkpt>
      <trkpt lat="46.62612" lon="-1.87363">
        <ele>7</ele>
        <time>2019-05-20T21:28:37Z</time>
      </trkpt>
      <trkpt lat="46.62633" lon="-1.87364">
        <ele>7</ele>
        <time>2019-05-20T21:28:41Z</time>
      </trkpt>
      <trkpt lat="46.6267" lon="-1.87376">
        <ele>7</ele>
        <time>2019-05-20T21:28:48Z</time>
      </trkpt>
      <trkpt lat="46.62681" lon="-1.87385">
        <ele>7</ele>
        <time>2019-05-20T21:28:50Z</time>
      </trkpt>
      <trkpt lat="46.62692" lon="-1.87402">
        <ele>7</ele>
        <time>2019-05-20T21:28:53Z</time>
      </trkpt>
      <trkpt lat="46.62694" lon="-1.87399">
        <ele>8</ele>
        <time>2019-05-20T21:28:54Z</time>
      </trkpt>
      <trkpt lat="46.62707" lon="-1.87416">
        <ele>8</ele>
        <time>2019-05-20T21:28:57Z</time>
      </trkpt>
      <trkpt lat="46.62721" lon="-1.8743">
        <ele>8</ele>
        <time>2019-05-20T21:29:00Z</time>
      </trkpt>
      <trkpt lat="46.62802" lon="-1.87478">
        <ele>9</ele>
        <time>2019-05-20T21:29:15Z</time>
      </trkpt>
      <trkpt lat="46.62837" lon="-1.87504">
        <ele>9</ele>
        <time>2019-05-20T21:29:22Z</time>
      </trkpt>
      <trkpt lat="46.62858" lon="-1.87529">
        <ele>8</ele>
        <time>2019-05-20T21:29:27Z</time>
      </trkpt>
      <trkpt lat="46.62895" lon="-1.87599">
        <ele>8</ele>
        <time>2019-05-20T21:29:38Z</time>
      </trkpt>
      <trkpt lat="46.62992" lon="-1.87771">
        <ele>10</ele>
        <time>2019-05-20T21:30:05Z</time>
      </trkpt>
      <trkpt lat="46.63047" lon="-1.87955">
        <ele>10</ele>
        <time>2019-05-20T21:30:30Z</time>
      </trkpt>
      <trkpt lat="46.63064" lon="-1.87991">
        <ele>11</ele>
        <time>2019-05-20T21:30:35Z</time>
      </trkpt>
      <trkpt lat="46.63118" lon="-1.88074">
        <ele>9</ele>
        <time>2019-05-20T21:30:49Z</time>
      </trkpt>
      <trkpt lat="46.63146" lon="-1.88128">
        <ele>9</ele>
        <time>2019-05-20T21:30:57Z</time>
      </trkpt>
      <trkpt lat="46.6316" lon="-1.88204">
        <ele>8</ele>
        <time>2019-05-20T21:31:07Z</time>
      </trkpt>
      <trkpt lat="46.63195" lon="-1.88438">
        <ele>6</ele>
        <time>2019-05-20T21:31:36Z</time>
      </trkpt>
      <trkpt lat="46.63206" lon="-1.88468">
        <ele>5</ele>
        <time>2019-05-20T21:31:40Z</time>
      </trkpt>
      <trkpt lat="46.633" lon="-1.88644">
        <ele>6</ele>
        <time>2019-05-20T21:32:07Z</time>
      </trkpt>
      <trkpt lat="46.63313" lon="-1.88664">
        <ele>6</ele>
        <time>2019-05-20T21:32:11Z</time>
      </trkpt>
      <trkpt lat="46.63329" lon="-1.88684">
        <ele>6</ele>
        <time>2019-05-20T21:32:15Z</time>
      </trkpt>
      <trkpt lat="46.63391" lon="-1.88741">
        <ele>7</ele>
        <time>2019-05-20T21:32:28Z</time>
      </trkpt>
      <trkpt lat="46.63405" lon="-1.88758">
        <ele>7</ele>
        <time>2019-05-20T21:32:31Z</time>
      </trkpt>
      <trkpt lat="46.63417" lon="-1.8878">
        <ele>7</ele>
        <time>2019-05-20T21:32:34Z</time>
      </trkpt>
      <trkpt lat="46.63523" lon="-1.89031">
        <ele>6</ele>
        <time>2019-05-20T21:33:10Z</time>
      </trkpt>
      <trkpt lat="46.63531" lon="-1.89049">
        <ele>6</ele>
        <time>2019-05-20T21:33:13Z</time>
      </trkpt>
      <trkpt lat="46.63543" lon="-1.89064">
        <ele>6</ele>
        <time>2019-05-20T21:33:16Z</time>
      </trkpt>
      <trkpt lat="46.63554" lon="-1.89073">
        <ele>7</ele>
        <time>2019-05-20T21:33:18Z</time>
      </trkpt>
      <trkpt lat="46.63686" lon="-1.89166">
        <ele>8</ele>
        <time>2019-05-20T21:33:44Z</time>
      </trkpt>
      <trkpt lat="46.63788" lon="-1.89241">
        <ele>8</ele>
        <time>2019-05-20T21:34:04Z</time>
      </trkpt>
      <trkpt lat="46.63801" lon="-1.89254">
        <ele>7</ele>
        <time>2019-05-20T21:34:07Z</time>
      </trkpt>
      <trkpt lat="46.63918" lon="-1.8942">
        <ele>5</ele>
        <time>2019-05-20T21:34:36Z</time>
      </trkpt>
      <trkpt lat="46.63925" lon="-1.89427">
        <ele>5</ele>
        <time>2019-05-20T21:34:38Z</time>
      </trkpt>
      <trkpt lat="46.63933" lon="-1.89428">
        <ele>5</ele>
        <time>2019-05-20T21:34:39Z</time>
      </trkpt>
      <trkpt lat="46.63995" lon="-1.89423">
        <ele>7</ele>
        <time>2019-05-20T21:34:50Z</time>
      </trkpt>
      <trkpt lat="46.6401" lon="-1.89416">
        <ele>7</ele>
        <time>2019-05-20T21:34:53Z</time>
      </trkpt>
      <trkpt lat="46.64037" lon="-1.89358">
        <ele>9</ele>
        <time>2019-05-20T21:35:02Z</time>
      </trkpt>
      <trkpt lat="46.64055" lon="-1.893">
        <ele>10</ele>
        <time>2019-05-20T21:35:09Z</time>
      </trkpt>
      <trkpt lat="46.64097" lon="-1.89225">
        <ele>12</ele>
        <time>2019-05-20T21:35:21Z</time>
      </trkpt>
      <trkpt lat="46.64123" lon="-1.89167">
        <ele>12</ele>
        <time>2019-05-20T21:35:30Z</time>
      </trkpt>
      <trkpt lat="46.64132" lon="-1.89154">
        <ele>13</ele>
        <time>2019-05-20T21:35:32Z</time>
      </trkpt>
      <trkpt lat="46.64172" lon="-1.89116">
        <ele>13</ele>
        <time>2019-05-20T21:35:40Z</time>
      </trkpt>
      <trkpt lat="46.64202" lon="-1.89093">
        <ele>14</ele>
        <time>2019-05-20T21:35:46Z</time>
      </trkpt>
      <trkpt lat="46.6421" lon="-1.89078">
        <ele>14</ele>
        <time>2019-05-20T21:35:49Z</time>
      </trkpt>
      <trkpt lat="46.64219" lon="-1.89051">
        <ele>14</ele>
        <time>2019-05-20T21:35:52Z</time>
      </trkpt>
      <trkpt lat="46.64223" lon="-1.89047">
        <ele>14</ele>
        <time>2019-05-20T21:35:53Z</time>
      </trkpt>
      <trkpt lat="46.64275" lon="-1.89049">
        <ele>15</ele>
        <time>2019-05-20T21:36:03Z</time>
      </trkpt>
      <trkpt lat="46.64414" lon="-1.89029">
        <ele>16</ele>
        <time>2019-05-20T21:36:27Z</time>
      </trkpt>
      <trkpt lat="46.64447" lon="-1.89027">
        <ele>16</ele>
        <time>2019-05-20T21:36:33Z</time>
      </trkpt>
      <trkpt lat="46.64478" lon="-1.89028">
        <ele>16</ele>
        <time>2019-05-20T21:36:39Z</time>
      </trkpt>
      <trkpt lat="46.64519" lon="-1.89037">
        <ele>16</ele>
        <time>2019-05-20T21:36:46Z</time>
      </trkpt>
      <trkpt lat="46.64569" lon="-1.8903">
        <ele>16</ele>
        <time>2019-05-20T21:36:55Z</time>
      </trkpt>
      <trkpt lat="46.64585" lon="-1.89024">
        <ele>16</ele>
        <time>2019-05-20T21:36:58Z</time>
      </trkpt>
      <trkpt lat="46.64591" lon="-1.8902">
        <ele>16</ele>
        <time>2019-05-20T21:36:59Z</time>
      </trkpt>
      <trkpt lat="46.6459" lon="-1.89013">
        <ele>15</ele>
        <time>2019-05-20T21:37:00Z</time>
      </trkpt>
      <trkpt lat="46.6459" lon="-1.89006">
        <ele>15</ele>
        <time>2019-05-20T21:37:01Z</time>
      </trkpt>
      <trkpt lat="46.64593" lon="-1.89">
        <ele>15</ele>
        <time>2019-05-20T21:37:02Z</time>
      </trkpt>
      <trkpt lat="46.64597" lon="-1.88997">
        <ele>15</ele>
        <time>2019-05-20T21:37:03Z</time>
      </trkpt>
      <trkpt lat="46.64602" lon="-1.88998">
        <ele>15</ele>
        <time>2019-05-20T21:37:04Z</time>
      </trkpt>
      <trkpt lat="46.64604" lon="-1.88999">
        <ele>15</ele>
        <time>2019-05-20T21:37:04Z</time>
      </trkpt>
      <trkpt lat="46.64608" lon="-1.89006">
        <ele>15</ele>
        <time>2019-05-20T21:37:05Z</time>
      </trkpt>
      <trkpt lat="46.64609" lon="-1.89011">
        <ele>16</ele>
        <time>2019-05-20T21:37:06Z</time>
      </trkpt>
      <trkpt lat="46.64614" lon="-1.89018">
        <ele>16</ele>
        <time>2019-05-20T21:37:07Z</time>
      </trkpt>
      <trkpt lat="46.64639" lon="-1.89038">
        <ele>16</ele>
        <time>2019-05-20T21:37:12Z</time>
      </trkpt>
      <trkpt lat="46.64717" lon="-1.89082">
        <ele>18</ele>
        <time>2019-05-20T21:37:27Z</time>
      </trkpt>
      <trkpt lat="46.64816" lon="-1.89133">
        <ele>17</ele>
        <time>2019-05-20T21:37:46Z</time>
      </trkpt>
      <trkpt lat="46.65003" lon="-1.89234">
        <ele>14</ele>
        <time>2019-05-20T21:38:21Z</time>
      </trkpt>
      <trkpt lat="46.65207" lon="-1.89346">
        <ele>8</ele>
        <time>2019-05-20T21:39:00Z</time>
      </trkpt>
      <trkpt lat="46.65225" lon="-1.89359">
        <ele>7</ele>
        <time>2019-05-20T21:39:03Z</time>
      </trkpt>
      <trkpt lat="46.6527" lon="-1.89399">
        <ele>6</ele>
        <time>2019-05-20T21:39:13Z</time>
      </trkpt>
      <trkpt lat="46.65368" lon="-1.89503">
        <ele>6</ele>
        <time>2019-05-20T21:39:34Z</time>
      </trkpt>
      <trkpt lat="46.65461" lon="-1.89586">
        <ele>8</ele>
        <time>2019-05-20T21:39:54Z</time>
      </trkpt>
      <trkpt lat="46.65555" lon="-1.89654">
        <ele>7</ele>
        <time>2019-05-20T21:40:12Z</time>
      </trkpt>
      <trkpt lat="46.66202" lon="-1.90066">
        <ele>3</ele>
        <time>2019-05-20T21:42:18Z</time>
      </trkpt>
      <trkpt lat="46.66245" lon="-1.90089">
        <ele>2</ele>
        <time>2019-05-20T21:42:26Z</time>
      </trkpt>
      <trkpt lat="46.66281" lon="-1.901">
        <ele>1</ele>
        <time>2019-05-20T21:42:33Z</time>
      </trkpt>
      <trkpt lat="46.66751" lon="-1.90212">
        <ele>5</ele>
        <time>2019-05-20T21:43:57Z</time>
      </trkpt>
      <trkpt lat="46.66752" lon="-1.90206">
        <ele>6</ele>
        <time>2019-05-20T21:43:58Z</time>
      </trkpt>
      <trkpt lat="46.6676" lon="-1.90189">
        <ele>6</ele>
        <time>2019-05-20T21:44:01Z</time>
      </trkpt>
      <trkpt lat="46.66772" lon="-1.90204">
        <ele>6</ele>
        <time>2019-05-20T21:44:04Z</time>
      </trkpt>
      <trkpt lat="46.66796" lon="-1.9021">
        <ele>5</ele>
        <time>2019-05-20T21:44:08Z</time>
      </trkpt>
      <trkpt lat="46.66804" lon="-1.90205">
        <ele>6</ele>
        <time>2019-05-20T21:44:09Z</time>
      </trkpt>
      <trkpt lat="46.66808" lon="-1.90205">
        <ele>6</ele>
        <time>2019-05-20T21:44:10Z</time>
      </trkpt>
      <trkpt lat="46.66858" lon="-1.9022">
        <ele>5</ele>
        <time>2019-05-20T21:44:19Z</time>
      </trkpt>
      <trkpt lat="46.66957" lon="-1.90281">
        <ele>6</ele>
        <time>2019-05-20T21:44:38Z</time>
      </trkpt>
      <trkpt lat="46.66976" lon="-1.90306">
        <ele>6</ele>
        <time>2019-05-20T21:44:43Z</time>
      </trkpt>
      <trkpt lat="46.66983" lon="-1.90304">
        <ele>6</ele>
        <time>2019-05-20T21:44:44Z</time>
      </trkpt>
      <trkpt lat="46.66991" lon="-1.90306">
        <ele>6</ele>
        <time>2019-05-20T21:44:46Z</time>
      </trkpt>
      <trkpt lat="46.66995" lon="-1.90309">
        <ele>6</ele>
        <time>2019-05-20T21:44:46Z</time>
      </trkpt>
      <trkpt lat="46.67002" lon="-1.90323">
        <ele>6</ele>
        <time>2019-05-20T21:44:49Z</time>
      </trkpt>
      <trkpt lat="46.67002" lon="-1.9034">
        <ele>6</ele>
        <time>2019-05-20T21:44:51Z</time>
      </trkpt>
      <trkpt lat="46.66998" lon="-1.9035">
        <ele>6</ele>
        <time>2019-05-20T21:44:52Z</time>
      </trkpt>
      <trkpt lat="46.67" lon="-1.90365">
        <ele>6</ele>
        <time>2019-05-20T21:44:54Z</time>
      </trkpt>
      <trkpt lat="46.67004" lon="-1.90377">
        <ele>6</ele>
        <time>2019-05-20T21:44:56Z</time>
      </trkpt>
      <trkpt lat="46.67011" lon="-1.90391">
        <ele>5</ele>
        <time>2019-05-20T21:44:58Z</time>
      </trkpt>
      <trkpt lat="46.67058" lon="-1.9045">
        <ele>5</ele>
        <time>2019-05-20T21:45:09Z</time>
      </trkpt>
      <trkpt lat="46.67089" lon="-1.90499">
        <ele>5</ele>
        <time>2019-05-20T21:45:17Z</time>
      </trkpt>
      <trkpt lat="46.67116" lon="-1.90534">
        <ele>5</ele>
        <time>2019-05-20T21:45:23Z</time>
      </trkpt>
      <trkpt lat="46.67311" lon="-1.9081">
        <ele>2</ele>
        <time>2019-05-20T21:46:12Z</time>
      </trkpt>
      <trkpt lat="46.67342" lon="-1.9085">
        <ele>2</ele>
        <time>2019-05-20T21:46:19Z</time>
      </trkpt>
      <trkpt lat="46.67354" lon="-1.90864">
        <ele>2</ele>
        <time>2019-05-20T21:46:22Z</time>
      </trkpt>
      <trkpt lat="46.67399" lon="-1.90901">
        <ele>3</ele>
        <time>2019-05-20T21:46:31Z</time>
      </trkpt>
      <trkpt lat="46.67421" lon="-1.90912">
        <ele>3</ele>
        <time>2019-05-20T21:46:35Z</time>
      </trkpt>
      <trkpt lat="46.67429" lon="-1.90912">
        <ele>3</ele>
        <time>2019-05-20T21:46:36Z</time>
      </trkpt>
      <trkpt lat="46.67437" lon="-1.90909">
        <ele>3</ele>
        <time>2019-05-20T21:46:38Z</time>
      </trkpt>
      <trkpt lat="46.67446" lon="-1.90912">
        <ele>3</ele>
        <time>2019-05-20T21:46:40Z</time>
      </trkpt>
      <trkpt lat="46.67454" lon="-1.90919">
        <ele>3</ele>
        <time>2019-05-20T21:46:41Z</time>
      </trkpt>
      <trkpt lat="46.67459" lon="-1.90931">
        <ele>4</ele>
        <time>2019-05-20T21:46:43Z</time>
      </trkpt>
      <trkpt lat="46.6746" lon="-1.90947">
        <ele>4</ele>
        <time>2019-05-20T21:46:45Z</time>
      </trkpt>
      <trkpt lat="46.67456" lon="-1.9096">
        <ele>4</ele>
        <time>2019-05-20T21:46:47Z</time>
      </trkpt>
      <trkpt lat="46.67449" lon="-1.9097">
        <ele>4</ele>
        <time>2019-05-20T21:46:48Z</time>
      </trkpt>
      <trkpt lat="46.6745" lon="-1.91001">
        <ele>4</ele>
        <time>2019-05-20T21:46:52Z</time>
      </trkpt>
      <trkpt lat="46.67454" lon="-1.91009">
        <ele>4</ele>
        <time>2019-05-20T21:46:53Z</time>
      </trkpt>
      <trkpt lat="46.68157" lon="-1.92004">
        <ele>8</ele>
        <time>2019-05-20T21:49:48Z</time>
      </trkpt>
      <trkpt lat="46.68253" lon="-1.92142">
        <ele>7</ele>
        <time>2019-05-20T21:50:12Z</time>
      </trkpt>
      <trkpt lat="46.68304" lon="-1.92221">
        <ele>9</ele>
        <time>2019-05-20T21:50:25Z</time>
      </trkpt>
      <trkpt lat="46.68387" lon="-1.92365">
        <ele>10</ele>
        <time>2019-05-20T21:50:48Z</time>
      </trkpt>
      <trkpt lat="46.68401" lon="-1.92386">
        <ele>10</ele>
        <time>2019-05-20T21:50:52Z</time>
      </trkpt>
      <trkpt lat="46.68415" lon="-1.92395">
        <ele>10</ele>
        <time>2019-05-20T21:50:54Z</time>
      </trkpt>
      <trkpt lat="46.68452" lon="-1.92402">
        <ele>10</ele>
        <time>2019-05-20T21:51:01Z</time>
      </trkpt>
      <trkpt lat="46.68477" lon="-1.92411">
        <ele>10</ele>
        <time>2019-05-20T21:51:05Z</time>
      </trkpt>
      <trkpt lat="46.68495" lon="-1.92421">
        <ele>10</ele>
        <time>2019-05-20T21:51:09Z</time>
      </trkpt>
      <trkpt lat="46.68533" lon="-1.92462">
        <ele>10</ele>
        <time>2019-05-20T21:51:17Z</time>
      </trkpt>
      <trkpt lat="46.68626" lon="-1.92579">
        <ele>10</ele>
        <time>2019-05-20T21:51:39Z</time>
      </trkpt>
      <trkpt lat="46.68666" lon="-1.92613">
        <ele>10</ele>
        <time>2019-05-20T21:51:47Z</time>
      </trkpt>
      <trkpt lat="46.68733" lon="-1.92655">
        <ele>8</ele>
        <time>2019-05-20T21:52:00Z</time>
      </trkpt>
      <trkpt lat="46.68774" lon="-1.92675">
        <ele>8</ele>
        <time>2019-05-20T21:52:08Z</time>
      </trkpt>
      <trkpt lat="46.68817" lon="-1.92693">
        <ele>7</ele>
        <time>2019-05-20T21:52:16Z</time>
      </trkpt>
      <trkpt lat="46.68818" lon="-1.9269">
        <ele>7</ele>
        <time>2019-05-20T21:52:16Z</time>
      </trkpt>
      <trkpt lat="46.68824" lon="-1.92688">
        <ele>7</ele>
        <time>2019-05-20T21:52:18Z</time>
      </trkpt>
      <trkpt lat="46.68839" lon="-1.92689">
        <ele>7</ele>
        <time>2019-05-20T21:52:20Z</time>
      </trkpt>
      <trkpt lat="46.6884" lon="-1.92686">
        <ele>7</ele>
        <time>2019-05-20T21:52:21Z</time>
      </trkpt>
      <trkpt lat="46.68847" lon="-1.92683">
        <ele>6</ele>
        <time>2019-05-20T21:52:22Z</time>
      </trkpt>
      <trkpt lat="46.68849" lon="-1.92684">
        <ele>6</ele>
        <time>2019-05-20T21:52:22Z</time>
      </trkpt>
      <trkpt lat="46.68854" lon="-1.92676">
        <ele>6</ele>
        <time>2019-05-20T21:52:24Z</time>
      </trkpt>
      <trkpt lat="46.68925" lon="-1.92631">
        <ele>3</ele>
        <time>2019-05-20T21:52:37Z</time>
      </trkpt>
      <trkpt lat="46.68986" lon="-1.92598">
        <ele>5</ele>
        <time>2019-05-20T21:52:49Z</time>
      </trkpt>
      <trkpt lat="46.69003" lon="-1.92596">
        <ele>5</ele>
        <time>2019-05-20T21:52:52Z</time>
      </trkpt>
      <trkpt lat="46.69223" lon="-1.92591">
        <ele>9</ele>
        <time>2019-05-20T21:53:31Z</time>
      </trkpt>
      <trkpt lat="46.6923" lon="-1.92584">
        <ele>9</ele>
        <time>2019-05-20T21:53:33Z</time>
      </trkpt>
      <trkpt lat="46.6923" lon="-1.92577">
        <ele>9</ele>
        <time>2019-05-20T21:53:34Z</time>
      </trkpt>
      <trkpt lat="46.69233" lon="-1.92572">
        <ele>9</ele>
        <time>2019-05-20T21:53:34Z</time>
      </trkpt>
      <trkpt lat="46.69237" lon="-1.9257">
        <ele>9</ele>
        <time>2019-05-20T21:53:35Z</time>
      </trkpt>
      <trkpt lat="46.69242" lon="-1.92572">
        <ele>9</ele>
        <time>2019-05-20T21:53:36Z</time>
      </trkpt>
      <trkpt lat="46.69245" lon="-1.92579">
        <ele>9</ele>
        <time>2019-05-20T21:53:37Z</time>
      </trkpt>
      <trkpt lat="46.69245" lon="-1.92587">
        <ele>9</ele>
        <time>2019-05-20T21:53:38Z</time>
      </trkpt>
      <trkpt lat="46.69278" lon="-1.92589">
        <ele>9</ele>
        <time>2019-05-20T21:53:44Z</time>
      </trkpt>
      <trkpt lat="46.69442" lon="-1.92583">
        <ele>14</ele>
        <time>2019-05-20T21:54:13Z</time>
      </trkpt>
      <trkpt lat="46.69443" lon="-1.92603">
        <ele>14</ele>
        <time>2019-05-20T21:54:16Z</time>
      </trkpt>
    </trkseg>
  </trk>
</gpx>